<?xml version="1.0" encoding="UTF-8" standalone="no" ?>
<gpx xmlns="http://www.topografix.com/GPX/1/1" xmlns:xsi="http://www.w3.org/2001/XMLSchema-instance" xsi:schemaLocation="http://www.topografix.com/GPX/1/1 http://www.topografix.com/GPX/1/1/gpx.xsd" version="1.1" creator="VisuGPX - https://www.visugpx.com">
  <metadata>
    <name>Vtt et vélo route calme</name>
    <desc><![CDATA[Beau circuit calme en longeant le canal Charleroi - Bruxelles ]]></desc>
  </metadata>
  <trk>
    <name><![CDATA[Sequence 1]]></name>
    <trkseg>
      <trkpt lat="50.48054" lon="4.23893">
        <ele>157</ele>
        <time>2014-11-23T09:02:47Z</time>
      </trkpt>
      <trkpt lat="50.48054" lon="4.23893">
        <ele>157</ele>
        <time>2014-11-23T09:02:56Z</time>
      </trkpt>
      <trkpt lat="50.48054" lon="4.23893">
        <ele>157</ele>
        <time>2014-11-23T09:02:58Z</time>
      </trkpt>
      <trkpt lat="50.48054" lon="4.23893">
        <ele>157</ele>
        <time>2014-11-23T09:03:02Z</time>
      </trkpt>
      <trkpt lat="50.48054" lon="4.23901">
        <ele>153</ele>
        <time>2014-11-23T09:03:11Z</time>
      </trkpt>
      <trkpt lat="50.48054" lon="4.23905">
        <ele>152</ele>
        <time>2014-11-23T09:03:14Z</time>
      </trkpt>
      <trkpt lat="50.48056" lon="4.23911">
        <ele>149</ele>
        <time>2014-11-23T09:03:21Z</time>
      </trkpt>
      <trkpt lat="50.48056" lon="4.23911">
        <ele>149</ele>
        <time>2014-11-23T09:03:22Z</time>
      </trkpt>
      <trkpt lat="50.48058" lon="4.23914">
        <ele>155</ele>
        <time>2014-11-23T09:03:28Z</time>
      </trkpt>
      <trkpt lat="50.48059" lon="4.23914">
        <ele>155</ele>
        <time>2014-11-23T09:03:35Z</time>
      </trkpt>
      <trkpt lat="50.48059" lon="4.23914">
        <ele>155</ele>
        <time>2014-11-23T09:03:38Z</time>
      </trkpt>
      <trkpt lat="50.48059" lon="4.23914">
        <ele>155</ele>
        <time>2014-11-23T09:03:42Z</time>
      </trkpt>
      <trkpt lat="50.48059" lon="4.23914">
        <ele>155</ele>
        <time>2014-11-23T09:03:47Z</time>
      </trkpt>
      <trkpt lat="50.4806" lon="4.23911">
        <ele>156</ele>
        <time>2014-11-23T09:03:53Z</time>
      </trkpt>
      <trkpt lat="50.4806" lon="4.23909">
        <ele>155</ele>
        <time>2014-11-23T09:03:57Z</time>
      </trkpt>
      <trkpt lat="50.4806" lon="4.2391">
        <ele>157</ele>
        <time>2014-11-23T09:04:02Z</time>
      </trkpt>
      <trkpt lat="50.48061" lon="4.2391">
        <ele>157</ele>
        <time>2014-11-23T09:04:07Z</time>
      </trkpt>
      <trkpt lat="50.48061" lon="4.23911">
        <ele>157</ele>
        <time>2014-11-23T09:04:12Z</time>
      </trkpt>
      <trkpt lat="50.48061" lon="4.23911">
        <ele>157</ele>
        <time>2014-11-23T09:04:17Z</time>
      </trkpt>
      <trkpt lat="50.48061" lon="4.23911">
        <ele>157</ele>
        <time>2014-11-23T09:04:22Z</time>
      </trkpt>
      <trkpt lat="50.48063" lon="4.2391">
        <ele>159</ele>
        <time>2014-11-23T09:04:27Z</time>
      </trkpt>
      <trkpt lat="50.48059" lon="4.23914">
        <ele>162</ele>
        <time>2014-11-23T09:04:32Z</time>
      </trkpt>
      <trkpt lat="50.48056" lon="4.23924">
        <ele>161</ele>
        <time>2014-11-23T09:04:37Z</time>
      </trkpt>
      <trkpt lat="50.48049" lon="4.23941">
        <ele>163</ele>
        <time>2014-11-23T09:04:43Z</time>
      </trkpt>
      <trkpt lat="50.48039" lon="4.23962">
        <ele>160</ele>
        <time>2014-11-23T09:04:48Z</time>
      </trkpt>
      <trkpt lat="50.48031" lon="4.23979">
        <ele>159</ele>
        <time>2014-11-23T09:04:52Z</time>
      </trkpt>
      <trkpt lat="50.48021" lon="4.24003">
        <ele>160</ele>
        <time>2014-11-23T09:04:57Z</time>
      </trkpt>
      <trkpt lat="50.48012" lon="4.24031">
        <ele>159</ele>
        <time>2014-11-23T09:05:03Z</time>
      </trkpt>
      <trkpt lat="50.48006" lon="4.24047">
        <ele>160</ele>
        <time>2014-11-23T09:05:07Z</time>
      </trkpt>
      <trkpt lat="50.47998" lon="4.24075">
        <ele>161</ele>
        <time>2014-11-23T09:05:14Z</time>
      </trkpt>
      <trkpt lat="50.47995" lon="4.24086">
        <ele>162</ele>
        <time>2014-11-23T09:05:17Z</time>
      </trkpt>
      <trkpt lat="50.47991" lon="4.24106">
        <ele>166</ele>
        <time>2014-11-23T09:05:22Z</time>
      </trkpt>
      <trkpt lat="50.47984" lon="4.24126">
        <ele>164</ele>
        <time>2014-11-23T09:05:27Z</time>
      </trkpt>
      <trkpt lat="50.47977" lon="4.24147">
        <ele>165</ele>
        <time>2014-11-23T09:05:33Z</time>
      </trkpt>
      <trkpt lat="50.47971" lon="4.24164">
        <ele>164</ele>
        <time>2014-11-23T09:05:38Z</time>
      </trkpt>
      <trkpt lat="50.47964" lon="4.24182">
        <ele>163</ele>
        <time>2014-11-23T09:05:42Z</time>
      </trkpt>
      <trkpt lat="50.47953" lon="4.24214">
        <ele>163</ele>
        <time>2014-11-23T09:05:48Z</time>
      </trkpt>
      <trkpt lat="50.47945" lon="4.24244">
        <ele>162</ele>
        <time>2014-11-23T09:05:52Z</time>
      </trkpt>
      <trkpt lat="50.47926" lon="4.24322">
        <ele>158</ele>
        <time>2014-11-23T09:06:01Z</time>
      </trkpt>
      <trkpt lat="50.47923" lon="4.24329">
        <ele>158</ele>
        <time>2014-11-23T09:06:02Z</time>
      </trkpt>
      <trkpt lat="50.47905" lon="4.24379">
        <ele>155</ele>
        <time>2014-11-23T09:06:10Z</time>
      </trkpt>
      <trkpt lat="50.47898" lon="4.24395">
        <ele>154</ele>
        <time>2014-11-23T09:06:12Z</time>
      </trkpt>
      <trkpt lat="50.47887" lon="4.24434">
        <ele>156</ele>
        <time>2014-11-23T09:06:17Z</time>
      </trkpt>
      <trkpt lat="50.47923" lon="4.24471">
        <ele>157</ele>
        <time>2014-11-23T09:06:26Z</time>
      </trkpt>
      <trkpt lat="50.4793" lon="4.24474">
        <ele>157</ele>
        <time>2014-11-23T09:06:27Z</time>
      </trkpt>
      <trkpt lat="50.47957" lon="4.24493">
        <ele>159</ele>
        <time>2014-11-23T09:06:32Z</time>
      </trkpt>
      <trkpt lat="50.47993" lon="4.24521">
        <ele>160</ele>
        <time>2014-11-23T09:06:38Z</time>
      </trkpt>
      <trkpt lat="50.48018" lon="4.24539">
        <ele>161</ele>
        <time>2014-11-23T09:06:42Z</time>
      </trkpt>
      <trkpt lat="50.48049" lon="4.24563">
        <ele>163</ele>
        <time>2014-11-23T09:06:47Z</time>
      </trkpt>
      <trkpt lat="50.48088" lon="4.24589">
        <ele>162</ele>
        <time>2014-11-23T09:06:53Z</time>
      </trkpt>
      <trkpt lat="50.48114" lon="4.24607">
        <ele>160</ele>
        <time>2014-11-23T09:06:57Z</time>
      </trkpt>
      <trkpt lat="50.48152" lon="4.24637">
        <ele>156</ele>
        <time>2014-11-23T09:07:03Z</time>
      </trkpt>
      <trkpt lat="50.48201" lon="4.24669">
        <ele>156</ele>
        <time>2014-11-23T09:07:11Z</time>
      </trkpt>
      <trkpt lat="50.48207" lon="4.24672">
        <ele>156</ele>
        <time>2014-11-23T09:07:12Z</time>
      </trkpt>
      <trkpt lat="50.48237" lon="4.24692">
        <ele>156</ele>
        <time>2014-11-23T09:07:17Z</time>
      </trkpt>
      <trkpt lat="50.48274" lon="4.24718">
        <ele>151</ele>
        <time>2014-11-23T09:07:23Z</time>
      </trkpt>
      <trkpt lat="50.48298" lon="4.24733">
        <ele>149</ele>
        <time>2014-11-23T09:07:27Z</time>
      </trkpt>
      <trkpt lat="50.48329" lon="4.24753">
        <ele>151</ele>
        <time>2014-11-23T09:07:32Z</time>
      </trkpt>
      <trkpt lat="50.48359" lon="4.24777">
        <ele>153</ele>
        <time>2014-11-23T09:07:37Z</time>
      </trkpt>
      <trkpt lat="50.48415" lon="4.2482">
        <ele>154</ele>
        <time>2014-11-23T09:07:46Z</time>
      </trkpt>
      <trkpt lat="50.48439" lon="4.24834">
        <ele>154</ele>
        <time>2014-11-23T09:07:50Z</time>
      </trkpt>
      <trkpt lat="50.48452" lon="4.24842">
        <ele>155</ele>
        <time>2014-11-23T09:07:52Z</time>
      </trkpt>
      <trkpt lat="50.48503" lon="4.24882">
        <ele>152</ele>
        <time>2014-11-23T09:08:01Z</time>
      </trkpt>
      <trkpt lat="50.4851" lon="4.24884">
        <ele>152</ele>
        <time>2014-11-23T09:08:02Z</time>
      </trkpt>
      <trkpt lat="50.48525" lon="4.24922">
        <ele>153</ele>
        <time>2014-11-23T09:08:09Z</time>
      </trkpt>
      <trkpt lat="50.4851" lon="4.24945">
        <ele>154</ele>
        <time>2014-11-23T09:08:13Z</time>
      </trkpt>
      <trkpt lat="50.48494" lon="4.2497">
        <ele>152</ele>
        <time>2014-11-23T09:08:17Z</time>
      </trkpt>
      <trkpt lat="50.48472" lon="4.25">
        <ele>149</ele>
        <time>2014-11-23T09:08:22Z</time>
      </trkpt>
      <trkpt lat="50.48453" lon="4.25026">
        <ele>151</ele>
        <time>2014-11-23T09:08:27Z</time>
      </trkpt>
      <trkpt lat="50.4844" lon="4.25068">
        <ele>149</ele>
        <time>2014-11-23T09:08:33Z</time>
      </trkpt>
      <trkpt lat="50.48433" lon="4.25111">
        <ele>150</ele>
        <time>2014-11-23T09:08:39Z</time>
      </trkpt>
      <trkpt lat="50.48429" lon="4.25131">
        <ele>150</ele>
        <time>2014-11-23T09:08:42Z</time>
      </trkpt>
      <trkpt lat="50.48426" lon="4.2517">
        <ele>151</ele>
        <time>2014-11-23T09:08:47Z</time>
      </trkpt>
      <trkpt lat="50.48422" lon="4.2521">
        <ele>152</ele>
        <time>2014-11-23T09:08:52Z</time>
      </trkpt>
      <trkpt lat="50.48413" lon="4.25248">
        <ele>157</ele>
        <time>2014-11-23T09:08:58Z</time>
      </trkpt>
      <trkpt lat="50.48406" lon="4.25289">
        <ele>158</ele>
        <time>2014-11-23T09:09:04Z</time>
      </trkpt>
      <trkpt lat="50.48397" lon="4.25331">
        <ele>157</ele>
        <time>2014-11-23T09:09:11Z</time>
      </trkpt>
      <trkpt lat="50.48392" lon="4.25345">
        <ele>157</ele>
        <time>2014-11-23T09:09:13Z</time>
      </trkpt>
      <trkpt lat="50.48378" lon="4.2538">
        <ele>153</ele>
        <time>2014-11-23T09:09:18Z</time>
      </trkpt>
      <trkpt lat="50.4835" lon="4.25407">
        <ele>156</ele>
        <time>2014-11-23T09:09:26Z</time>
      </trkpt>
      <trkpt lat="50.48345" lon="4.25408">
        <ele>156</ele>
        <time>2014-11-23T09:09:27Z</time>
      </trkpt>
      <trkpt lat="50.48319" lon="4.2543">
        <ele>161</ele>
        <time>2014-11-23T09:09:35Z</time>
      </trkpt>
      <trkpt lat="50.48313" lon="4.25437">
        <ele>162</ele>
        <time>2014-11-23T09:09:37Z</time>
      </trkpt>
      <trkpt lat="50.48323" lon="4.25462">
        <ele>165</ele>
        <time>2014-11-23T09:09:42Z</time>
      </trkpt>
      <trkpt lat="50.48362" lon="4.25505">
        <ele>161</ele>
        <time>2014-11-23T09:09:50Z</time>
      </trkpt>
      <trkpt lat="50.48387" lon="4.25538">
        <ele>160</ele>
        <time>2014-11-23T09:09:56Z</time>
      </trkpt>
      <trkpt lat="50.48396" lon="4.25549">
        <ele>161</ele>
        <time>2014-11-23T09:09:58Z</time>
      </trkpt>
      <trkpt lat="50.48432" lon="4.25594">
        <ele>163</ele>
        <time>2014-11-23T09:10:05Z</time>
      </trkpt>
      <trkpt lat="50.48448" lon="4.25614">
        <ele>163</ele>
        <time>2014-11-23T09:10:08Z</time>
      </trkpt>
      <trkpt lat="50.48487" lon="4.25655">
        <ele>158</ele>
        <time>2014-11-23T09:10:14Z</time>
      </trkpt>
      <trkpt lat="50.48525" lon="4.2571">
        <ele>157</ele>
        <time>2014-11-23T09:10:21Z</time>
      </trkpt>
      <trkpt lat="50.48543" lon="4.2576">
        <ele>149</ele>
        <time>2014-11-23T09:10:26Z</time>
      </trkpt>
      <trkpt lat="50.48564" lon="4.25813">
        <ele>145</ele>
        <time>2014-11-23T09:10:31Z</time>
      </trkpt>
      <trkpt lat="50.48569" lon="4.25824">
        <ele>145</ele>
        <time>2014-11-23T09:10:32Z</time>
      </trkpt>
      <trkpt lat="50.48603" lon="4.25896">
        <ele>145</ele>
        <time>2014-11-23T09:10:39Z</time>
      </trkpt>
      <trkpt lat="50.48618" lon="4.25929">
        <ele>143</ele>
        <time>2014-11-23T09:10:42Z</time>
      </trkpt>
      <trkpt lat="50.48649" lon="4.25983">
        <ele>141</ele>
        <time>2014-11-23T09:10:47Z</time>
      </trkpt>
      <trkpt lat="50.48688" lon="4.26032">
        <ele>139</ele>
        <time>2014-11-23T09:10:52Z</time>
      </trkpt>
      <trkpt lat="50.48743" lon="4.26118">
        <ele>134</ele>
        <time>2014-11-23T09:11:01Z</time>
      </trkpt>
      <trkpt lat="50.48749" lon="4.26127">
        <ele>133</ele>
        <time>2014-11-23T09:11:02Z</time>
      </trkpt>
      <trkpt lat="50.4878" lon="4.26177">
        <ele>133</ele>
        <time>2014-11-23T09:11:07Z</time>
      </trkpt>
      <trkpt lat="50.48816" lon="4.26224">
        <ele>130</ele>
        <time>2014-11-23T09:11:12Z</time>
      </trkpt>
      <trkpt lat="50.48851" lon="4.26268">
        <ele>130</ele>
        <time>2014-11-23T09:11:17Z</time>
      </trkpt>
      <trkpt lat="50.48886" lon="4.26309">
        <ele>137</ele>
        <time>2014-11-23T09:11:22Z</time>
      </trkpt>
      <trkpt lat="50.48914" lon="4.26346">
        <ele>135</ele>
        <time>2014-11-23T09:11:27Z</time>
      </trkpt>
      <trkpt lat="50.48936" lon="4.26365">
        <ele>134</ele>
        <time>2014-11-23T09:11:32Z</time>
      </trkpt>
      <trkpt lat="50.48962" lon="4.26317">
        <ele>136</ele>
        <time>2014-11-23T09:11:41Z</time>
      </trkpt>
      <trkpt lat="50.48971" lon="4.26301">
        <ele>134</ele>
        <time>2014-11-23T09:11:43Z</time>
      </trkpt>
      <trkpt lat="50.48992" lon="4.26269">
        <ele>135</ele>
        <time>2014-11-23T09:11:50Z</time>
      </trkpt>
      <trkpt lat="50.49001" lon="4.26248">
        <ele>138</ele>
        <time>2014-11-23T09:11:54Z</time>
      </trkpt>
      <trkpt lat="50.49012" lon="4.26225">
        <ele>141</ele>
        <time>2014-11-23T09:11:59Z</time>
      </trkpt>
      <trkpt lat="50.49018" lon="4.26216">
        <ele>142</ele>
        <time>2014-11-23T09:12:02Z</time>
      </trkpt>
      <trkpt lat="50.49028" lon="4.26187">
        <ele>147</ele>
        <time>2014-11-23T09:12:08Z</time>
      </trkpt>
      <trkpt lat="50.49043" lon="4.26146">
        <ele>147</ele>
        <time>2014-11-23T09:12:12Z</time>
      </trkpt>
      <trkpt lat="50.4907" lon="4.26105">
        <ele>147</ele>
        <time>2014-11-23T09:12:17Z</time>
      </trkpt>
      <trkpt lat="50.49091" lon="4.26066">
        <ele>138</ele>
        <time>2014-11-23T09:12:22Z</time>
      </trkpt>
      <trkpt lat="50.49113" lon="4.26014">
        <ele>132</ele>
        <time>2014-11-23T09:12:30Z</time>
      </trkpt>
      <trkpt lat="50.49122" lon="4.25998">
        <ele>130</ele>
        <time>2014-11-23T09:12:33Z</time>
      </trkpt>
      <trkpt lat="50.49135" lon="4.25977">
        <ele>131</ele>
        <time>2014-11-23T09:12:37Z</time>
      </trkpt>
      <trkpt lat="50.49155" lon="4.25977">
        <ele>138</ele>
        <time>2014-11-23T09:12:45Z</time>
      </trkpt>
      <trkpt lat="50.49161" lon="4.25977">
        <ele>141</ele>
        <time>2014-11-23T09:12:47Z</time>
      </trkpt>
      <trkpt lat="50.49179" lon="4.26001">
        <ele>138</ele>
        <time>2014-11-23T09:12:54Z</time>
      </trkpt>
      <trkpt lat="50.49216" lon="4.26049">
        <ele>136</ele>
        <time>2014-11-23T09:13:01Z</time>
      </trkpt>
      <trkpt lat="50.49244" lon="4.26079">
        <ele>133</ele>
        <time>2014-11-23T09:13:06Z</time>
      </trkpt>
      <trkpt lat="50.49272" lon="4.26097">
        <ele>133</ele>
        <time>2014-11-23T09:13:11Z</time>
      </trkpt>
      <trkpt lat="50.49277" lon="4.261">
        <ele>134</ele>
        <time>2014-11-23T09:13:12Z</time>
      </trkpt>
      <trkpt lat="50.49307" lon="4.26114">
        <ele>132</ele>
        <time>2014-11-23T09:13:17Z</time>
      </trkpt>
      <trkpt lat="50.49336" lon="4.26125">
        <ele>127</ele>
        <time>2014-11-23T09:13:23Z</time>
      </trkpt>
      <trkpt lat="50.49349" lon="4.26092">
        <ele>125</ele>
        <time>2014-11-23T09:13:28Z</time>
      </trkpt>
      <trkpt lat="50.49358" lon="4.26059">
        <ele>124</ele>
        <time>2014-11-23T09:13:32Z</time>
      </trkpt>
      <trkpt lat="50.49373" lon="4.2599">
        <ele>123</ele>
        <time>2014-11-23T09:13:40Z</time>
      </trkpt>
      <trkpt lat="50.49377" lon="4.25977">
        <ele>124</ele>
        <time>2014-11-23T09:13:42Z</time>
      </trkpt>
      <trkpt lat="50.49386" lon="4.25939">
        <ele>122</ele>
        <time>2014-11-23T09:13:47Z</time>
      </trkpt>
      <trkpt lat="50.494" lon="4.25893">
        <ele>122</ele>
        <time>2014-11-23T09:13:54Z</time>
      </trkpt>
      <trkpt lat="50.49403" lon="4.25877">
        <ele>123</ele>
        <time>2014-11-23T09:13:57Z</time>
      </trkpt>
      <trkpt lat="50.49413" lon="4.25845">
        <ele>124</ele>
        <time>2014-11-23T09:14:02Z</time>
      </trkpt>
      <trkpt lat="50.49427" lon="4.25809">
        <ele>128</ele>
        <time>2014-11-23T09:14:10Z</time>
      </trkpt>
      <trkpt lat="50.49434" lon="4.25791">
        <ele>126</ele>
        <time>2014-11-23T09:14:12Z</time>
      </trkpt>
      <trkpt lat="50.49453" lon="4.25754">
        <ele>126</ele>
        <time>2014-11-23T09:14:18Z</time>
      </trkpt>
      <trkpt lat="50.49469" lon="4.25734">
        <ele>127</ele>
        <time>2014-11-23T09:14:23Z</time>
      </trkpt>
      <trkpt lat="50.49476" lon="4.25728">
        <ele>130</ele>
        <time>2014-11-23T09:14:27Z</time>
      </trkpt>
      <trkpt lat="50.49492" lon="4.25681">
        <ele>132</ele>
        <time>2014-11-23T09:14:32Z</time>
      </trkpt>
      <trkpt lat="50.49516" lon="4.25646">
        <ele>135</ele>
        <time>2014-11-23T09:14:41Z</time>
      </trkpt>
      <trkpt lat="50.49545" lon="4.25662">
        <ele>131</ele>
        <time>2014-11-23T09:14:46Z</time>
      </trkpt>
      <trkpt lat="50.49551" lon="4.25665">
        <ele>130</ele>
        <time>2014-11-23T09:14:47Z</time>
      </trkpt>
      <trkpt lat="50.4958" lon="4.25676">
        <ele>127</ele>
        <time>2014-11-23T09:14:52Z</time>
      </trkpt>
      <trkpt lat="50.49605" lon="4.2569">
        <ele>121</ele>
        <time>2014-11-23T09:14:57Z</time>
      </trkpt>
      <trkpt lat="50.4962" lon="4.25728">
        <ele>121</ele>
        <time>2014-11-23T09:15:02Z</time>
      </trkpt>
      <trkpt lat="50.49627" lon="4.25776">
        <ele>122</ele>
        <time>2014-11-23T09:15:08Z</time>
      </trkpt>
      <trkpt lat="50.49641" lon="4.25825">
        <ele>122</ele>
        <time>2014-11-23T09:15:14Z</time>
      </trkpt>
      <trkpt lat="50.49651" lon="4.25848">
        <ele>122</ele>
        <time>2014-11-23T09:15:17Z</time>
      </trkpt>
      <trkpt lat="50.49665" lon="4.25881">
        <ele>124</ele>
        <time>2014-11-23T09:15:22Z</time>
      </trkpt>
      <trkpt lat="50.4968" lon="4.25918">
        <ele>126</ele>
        <time>2014-11-23T09:15:27Z</time>
      </trkpt>
      <trkpt lat="50.49694" lon="4.25952">
        <ele>129</ele>
        <time>2014-11-23T09:15:32Z</time>
      </trkpt>
      <trkpt lat="50.49714" lon="4.26015">
        <ele>132</ele>
        <time>2014-11-23T09:15:40Z</time>
      </trkpt>
      <trkpt lat="50.4973" lon="4.26061">
        <ele>135</ele>
        <time>2014-11-23T09:15:46Z</time>
      </trkpt>
      <trkpt lat="50.49732" lon="4.26069">
        <ele>137</ele>
        <time>2014-11-23T09:15:47Z</time>
      </trkpt>
      <trkpt lat="50.4973" lon="4.26154">
        <ele>122</ele>
        <time>2014-11-23T09:15:56Z</time>
      </trkpt>
      <trkpt lat="50.49728" lon="4.26163">
        <ele>123</ele>
        <time>2014-11-23T09:15:57Z</time>
      </trkpt>
      <trkpt lat="50.49721" lon="4.26208">
        <ele>123</ele>
        <time>2014-11-23T09:16:02Z</time>
      </trkpt>
      <trkpt lat="50.49712" lon="4.26271">
        <ele>123</ele>
        <time>2014-11-23T09:16:09Z</time>
      </trkpt>
      <trkpt lat="50.49707" lon="4.26324">
        <ele>124</ele>
        <time>2014-11-23T09:16:15Z</time>
      </trkpt>
      <trkpt lat="50.49697" lon="4.26354">
        <ele>128</ele>
        <time>2014-11-23T09:16:19Z</time>
      </trkpt>
      <trkpt lat="50.49706" lon="4.26375">
        <ele>131</ele>
        <time>2014-11-23T09:16:23Z</time>
      </trkpt>
      <trkpt lat="50.49746" lon="4.26405">
        <ele>129</ele>
        <time>2014-11-23T09:16:31Z</time>
      </trkpt>
      <trkpt lat="50.4975" lon="4.26409">
        <ele>129</ele>
        <time>2014-11-23T09:16:32Z</time>
      </trkpt>
      <trkpt lat="50.49773" lon="4.26426">
        <ele>128</ele>
        <time>2014-11-23T09:16:37Z</time>
      </trkpt>
      <trkpt lat="50.49798" lon="4.26444">
        <ele>127</ele>
        <time>2014-11-23T09:16:42Z</time>
      </trkpt>
      <trkpt lat="50.49831" lon="4.26474">
        <ele>125</ele>
        <time>2014-11-23T09:16:51Z</time>
      </trkpt>
      <trkpt lat="50.49852" lon="4.26496">
        <ele>124</ele>
        <time>2014-11-23T09:16:56Z</time>
      </trkpt>
      <trkpt lat="50.49858" lon="4.265">
        <ele>125</ele>
        <time>2014-11-23T09:16:57Z</time>
      </trkpt>
      <trkpt lat="50.49893" lon="4.26529">
        <ele>123</ele>
        <time>2014-11-23T09:17:04Z</time>
      </trkpt>
      <trkpt lat="50.49907" lon="4.26539">
        <ele>121</ele>
        <time>2014-11-23T09:17:07Z</time>
      </trkpt>
      <trkpt lat="50.4993" lon="4.26556">
        <ele>122</ele>
        <time>2014-11-23T09:17:12Z</time>
      </trkpt>
      <trkpt lat="50.49965" lon="4.26586">
        <ele>119</ele>
        <time>2014-11-23T09:17:21Z</time>
      </trkpt>
      <trkpt lat="50.49972" lon="4.26587">
        <ele>118</ele>
        <time>2014-11-23T09:17:22Z</time>
      </trkpt>
      <trkpt lat="50.49994" lon="4.26576">
        <ele>115</ele>
        <time>2014-11-23T09:17:27Z</time>
      </trkpt>
      <trkpt lat="50.50034" lon="4.26507">
        <ele>113</ele>
        <time>2014-11-23T09:17:36Z</time>
      </trkpt>
      <trkpt lat="50.50036" lon="4.26505">
        <ele>114</ele>
        <time>2014-11-23T09:17:37Z</time>
      </trkpt>
      <trkpt lat="50.50053" lon="4.26478">
        <ele>119</ele>
        <time>2014-11-23T09:17:42Z</time>
      </trkpt>
      <trkpt lat="50.5007" lon="4.26453">
        <ele>118</ele>
        <time>2014-11-23T09:17:47Z</time>
      </trkpt>
      <trkpt lat="50.50105" lon="4.26489">
        <ele>119</ele>
        <time>2014-11-23T09:17:55Z</time>
      </trkpt>
      <trkpt lat="50.50115" lon="4.26506">
        <ele>121</ele>
        <time>2014-11-23T09:17:58Z</time>
      </trkpt>
      <trkpt lat="50.50139" lon="4.2655">
        <ele>121</ele>
        <time>2014-11-23T09:18:06Z</time>
      </trkpt>
      <trkpt lat="50.50148" lon="4.26567">
        <ele>122</ele>
        <time>2014-11-23T09:18:09Z</time>
      </trkpt>
      <trkpt lat="50.50163" lon="4.26585">
        <ele>122</ele>
        <time>2014-11-23T09:18:12Z</time>
      </trkpt>
      <trkpt lat="50.50187" lon="4.26619">
        <ele>121</ele>
        <time>2014-11-23T09:18:17Z</time>
      </trkpt>
      <trkpt lat="50.50206" lon="4.26649">
        <ele>123</ele>
        <time>2014-11-23T09:18:22Z</time>
      </trkpt>
      <trkpt lat="50.50235" lon="4.26692">
        <ele>121</ele>
        <time>2014-11-23T09:18:29Z</time>
      </trkpt>
      <trkpt lat="50.5025" lon="4.26711">
        <ele>122</ele>
        <time>2014-11-23T09:18:32Z</time>
      </trkpt>
      <trkpt lat="50.5028" lon="4.26767">
        <ele>123</ele>
        <time>2014-11-23T09:18:41Z</time>
      </trkpt>
      <trkpt lat="50.50293" lon="4.26787">
        <ele>126</ele>
        <time>2014-11-23T09:18:45Z</time>
      </trkpt>
      <trkpt lat="50.50303" lon="4.26795">
        <ele>125</ele>
        <time>2014-11-23T09:18:47Z</time>
      </trkpt>
      <trkpt lat="50.50324" lon="4.26817">
        <ele>125</ele>
        <time>2014-11-23T09:18:52Z</time>
      </trkpt>
      <trkpt lat="50.50358" lon="4.26856">
        <ele>120</ele>
        <time>2014-11-23T09:18:59Z</time>
      </trkpt>
      <trkpt lat="50.50371" lon="4.26865">
        <ele>125</ele>
        <time>2014-11-23T09:19:02Z</time>
      </trkpt>
      <trkpt lat="50.50393" lon="4.26882">
        <ele>124</ele>
        <time>2014-11-23T09:19:07Z</time>
      </trkpt>
      <trkpt lat="50.50431" lon="4.26904">
        <ele>130</ele>
        <time>2014-11-23T09:19:14Z</time>
      </trkpt>
      <trkpt lat="50.50456" lon="4.26922">
        <ele>131</ele>
        <time>2014-11-23T09:19:20Z</time>
      </trkpt>
      <trkpt lat="50.50461" lon="4.26931">
        <ele>132</ele>
        <time>2014-11-23T09:19:22Z</time>
      </trkpt>
      <trkpt lat="50.5052" lon="4.26981">
        <ele>119</ele>
        <time>2014-11-23T09:19:31Z</time>
      </trkpt>
      <trkpt lat="50.50526" lon="4.26984">
        <ele>119</ele>
        <time>2014-11-23T09:19:32Z</time>
      </trkpt>
      <trkpt lat="50.50553" lon="4.27014">
        <ele>117</ele>
        <time>2014-11-23T09:19:38Z</time>
      </trkpt>
      <trkpt lat="50.50572" lon="4.27035">
        <ele>117</ele>
        <time>2014-11-23T09:19:42Z</time>
      </trkpt>
      <trkpt lat="50.50594" lon="4.27056">
        <ele>118</ele>
        <time>2014-11-23T09:19:47Z</time>
      </trkpt>
      <trkpt lat="50.50625" lon="4.27093">
        <ele>116</ele>
        <time>2014-11-23T09:19:54Z</time>
      </trkpt>
      <trkpt lat="50.50653" lon="4.27122">
        <ele>120</ele>
        <time>2014-11-23T09:20:01Z</time>
      </trkpt>
      <trkpt lat="50.50654" lon="4.27123">
        <ele>122</ele>
        <time>2014-11-23T09:20:02Z</time>
      </trkpt>
      <trkpt lat="50.50652" lon="4.27142">
        <ele>128</ele>
        <time>2014-11-23T09:20:07Z</time>
      </trkpt>
      <trkpt lat="50.50646" lon="4.27185">
        <ele>125</ele>
        <time>2014-11-23T09:20:15Z</time>
      </trkpt>
      <trkpt lat="50.50652" lon="4.27212">
        <ele>126</ele>
        <time>2014-11-23T09:20:19Z</time>
      </trkpt>
      <trkpt lat="50.50673" lon="4.27247">
        <ele>126</ele>
        <time>2014-11-23T09:20:24Z</time>
      </trkpt>
      <trkpt lat="50.50689" lon="4.27265">
        <ele>127</ele>
        <time>2014-11-23T09:20:27Z</time>
      </trkpt>
      <trkpt lat="50.50721" lon="4.27287">
        <ele>123</ele>
        <time>2014-11-23T09:20:32Z</time>
      </trkpt>
      <trkpt lat="50.50756" lon="4.27315">
        <ele>118</ele>
        <time>2014-11-23T09:20:40Z</time>
      </trkpt>
      <trkpt lat="50.50765" lon="4.27324">
        <ele>119</ele>
        <time>2014-11-23T09:20:42Z</time>
      </trkpt>
      <trkpt lat="50.5079" lon="4.27347">
        <ele>118</ele>
        <time>2014-11-23T09:20:49Z</time>
      </trkpt>
      <trkpt lat="50.50806" lon="4.27357">
        <ele>118</ele>
        <time>2014-11-23T09:20:53Z</time>
      </trkpt>
      <trkpt lat="50.50817" lon="4.27377">
        <ele>115</ele>
        <time>2014-11-23T09:20:57Z</time>
      </trkpt>
      <trkpt lat="50.50837" lon="4.27428">
        <ele>119</ele>
        <time>2014-11-23T09:21:05Z</time>
      </trkpt>
      <trkpt lat="50.50844" lon="4.27457">
        <ele>121</ele>
        <time>2014-11-23T09:21:09Z</time>
      </trkpt>
      <trkpt lat="50.50854" lon="4.27476">
        <ele>122</ele>
        <time>2014-11-23T09:21:12Z</time>
      </trkpt>
      <trkpt lat="50.50867" lon="4.27509">
        <ele>121</ele>
        <time>2014-11-23T09:21:17Z</time>
      </trkpt>
      <trkpt lat="50.50862" lon="4.27543">
        <ele>118</ele>
        <time>2014-11-23T09:21:22Z</time>
      </trkpt>
      <trkpt lat="50.50843" lon="4.276">
        <ele>118</ele>
        <time>2014-11-23T09:21:31Z</time>
      </trkpt>
      <trkpt lat="50.50839" lon="4.27613">
        <ele>118</ele>
        <time>2014-11-23T09:21:33Z</time>
      </trkpt>
      <trkpt lat="50.50831" lon="4.27635">
        <ele>121</ele>
        <time>2014-11-23T09:21:37Z</time>
      </trkpt>
      <trkpt lat="50.5082" lon="4.27667">
        <ele>123</ele>
        <time>2014-11-23T09:21:42Z</time>
      </trkpt>
      <trkpt lat="50.50811" lon="4.277">
        <ele>124</ele>
        <time>2014-11-23T09:21:47Z</time>
      </trkpt>
      <trkpt lat="50.50801" lon="4.2773">
        <ele>124</ele>
        <time>2014-11-23T09:21:52Z</time>
      </trkpt>
      <trkpt lat="50.5079" lon="4.27766">
        <ele>122</ele>
        <time>2014-11-23T09:21:57Z</time>
      </trkpt>
      <trkpt lat="50.50781" lon="4.27805">
        <ele>120</ele>
        <time>2014-11-23T09:22:03Z</time>
      </trkpt>
      <trkpt lat="50.50771" lon="4.27839">
        <ele>122</ele>
        <time>2014-11-23T09:22:08Z</time>
      </trkpt>
      <trkpt lat="50.50767" lon="4.27869">
        <ele>121</ele>
        <time>2014-11-23T09:22:12Z</time>
      </trkpt>
      <trkpt lat="50.50751" lon="4.27925">
        <ele>119</ele>
        <time>2014-11-23T09:22:21Z</time>
      </trkpt>
      <trkpt lat="50.50745" lon="4.27954">
        <ele>120</ele>
        <time>2014-11-23T09:22:25Z</time>
      </trkpt>
      <trkpt lat="50.50741" lon="4.27971">
        <ele>122</ele>
        <time>2014-11-23T09:22:28Z</time>
      </trkpt>
      <trkpt lat="50.50735" lon="4.27997">
        <ele>123</ele>
        <time>2014-11-23T09:22:32Z</time>
      </trkpt>
      <trkpt lat="50.50731" lon="4.28036">
        <ele>124</ele>
        <time>2014-11-23T09:22:37Z</time>
      </trkpt>
      <trkpt lat="50.50724" lon="4.28068">
        <ele>122</ele>
        <time>2014-11-23T09:22:42Z</time>
      </trkpt>
      <trkpt lat="50.5072" lon="4.28112">
        <ele>120</ele>
        <time>2014-11-23T09:22:48Z</time>
      </trkpt>
      <trkpt lat="50.50716" lon="4.28142">
        <ele>119</ele>
        <time>2014-11-23T09:22:52Z</time>
      </trkpt>
      <trkpt lat="50.50712" lon="4.28213">
        <ele>121</ele>
        <time>2014-11-23T09:23:01Z</time>
      </trkpt>
      <trkpt lat="50.50711" lon="4.2824">
        <ele>119</ele>
        <time>2014-11-23T09:23:05Z</time>
      </trkpt>
      <trkpt lat="50.5071" lon="4.28253">
        <ele>119</ele>
        <time>2014-11-23T09:23:07Z</time>
      </trkpt>
      <trkpt lat="50.50707" lon="4.2829">
        <ele>119</ele>
        <time>2014-11-23T09:23:12Z</time>
      </trkpt>
      <trkpt lat="50.50702" lon="4.2835">
        <ele>115</ele>
        <time>2014-11-23T09:23:21Z</time>
      </trkpt>
      <trkpt lat="50.50702" lon="4.28361">
        <ele>114</ele>
        <time>2014-11-23T09:23:22Z</time>
      </trkpt>
      <trkpt lat="50.50696" lon="4.2843">
        <ele>109</ele>
        <time>2014-11-23T09:23:31Z</time>
      </trkpt>
      <trkpt lat="50.50696" lon="4.28438">
        <ele>109</ele>
        <time>2014-11-23T09:23:32Z</time>
      </trkpt>
      <trkpt lat="50.50696" lon="4.28506">
        <ele>114</ele>
        <time>2014-11-23T09:23:40Z</time>
      </trkpt>
      <trkpt lat="50.50695" lon="4.28549">
        <ele>112</ele>
        <time>2014-11-23T09:23:46Z</time>
      </trkpt>
      <trkpt lat="50.50696" lon="4.28556">
        <ele>112</ele>
        <time>2014-11-23T09:23:47Z</time>
      </trkpt>
      <trkpt lat="50.50693" lon="4.28592">
        <ele>113</ele>
        <time>2014-11-23T09:23:52Z</time>
      </trkpt>
      <trkpt lat="50.50691" lon="4.2863">
        <ele>116</ele>
        <time>2014-11-23T09:23:57Z</time>
      </trkpt>
      <trkpt lat="50.50686" lon="4.28664">
        <ele>116</ele>
        <time>2014-11-23T09:24:02Z</time>
      </trkpt>
      <trkpt lat="50.50676" lon="4.28728">
        <ele>114</ele>
        <time>2014-11-23T09:24:11Z</time>
      </trkpt>
      <trkpt lat="50.50674" lon="4.28733">
        <ele>114</ele>
        <time>2014-11-23T09:24:12Z</time>
      </trkpt>
      <trkpt lat="50.50668" lon="4.28766">
        <ele>114</ele>
        <time>2014-11-23T09:24:17Z</time>
      </trkpt>
      <trkpt lat="50.50658" lon="4.28827">
        <ele>119</ele>
        <time>2014-11-23T09:24:25Z</time>
      </trkpt>
      <trkpt lat="50.50655" lon="4.2884">
        <ele>118</ele>
        <time>2014-11-23T09:24:27Z</time>
      </trkpt>
      <trkpt lat="50.50637" lon="4.28899">
        <ele>117</ele>
        <time>2014-11-23T09:24:36Z</time>
      </trkpt>
      <trkpt lat="50.50627" lon="4.28934">
        <ele>119</ele>
        <time>2014-11-23T09:24:41Z</time>
      </trkpt>
      <trkpt lat="50.50615" lon="4.28967">
        <ele>118</ele>
        <time>2014-11-23T09:24:46Z</time>
      </trkpt>
      <trkpt lat="50.50612" lon="4.28973">
        <ele>117</ele>
        <time>2014-11-23T09:24:47Z</time>
      </trkpt>
      <trkpt lat="50.50599" lon="4.29006">
        <ele>114</ele>
        <time>2014-11-23T09:24:52Z</time>
      </trkpt>
      <trkpt lat="50.50578" lon="4.29049">
        <ele>115</ele>
        <time>2014-11-23T09:25:00Z</time>
      </trkpt>
      <trkpt lat="50.50567" lon="4.2907">
        <ele>115</ele>
        <time>2014-11-23T09:25:04Z</time>
      </trkpt>
      <trkpt lat="50.50561" lon="4.29088">
        <ele>115</ele>
        <time>2014-11-23T09:25:07Z</time>
      </trkpt>
      <trkpt lat="50.50538" lon="4.29129">
        <ele>113</ele>
        <time>2014-11-23T09:25:14Z</time>
      </trkpt>
      <trkpt lat="50.50525" lon="4.29152">
        <ele>115</ele>
        <time>2014-11-23T09:25:18Z</time>
      </trkpt>
      <trkpt lat="50.50512" lon="4.29173">
        <ele>116</ele>
        <time>2014-11-23T09:25:22Z</time>
      </trkpt>
      <trkpt lat="50.50494" lon="4.29197">
        <ele>117</ele>
        <time>2014-11-23T09:25:27Z</time>
      </trkpt>
      <trkpt lat="50.50478" lon="4.29225">
        <ele>117</ele>
        <time>2014-11-23T09:25:32Z</time>
      </trkpt>
      <trkpt lat="50.50462" lon="4.29252">
        <ele>115</ele>
        <time>2014-11-23T09:25:37Z</time>
      </trkpt>
      <trkpt lat="50.50444" lon="4.29274">
        <ele>114</ele>
        <time>2014-11-23T09:25:42Z</time>
      </trkpt>
      <trkpt lat="50.50425" lon="4.29295">
        <ele>113</ele>
        <time>2014-11-23T09:25:47Z</time>
      </trkpt>
      <trkpt lat="50.50406" lon="4.29316">
        <ele>114</ele>
        <time>2014-11-23T09:25:52Z</time>
      </trkpt>
      <trkpt lat="50.50383" lon="4.29341">
        <ele>115</ele>
        <time>2014-11-23T09:25:58Z</time>
      </trkpt>
      <trkpt lat="50.50366" lon="4.29355">
        <ele>112</ele>
        <time>2014-11-23T09:26:02Z</time>
      </trkpt>
      <trkpt lat="50.5034" lon="4.29375">
        <ele>115</ele>
        <time>2014-11-23T09:26:08Z</time>
      </trkpt>
      <trkpt lat="50.50305" lon="4.29398">
        <ele>118</ele>
        <time>2014-11-23T09:26:16Z</time>
      </trkpt>
      <trkpt lat="50.503" lon="4.29399">
        <ele>118</ele>
        <time>2014-11-23T09:26:17Z</time>
      </trkpt>
      <trkpt lat="50.50278" lon="4.29409">
        <ele>118</ele>
        <time>2014-11-23T09:26:22Z</time>
      </trkpt>
      <trkpt lat="50.50246" lon="4.29444">
        <ele>122</ele>
        <time>2014-11-23T09:26:31Z</time>
      </trkpt>
      <trkpt lat="50.50234" lon="4.2945">
        <ele>121</ele>
        <time>2014-11-23T09:26:33Z</time>
      </trkpt>
      <trkpt lat="50.502" lon="4.29465">
        <ele>119</ele>
        <time>2014-11-23T09:26:41Z</time>
      </trkpt>
      <trkpt lat="50.50196" lon="4.29468">
        <ele>119</ele>
        <time>2014-11-23T09:26:42Z</time>
      </trkpt>
      <trkpt lat="50.50175" lon="4.29482">
        <ele>118</ele>
        <time>2014-11-23T09:26:47Z</time>
      </trkpt>
      <trkpt lat="50.50153" lon="4.29494">
        <ele>117</ele>
        <time>2014-11-23T09:26:52Z</time>
      </trkpt>
      <trkpt lat="50.50132" lon="4.29509">
        <ele>115</ele>
        <time>2014-11-23T09:26:57Z</time>
      </trkpt>
      <trkpt lat="50.50112" lon="4.29523">
        <ele>115</ele>
        <time>2014-11-23T09:27:02Z</time>
      </trkpt>
      <trkpt lat="50.5009" lon="4.29537">
        <ele>115</ele>
        <time>2014-11-23T09:27:07Z</time>
      </trkpt>
      <trkpt lat="50.50069" lon="4.2955">
        <ele>114</ele>
        <time>2014-11-23T09:27:12Z</time>
      </trkpt>
      <trkpt lat="50.50048" lon="4.29565">
        <ele>115</ele>
        <time>2014-11-23T09:27:17Z</time>
      </trkpt>
      <trkpt lat="50.50026" lon="4.29581">
        <ele>114</ele>
        <time>2014-11-23T09:27:22Z</time>
      </trkpt>
      <trkpt lat="50.49997" lon="4.29599">
        <ele>113</ele>
        <time>2014-11-23T09:27:29Z</time>
      </trkpt>
      <trkpt lat="50.49985" lon="4.29605">
        <ele>115</ele>
        <time>2014-11-23T09:27:32Z</time>
      </trkpt>
      <trkpt lat="50.49964" lon="4.2962">
        <ele>114</ele>
        <time>2014-11-23T09:27:37Z</time>
      </trkpt>
      <trkpt lat="50.49943" lon="4.29634">
        <ele>115</ele>
        <time>2014-11-23T09:27:42Z</time>
      </trkpt>
      <trkpt lat="50.49922" lon="4.29646">
        <ele>115</ele>
        <time>2014-11-23T09:27:47Z</time>
      </trkpt>
      <trkpt lat="50.49903" lon="4.2966">
        <ele>114</ele>
        <time>2014-11-23T09:27:52Z</time>
      </trkpt>
      <trkpt lat="50.49883" lon="4.29673">
        <ele>114</ele>
        <time>2014-11-23T09:27:57Z</time>
      </trkpt>
      <trkpt lat="50.49862" lon="4.29687">
        <ele>115</ele>
        <time>2014-11-23T09:28:02Z</time>
      </trkpt>
      <trkpt lat="50.49842" lon="4.29699">
        <ele>116</ele>
        <time>2014-11-23T09:28:07Z</time>
      </trkpt>
      <trkpt lat="50.4982" lon="4.29712">
        <ele>117</ele>
        <time>2014-11-23T09:28:12Z</time>
      </trkpt>
      <trkpt lat="50.49782" lon="4.29736">
        <ele>116</ele>
        <time>2014-11-23T09:28:21Z</time>
      </trkpt>
      <trkpt lat="50.49778" lon="4.29738">
        <ele>116</ele>
        <time>2014-11-23T09:28:22Z</time>
      </trkpt>
      <trkpt lat="50.49757" lon="4.29751">
        <ele>117</ele>
        <time>2014-11-23T09:28:27Z</time>
      </trkpt>
      <trkpt lat="50.49737" lon="4.29765">
        <ele>117</ele>
        <time>2014-11-23T09:28:32Z</time>
      </trkpt>
      <trkpt lat="50.49713" lon="4.2978">
        <ele>118</ele>
        <time>2014-11-23T09:28:38Z</time>
      </trkpt>
      <trkpt lat="50.49696" lon="4.29791">
        <ele>118</ele>
        <time>2014-11-23T09:28:42Z</time>
      </trkpt>
      <trkpt lat="50.49674" lon="4.29805">
        <ele>119</ele>
        <time>2014-11-23T09:28:47Z</time>
      </trkpt>
      <trkpt lat="50.49651" lon="4.29821">
        <ele>118</ele>
        <time>2014-11-23T09:28:52Z</time>
      </trkpt>
      <trkpt lat="50.49629" lon="4.29836">
        <ele>118</ele>
        <time>2014-11-23T09:28:57Z</time>
      </trkpt>
      <trkpt lat="50.49604" lon="4.29855">
        <ele>119</ele>
        <time>2014-11-23T09:29:03Z</time>
      </trkpt>
      <trkpt lat="50.49586" lon="4.29867">
        <ele>118</ele>
        <time>2014-11-23T09:29:07Z</time>
      </trkpt>
      <trkpt lat="50.49553" lon="4.29892">
        <ele>119</ele>
        <time>2014-11-23T09:29:15Z</time>
      </trkpt>
      <trkpt lat="50.49546" lon="4.299">
        <ele>118</ele>
        <time>2014-11-23T09:29:17Z</time>
      </trkpt>
      <trkpt lat="50.49524" lon="4.29919">
        <ele>118</ele>
        <time>2014-11-23T09:29:22Z</time>
      </trkpt>
      <trkpt lat="50.49504" lon="4.29941">
        <ele>118</ele>
        <time>2014-11-23T09:29:27Z</time>
      </trkpt>
      <trkpt lat="50.49484" lon="4.29966">
        <ele>115</ele>
        <time>2014-11-23T09:29:32Z</time>
      </trkpt>
      <trkpt lat="50.49462" lon="4.29994">
        <ele>117</ele>
        <time>2014-11-23T09:29:38Z</time>
      </trkpt>
      <trkpt lat="50.49448" lon="4.30018">
        <ele>116</ele>
        <time>2014-11-23T09:29:42Z</time>
      </trkpt>
      <trkpt lat="50.49432" lon="4.30043">
        <ele>116</ele>
        <time>2014-11-23T09:29:47Z</time>
      </trkpt>
      <trkpt lat="50.49413" lon="4.30077">
        <ele>116</ele>
        <time>2014-11-23T09:29:53Z</time>
      </trkpt>
      <trkpt lat="50.494" lon="4.301">
        <ele>115</ele>
        <time>2014-11-23T09:29:57Z</time>
      </trkpt>
      <trkpt lat="50.49385" lon="4.30131">
        <ele>115</ele>
        <time>2014-11-23T09:30:02Z</time>
      </trkpt>
      <trkpt lat="50.49373" lon="4.30164">
        <ele>115</ele>
        <time>2014-11-23T09:30:07Z</time>
      </trkpt>
      <trkpt lat="50.4936" lon="4.30197">
        <ele>116</ele>
        <time>2014-11-23T09:30:12Z</time>
      </trkpt>
      <trkpt lat="50.49348" lon="4.30232">
        <ele>117</ele>
        <time>2014-11-23T09:30:17Z</time>
      </trkpt>
      <trkpt lat="50.49333" lon="4.30263">
        <ele>115</ele>
        <time>2014-11-23T09:30:22Z</time>
      </trkpt>
      <trkpt lat="50.4932" lon="4.30292">
        <ele>116</ele>
        <time>2014-11-23T09:30:27Z</time>
      </trkpt>
      <trkpt lat="50.4931" lon="4.30323">
        <ele>114</ele>
        <time>2014-11-23T09:30:32Z</time>
      </trkpt>
      <trkpt lat="50.49295" lon="4.3036">
        <ele>115</ele>
        <time>2014-11-23T09:30:38Z</time>
      </trkpt>
      <trkpt lat="50.49283" lon="4.30395">
        <ele>116</ele>
        <time>2014-11-23T09:30:43Z</time>
      </trkpt>
      <trkpt lat="50.49272" lon="4.3042">
        <ele>117</ele>
        <time>2014-11-23T09:30:47Z</time>
      </trkpt>
      <trkpt lat="50.49255" lon="4.30457">
        <ele>119</ele>
        <time>2014-11-23T09:30:53Z</time>
      </trkpt>
      <trkpt lat="50.49245" lon="4.30493">
        <ele>116</ele>
        <time>2014-11-23T09:30:58Z</time>
      </trkpt>
      <trkpt lat="50.49226" lon="4.30534">
        <ele>121</ele>
        <time>2014-11-23T09:31:05Z</time>
      </trkpt>
      <trkpt lat="50.49222" lon="4.30547">
        <ele>123</ele>
        <time>2014-11-23T09:31:07Z</time>
      </trkpt>
      <trkpt lat="50.49208" lon="4.3059">
        <ele>118</ele>
        <time>2014-11-23T09:31:13Z</time>
      </trkpt>
      <trkpt lat="50.49196" lon="4.30626">
        <ele>118</ele>
        <time>2014-11-23T09:31:19Z</time>
      </trkpt>
      <trkpt lat="50.49178" lon="4.30673">
        <ele>117</ele>
        <time>2014-11-23T09:31:26Z</time>
      </trkpt>
      <trkpt lat="50.49176" lon="4.3068">
        <ele>117</ele>
        <time>2014-11-23T09:31:27Z</time>
      </trkpt>
      <trkpt lat="50.49165" lon="4.30722">
        <ele>118</ele>
        <time>2014-11-23T09:31:33Z</time>
      </trkpt>
      <trkpt lat="50.49156" lon="4.30775">
        <ele>117</ele>
        <time>2014-11-23T09:31:40Z</time>
      </trkpt>
      <trkpt lat="50.49155" lon="4.30794">
        <ele>116</ele>
        <time>2014-11-23T09:31:42Z</time>
      </trkpt>
      <trkpt lat="50.49149" lon="4.30829">
        <ele>117</ele>
        <time>2014-11-23T09:31:47Z</time>
      </trkpt>
      <trkpt lat="50.49143" lon="4.30866">
        <ele>121</ele>
        <time>2014-11-23T09:31:53Z</time>
      </trkpt>
      <trkpt lat="50.49137" lon="4.30914">
        <ele>122</ele>
        <time>2014-11-23T09:31:58Z</time>
      </trkpt>
      <trkpt lat="50.49131" lon="4.30969">
        <ele>119</ele>
        <time>2014-11-23T09:32:05Z</time>
      </trkpt>
      <trkpt lat="50.4913" lon="4.30999">
        <ele>118</ele>
        <time>2014-11-23T09:32:09Z</time>
      </trkpt>
      <trkpt lat="50.49126" lon="4.31047">
        <ele>119</ele>
        <time>2014-11-23T09:32:15Z</time>
      </trkpt>
      <trkpt lat="50.49127" lon="4.31064">
        <ele>117</ele>
        <time>2014-11-23T09:32:17Z</time>
      </trkpt>
      <trkpt lat="50.49124" lon="4.31104">
        <ele>114</ele>
        <time>2014-11-23T09:32:22Z</time>
      </trkpt>
      <trkpt lat="50.49127" lon="4.31159">
        <ele>115</ele>
        <time>2014-11-23T09:32:29Z</time>
      </trkpt>
      <trkpt lat="50.49128" lon="4.31181">
        <ele>116</ele>
        <time>2014-11-23T09:32:32Z</time>
      </trkpt>
      <trkpt lat="50.49128" lon="4.31219">
        <ele>115</ele>
        <time>2014-11-23T09:32:37Z</time>
      </trkpt>
      <trkpt lat="50.4913" lon="4.31259">
        <ele>115</ele>
        <time>2014-11-23T09:32:42Z</time>
      </trkpt>
      <trkpt lat="50.49135" lon="4.31304">
        <ele>118</ele>
        <time>2014-11-23T09:32:48Z</time>
      </trkpt>
      <trkpt lat="50.49138" lon="4.31333">
        <ele>119</ele>
        <time>2014-11-23T09:32:52Z</time>
      </trkpt>
      <trkpt lat="50.49142" lon="4.31371">
        <ele>120</ele>
        <time>2014-11-23T09:32:57Z</time>
      </trkpt>
      <trkpt lat="50.49147" lon="4.31409">
        <ele>119</ele>
        <time>2014-11-23T09:33:02Z</time>
      </trkpt>
      <trkpt lat="50.49155" lon="4.31469">
        <ele>119</ele>
        <time>2014-11-23T09:33:10Z</time>
      </trkpt>
      <trkpt lat="50.49157" lon="4.31485">
        <ele>120</ele>
        <time>2014-11-23T09:33:12Z</time>
      </trkpt>
      <trkpt lat="50.49164" lon="4.3153">
        <ele>118</ele>
        <time>2014-11-23T09:33:17Z</time>
      </trkpt>
      <trkpt lat="50.49172" lon="4.31567">
        <ele>119</ele>
        <time>2014-11-23T09:33:22Z</time>
      </trkpt>
      <trkpt lat="50.4918" lon="4.31612">
        <ele>118</ele>
        <time>2014-11-23T09:33:28Z</time>
      </trkpt>
      <trkpt lat="50.49185" lon="4.31645">
        <ele>116</ele>
        <time>2014-11-23T09:33:32Z</time>
      </trkpt>
      <trkpt lat="50.49193" lon="4.31697">
        <ele>113</ele>
        <time>2014-11-23T09:33:39Z</time>
      </trkpt>
      <trkpt lat="50.49197" lon="4.31718">
        <ele>113</ele>
        <time>2014-11-23T09:33:42Z</time>
      </trkpt>
      <trkpt lat="50.49203" lon="4.31755">
        <ele>112</ele>
        <time>2014-11-23T09:33:47Z</time>
      </trkpt>
      <trkpt lat="50.4922" lon="4.31821">
        <ele>113</ele>
        <time>2014-11-23T09:33:56Z</time>
      </trkpt>
      <trkpt lat="50.49222" lon="4.31836">
        <ele>114</ele>
        <time>2014-11-23T09:33:58Z</time>
      </trkpt>
      <trkpt lat="50.49228" lon="4.31868">
        <ele>115</ele>
        <time>2014-11-23T09:34:02Z</time>
      </trkpt>
      <trkpt lat="50.49234" lon="4.31906">
        <ele>117</ele>
        <time>2014-11-23T09:34:07Z</time>
      </trkpt>
      <trkpt lat="50.49248" lon="4.31963">
        <ele>115</ele>
        <time>2014-11-23T09:34:14Z</time>
      </trkpt>
      <trkpt lat="50.49251" lon="4.31985">
        <ele>116</ele>
        <time>2014-11-23T09:34:17Z</time>
      </trkpt>
      <trkpt lat="50.49261" lon="4.3202">
        <ele>114</ele>
        <time>2014-11-23T09:34:22Z</time>
      </trkpt>
      <trkpt lat="50.49274" lon="4.3207">
        <ele>115</ele>
        <time>2014-11-23T09:34:28Z</time>
      </trkpt>
      <trkpt lat="50.49295" lon="4.32133">
        <ele>113</ele>
        <time>2014-11-23T09:34:36Z</time>
      </trkpt>
      <trkpt lat="50.49299" lon="4.32141">
        <ele>113</ele>
        <time>2014-11-23T09:34:37Z</time>
      </trkpt>
      <trkpt lat="50.49317" lon="4.32173">
        <ele>113</ele>
        <time>2014-11-23T09:34:42Z</time>
      </trkpt>
      <trkpt lat="50.49343" lon="4.3222">
        <ele>117</ele>
        <time>2014-11-23T09:34:50Z</time>
      </trkpt>
      <trkpt lat="50.49349" lon="4.3223">
        <ele>117</ele>
        <time>2014-11-23T09:34:52Z</time>
      </trkpt>
      <trkpt lat="50.49364" lon="4.32254">
        <ele>115</ele>
        <time>2014-11-23T09:34:57Z</time>
      </trkpt>
      <trkpt lat="50.49382" lon="4.32277">
        <ele>119</ele>
        <time>2014-11-23T09:35:02Z</time>
      </trkpt>
      <trkpt lat="50.49402" lon="4.32307">
        <ele>117</ele>
        <time>2014-11-23T09:35:07Z</time>
      </trkpt>
      <trkpt lat="50.49424" lon="4.32333">
        <ele>118</ele>
        <time>2014-11-23T09:35:13Z</time>
      </trkpt>
      <trkpt lat="50.49443" lon="4.32351">
        <ele>117</ele>
        <time>2014-11-23T09:35:17Z</time>
      </trkpt>
      <trkpt lat="50.4947" lon="4.32374">
        <ele>118</ele>
        <time>2014-11-23T09:35:23Z</time>
      </trkpt>
      <trkpt lat="50.49486" lon="4.32388">
        <ele>117</ele>
        <time>2014-11-23T09:35:27Z</time>
      </trkpt>
      <trkpt lat="50.49524" lon="4.32411">
        <ele>118</ele>
        <time>2014-11-23T09:35:35Z</time>
      </trkpt>
      <trkpt lat="50.49549" lon="4.3242">
        <ele>121</ele>
        <time>2014-11-23T09:35:40Z</time>
      </trkpt>
      <trkpt lat="50.49564" lon="4.32428">
        <ele>121</ele>
        <time>2014-11-23T09:35:43Z</time>
      </trkpt>
      <trkpt lat="50.4959" lon="4.32437">
        <ele>122</ele>
        <time>2014-11-23T09:35:48Z</time>
      </trkpt>
      <trkpt lat="50.49622" lon="4.3245">
        <ele>124</ele>
        <time>2014-11-23T09:35:55Z</time>
      </trkpt>
      <trkpt lat="50.49633" lon="4.32455">
        <ele>125</ele>
        <time>2014-11-23T09:35:57Z</time>
      </trkpt>
      <trkpt lat="50.4968" lon="4.32477">
        <ele>120</ele>
        <time>2014-11-23T09:36:06Z</time>
      </trkpt>
      <trkpt lat="50.4969" lon="4.32483">
        <ele>119</ele>
        <time>2014-11-23T09:36:08Z</time>
      </trkpt>
      <trkpt lat="50.49717" lon="4.32495">
        <ele>119</ele>
        <time>2014-11-23T09:36:13Z</time>
      </trkpt>
      <trkpt lat="50.49739" lon="4.32502">
        <ele>118</ele>
        <time>2014-11-23T09:36:17Z</time>
      </trkpt>
      <trkpt lat="50.49765" lon="4.32512">
        <ele>120</ele>
        <time>2014-11-23T09:36:22Z</time>
      </trkpt>
      <trkpt lat="50.4979" lon="4.32525">
        <ele>119</ele>
        <time>2014-11-23T09:36:27Z</time>
      </trkpt>
      <trkpt lat="50.49818" lon="4.32539">
        <ele>121</ele>
        <time>2014-11-23T09:36:32Z</time>
      </trkpt>
      <trkpt lat="50.49843" lon="4.32548">
        <ele>121</ele>
        <time>2014-11-23T09:36:37Z</time>
      </trkpt>
      <trkpt lat="50.49872" lon="4.32563">
        <ele>118</ele>
        <time>2014-11-23T09:36:42Z</time>
      </trkpt>
      <trkpt lat="50.49902" lon="4.32574">
        <ele>117</ele>
        <time>2014-11-23T09:36:48Z</time>
      </trkpt>
      <trkpt lat="50.49923" lon="4.3258">
        <ele>115</ele>
        <time>2014-11-23T09:36:52Z</time>
      </trkpt>
      <trkpt lat="50.49948" lon="4.32592">
        <ele>115</ele>
        <time>2014-11-23T09:36:57Z</time>
      </trkpt>
      <trkpt lat="50.49974" lon="4.32601">
        <ele>117</ele>
        <time>2014-11-23T09:37:02Z</time>
      </trkpt>
      <trkpt lat="50.50002" lon="4.32613">
        <ele>115</ele>
        <time>2014-11-23T09:37:07Z</time>
      </trkpt>
      <trkpt lat="50.50028" lon="4.32626">
        <ele>117</ele>
        <time>2014-11-23T09:37:12Z</time>
      </trkpt>
      <trkpt lat="50.50063" lon="4.3264">
        <ele>120</ele>
        <time>2014-11-23T09:37:19Z</time>
      </trkpt>
      <trkpt lat="50.50102" lon="4.32653">
        <ele>119</ele>
        <time>2014-11-23T09:37:26Z</time>
      </trkpt>
      <trkpt lat="50.50107" lon="4.32656">
        <ele>118</ele>
        <time>2014-11-23T09:37:27Z</time>
      </trkpt>
      <trkpt lat="50.50132" lon="4.32668">
        <ele>121</ele>
        <time>2014-11-23T09:37:32Z</time>
      </trkpt>
      <trkpt lat="50.50169" lon="4.32684">
        <ele>117</ele>
        <time>2014-11-23T09:37:39Z</time>
      </trkpt>
      <trkpt lat="50.50186" lon="4.32692">
        <ele>116</ele>
        <time>2014-11-23T09:37:42Z</time>
      </trkpt>
      <trkpt lat="50.5023" lon="4.32705">
        <ele>113</ele>
        <time>2014-11-23T09:37:50Z</time>
      </trkpt>
      <trkpt lat="50.50243" lon="4.3271">
        <ele>111</ele>
        <time>2014-11-23T09:37:52Z</time>
      </trkpt>
      <trkpt lat="50.50279" lon="4.32729">
        <ele>115</ele>
        <time>2014-11-23T09:37:59Z</time>
      </trkpt>
      <trkpt lat="50.50296" lon="4.32742">
        <ele>115</ele>
        <time>2014-11-23T09:38:02Z</time>
      </trkpt>
      <trkpt lat="50.50339" lon="4.32763">
        <ele>120</ele>
        <time>2014-11-23T09:38:10Z</time>
      </trkpt>
      <trkpt lat="50.50369" lon="4.32773">
        <ele>121</ele>
        <time>2014-11-23T09:38:16Z</time>
      </trkpt>
      <trkpt lat="50.5038" lon="4.32777">
        <ele>119</ele>
        <time>2014-11-23T09:38:18Z</time>
      </trkpt>
      <trkpt lat="50.50402" lon="4.32788">
        <ele>117</ele>
        <time>2014-11-23T09:38:22Z</time>
      </trkpt>
      <trkpt lat="50.50445" lon="4.32809">
        <ele>115</ele>
        <time>2014-11-23T09:38:30Z</time>
      </trkpt>
      <trkpt lat="50.50456" lon="4.32813">
        <ele>116</ele>
        <time>2014-11-23T09:38:32Z</time>
      </trkpt>
      <trkpt lat="50.50502" lon="4.32836">
        <ele>117</ele>
        <time>2014-11-23T09:38:41Z</time>
      </trkpt>
      <trkpt lat="50.50507" lon="4.32838">
        <ele>116</ele>
        <time>2014-11-23T09:38:42Z</time>
      </trkpt>
      <trkpt lat="50.50544" lon="4.32865">
        <ele>117</ele>
        <time>2014-11-23T09:38:49Z</time>
      </trkpt>
      <trkpt lat="50.50572" lon="4.32885">
        <ele>118</ele>
        <time>2014-11-23T09:38:55Z</time>
      </trkpt>
      <trkpt lat="50.50594" lon="4.32907">
        <ele>116</ele>
        <time>2014-11-23T09:38:59Z</time>
      </trkpt>
      <trkpt lat="50.50628" lon="4.32933">
        <ele>116</ele>
        <time>2014-11-23T09:39:05Z</time>
      </trkpt>
      <trkpt lat="50.50636" lon="4.32941">
        <ele>115</ele>
        <time>2014-11-23T09:39:07Z</time>
      </trkpt>
      <trkpt lat="50.50677" lon="4.32979">
        <ele>116</ele>
        <time>2014-11-23T09:39:15Z</time>
      </trkpt>
      <trkpt lat="50.50697" lon="4.33006">
        <ele>114</ele>
        <time>2014-11-23T09:39:19Z</time>
      </trkpt>
      <trkpt lat="50.50725" lon="4.33044">
        <ele>111</ele>
        <time>2014-11-23T09:39:25Z</time>
      </trkpt>
      <trkpt lat="50.50732" lon="4.33057">
        <ele>110</ele>
        <time>2014-11-23T09:39:27Z</time>
      </trkpt>
      <trkpt lat="50.50756" lon="4.33092">
        <ele>111</ele>
        <time>2014-11-23T09:39:34Z</time>
      </trkpt>
      <trkpt lat="50.50776" lon="4.33117">
        <ele>107</ele>
        <time>2014-11-23T09:39:38Z</time>
      </trkpt>
      <trkpt lat="50.50793" lon="4.33142">
        <ele>107</ele>
        <time>2014-11-23T09:39:42Z</time>
      </trkpt>
      <trkpt lat="50.5081" lon="4.33175">
        <ele>110</ele>
        <time>2014-11-23T09:39:47Z</time>
      </trkpt>
      <trkpt lat="50.50839" lon="4.33223">
        <ele>108</ele>
        <time>2014-11-23T09:39:55Z</time>
      </trkpt>
      <trkpt lat="50.50855" lon="4.33245">
        <ele>108</ele>
        <time>2014-11-23T09:39:58Z</time>
      </trkpt>
      <trkpt lat="50.50886" lon="4.33302">
        <ele>108</ele>
        <time>2014-11-23T09:40:06Z</time>
      </trkpt>
      <trkpt lat="50.50905" lon="4.33334">
        <ele>106</ele>
        <time>2014-11-23T09:40:11Z</time>
      </trkpt>
      <trkpt lat="50.50909" lon="4.33341">
        <ele>107</ele>
        <time>2014-11-23T09:40:12Z</time>
      </trkpt>
      <trkpt lat="50.50928" lon="4.33377">
        <ele>106</ele>
        <time>2014-11-23T09:40:17Z</time>
      </trkpt>
      <trkpt lat="50.50943" lon="4.33414">
        <ele>108</ele>
        <time>2014-11-23T09:40:22Z</time>
      </trkpt>
      <trkpt lat="50.50964" lon="4.33477">
        <ele>111</ele>
        <time>2014-11-23T09:40:30Z</time>
      </trkpt>
      <trkpt lat="50.50975" lon="4.33515">
        <ele>112</ele>
        <time>2014-11-23T09:40:35Z</time>
      </trkpt>
      <trkpt lat="50.50985" lon="4.3356">
        <ele>110</ele>
        <time>2014-11-23T09:40:40Z</time>
      </trkpt>
      <trkpt lat="50.50989" lon="4.33577">
        <ele>110</ele>
        <time>2014-11-23T09:40:42Z</time>
      </trkpt>
      <trkpt lat="50.51004" lon="4.3363">
        <ele>109</ele>
        <time>2014-11-23T09:40:48Z</time>
      </trkpt>
      <trkpt lat="50.51021" lon="4.33694">
        <ele>113</ele>
        <time>2014-11-23T09:40:56Z</time>
      </trkpt>
      <trkpt lat="50.51024" lon="4.33709">
        <ele>115</ele>
        <time>2014-11-23T09:40:58Z</time>
      </trkpt>
      <trkpt lat="50.51034" lon="4.33756">
        <ele>112</ele>
        <time>2014-11-23T09:41:03Z</time>
      </trkpt>
      <trkpt lat="50.51042" lon="4.33791">
        <ele>114</ele>
        <time>2014-11-23T09:41:07Z</time>
      </trkpt>
      <trkpt lat="50.51051" lon="4.33834">
        <ele>114</ele>
        <time>2014-11-23T09:41:12Z</time>
      </trkpt>
      <trkpt lat="50.51073" lon="4.33909">
        <ele>113</ele>
        <time>2014-11-23T09:41:21Z</time>
      </trkpt>
      <trkpt lat="50.51074" lon="4.33918">
        <ele>112</ele>
        <time>2014-11-23T09:41:22Z</time>
      </trkpt>
      <trkpt lat="50.51081" lon="4.33964">
        <ele>112</ele>
        <time>2014-11-23T09:41:27Z</time>
      </trkpt>
      <trkpt lat="50.51092" lon="4.34005">
        <ele>115</ele>
        <time>2014-11-23T09:41:32Z</time>
      </trkpt>
      <trkpt lat="50.51111" lon="4.34072">
        <ele>109</ele>
        <time>2014-11-23T09:41:40Z</time>
      </trkpt>
      <trkpt lat="50.51116" lon="4.34091">
        <ele>109</ele>
        <time>2014-11-23T09:41:42Z</time>
      </trkpt>
      <trkpt lat="50.51125" lon="4.34139">
        <ele>107</ele>
        <time>2014-11-23T09:41:47Z</time>
      </trkpt>
      <trkpt lat="50.51136" lon="4.34181">
        <ele>107</ele>
        <time>2014-11-23T09:41:52Z</time>
      </trkpt>
      <trkpt lat="50.51147" lon="4.34221">
        <ele>111</ele>
        <time>2014-11-23T09:41:57Z</time>
      </trkpt>
      <trkpt lat="50.51159" lon="4.34265">
        <ele>111</ele>
        <time>2014-11-23T09:42:02Z</time>
      </trkpt>
      <trkpt lat="50.51173" lon="4.34316">
        <ele>115</ele>
        <time>2014-11-23T09:42:08Z</time>
      </trkpt>
      <trkpt lat="50.51181" lon="4.34352">
        <ele>115</ele>
        <time>2014-11-23T09:42:12Z</time>
      </trkpt>
      <trkpt lat="50.51193" lon="4.344">
        <ele>115</ele>
        <time>2014-11-23T09:42:18Z</time>
      </trkpt>
      <trkpt lat="50.51206" lon="4.34461">
        <ele>116</ele>
        <time>2014-11-23T09:42:25Z</time>
      </trkpt>
      <trkpt lat="50.51216" lon="4.34515">
        <ele>113</ele>
        <time>2014-11-23T09:42:31Z</time>
      </trkpt>
      <trkpt lat="50.51218" lon="4.34523">
        <ele>113</ele>
        <time>2014-11-23T09:42:32Z</time>
      </trkpt>
      <trkpt lat="50.51231" lon="4.34581">
        <ele>114</ele>
        <time>2014-11-23T09:42:39Z</time>
      </trkpt>
      <trkpt lat="50.51238" lon="4.34605">
        <ele>114</ele>
        <time>2014-11-23T09:42:42Z</time>
      </trkpt>
      <trkpt lat="50.51254" lon="4.34667">
        <ele>117</ele>
        <time>2014-11-23T09:42:50Z</time>
      </trkpt>
      <trkpt lat="50.51266" lon="4.34703">
        <ele>115</ele>
        <time>2014-11-23T09:42:54Z</time>
      </trkpt>
      <trkpt lat="50.5127" lon="4.34728">
        <ele>118</ele>
        <time>2014-11-23T09:42:57Z</time>
      </trkpt>
      <trkpt lat="50.5128" lon="4.34783">
        <ele>116</ele>
        <time>2014-11-23T09:43:03Z</time>
      </trkpt>
      <trkpt lat="50.51292" lon="4.34827">
        <ele>115</ele>
        <time>2014-11-23T09:43:08Z</time>
      </trkpt>
      <trkpt lat="50.513" lon="4.34865">
        <ele>114</ele>
        <time>2014-11-23T09:43:12Z</time>
      </trkpt>
      <trkpt lat="50.51321" lon="4.34945">
        <ele>112</ele>
        <time>2014-11-23T09:43:21Z</time>
      </trkpt>
      <trkpt lat="50.51323" lon="4.34954">
        <ele>111</ele>
        <time>2014-11-23T09:43:22Z</time>
      </trkpt>
      <trkpt lat="50.51342" lon="4.35035">
        <ele>111</ele>
        <time>2014-11-23T09:43:31Z</time>
      </trkpt>
      <trkpt lat="50.51345" lon="4.35045">
        <ele>111</ele>
        <time>2014-11-23T09:43:32Z</time>
      </trkpt>
      <trkpt lat="50.51355" lon="4.35088">
        <ele>112</ele>
        <time>2014-11-23T09:43:37Z</time>
      </trkpt>
      <trkpt lat="50.51365" lon="4.35131">
        <ele>113</ele>
        <time>2014-11-23T09:43:42Z</time>
      </trkpt>
      <trkpt lat="50.51378" lon="4.35175">
        <ele>111</ele>
        <time>2014-11-23T09:43:47Z</time>
      </trkpt>
      <trkpt lat="50.51397" lon="4.35258">
        <ele>111</ele>
        <time>2014-11-23T09:43:56Z</time>
      </trkpt>
      <trkpt lat="50.514" lon="4.35266">
        <ele>111</ele>
        <time>2014-11-23T09:43:57Z</time>
      </trkpt>
      <trkpt lat="50.51413" lon="4.3532">
        <ele>113</ele>
        <time>2014-11-23T09:44:03Z</time>
      </trkpt>
      <trkpt lat="50.51421" lon="4.35356">
        <ele>113</ele>
        <time>2014-11-23T09:44:07Z</time>
      </trkpt>
      <trkpt lat="50.51432" lon="4.354">
        <ele>111</ele>
        <time>2014-11-23T09:44:12Z</time>
      </trkpt>
      <trkpt lat="50.51442" lon="4.35444">
        <ele>113</ele>
        <time>2014-11-23T09:44:17Z</time>
      </trkpt>
      <trkpt lat="50.51453" lon="4.35513">
        <ele>115</ele>
        <time>2014-11-23T09:44:25Z</time>
      </trkpt>
      <trkpt lat="50.51459" lon="4.35539">
        <ele>114</ele>
        <time>2014-11-23T09:44:27Z</time>
      </trkpt>
      <trkpt lat="50.51458" lon="4.35613">
        <ele>114</ele>
        <time>2014-11-23T09:44:36Z</time>
      </trkpt>
      <trkpt lat="50.5146" lon="4.35624">
        <ele>115</ele>
        <time>2014-11-23T09:44:37Z</time>
      </trkpt>
      <trkpt lat="50.51454" lon="4.35698">
        <ele>113</ele>
        <time>2014-11-23T09:44:46Z</time>
      </trkpt>
      <trkpt lat="50.51448" lon="4.35727">
        <ele>113</ele>
        <time>2014-11-23T09:44:50Z</time>
      </trkpt>
      <trkpt lat="50.51445" lon="4.35752">
        <ele>113</ele>
        <time>2014-11-23T09:44:53Z</time>
      </trkpt>
      <trkpt lat="50.5144" lon="4.358">
        <ele>115</ele>
        <time>2014-11-23T09:44:59Z</time>
      </trkpt>
      <trkpt lat="50.51429" lon="4.3584">
        <ele>117</ele>
        <time>2014-11-23T09:45:04Z</time>
      </trkpt>
      <trkpt lat="50.51421" lon="4.35856">
        <ele>122</ele>
        <time>2014-11-23T09:45:07Z</time>
      </trkpt>
      <trkpt lat="50.51396" lon="4.35923">
        <ele>123</ele>
        <time>2014-11-23T09:45:16Z</time>
      </trkpt>
      <trkpt lat="50.51388" lon="4.35956">
        <ele>121</ele>
        <time>2014-11-23T09:45:20Z</time>
      </trkpt>
      <trkpt lat="50.51382" lon="4.35992">
        <ele>117</ele>
        <time>2014-11-23T09:45:24Z</time>
      </trkpt>
      <trkpt lat="50.51369" lon="4.36039">
        <ele>115</ele>
        <time>2014-11-23T09:45:30Z</time>
      </trkpt>
      <trkpt lat="50.51364" lon="4.36053">
        <ele>115</ele>
        <time>2014-11-23T09:45:32Z</time>
      </trkpt>
      <trkpt lat="50.51353" lon="4.36093">
        <ele>116</ele>
        <time>2014-11-23T09:45:37Z</time>
      </trkpt>
      <trkpt lat="50.51341" lon="4.3613">
        <ele>115</ele>
        <time>2014-11-23T09:45:42Z</time>
      </trkpt>
      <trkpt lat="50.51331" lon="4.36182">
        <ele>113</ele>
        <time>2014-11-23T09:45:48Z</time>
      </trkpt>
      <trkpt lat="50.51325" lon="4.36213">
        <ele>113</ele>
        <time>2014-11-23T09:45:52Z</time>
      </trkpt>
      <trkpt lat="50.51313" lon="4.36252">
        <ele>116</ele>
        <time>2014-11-23T09:45:57Z</time>
      </trkpt>
      <trkpt lat="50.51303" lon="4.3628">
        <ele>116</ele>
        <time>2014-11-23T09:46:02Z</time>
      </trkpt>
      <trkpt lat="50.51296" lon="4.36304">
        <ele>118</ele>
        <time>2014-11-23T09:46:07Z</time>
      </trkpt>
      <trkpt lat="50.51287" lon="4.36339">
        <ele>119</ele>
        <time>2014-11-23T09:46:13Z</time>
      </trkpt>
      <trkpt lat="50.51276" lon="4.36382">
        <ele>119</ele>
        <time>2014-11-23T09:46:17Z</time>
      </trkpt>
      <trkpt lat="50.51259" lon="4.36437">
        <ele>116</ele>
        <time>2014-11-23T09:46:22Z</time>
      </trkpt>
      <trkpt lat="50.51235" lon="4.36506">
        <ele>117</ele>
        <time>2014-11-23T09:46:31Z</time>
      </trkpt>
      <trkpt lat="50.51223" lon="4.3655">
        <ele>114</ele>
        <time>2014-11-23T09:46:36Z</time>
      </trkpt>
      <trkpt lat="50.51219" lon="4.36566">
        <ele>114</ele>
        <time>2014-11-23T09:46:38Z</time>
      </trkpt>
      <trkpt lat="50.51209" lon="4.36606">
        <ele>114</ele>
        <time>2014-11-23T09:46:43Z</time>
      </trkpt>
      <trkpt lat="50.51202" lon="4.36634">
        <ele>116</ele>
        <time>2014-11-23T09:46:47Z</time>
      </trkpt>
      <trkpt lat="50.51193" lon="4.36675">
        <ele>115</ele>
        <time>2014-11-23T09:46:52Z</time>
      </trkpt>
      <trkpt lat="50.5118" lon="4.36709">
        <ele>115</ele>
        <time>2014-11-23T09:46:57Z</time>
      </trkpt>
      <trkpt lat="50.51165" lon="4.36774">
        <ele>117</ele>
        <time>2014-11-23T09:47:05Z</time>
      </trkpt>
      <trkpt lat="50.51153" lon="4.36816">
        <ele>117</ele>
        <time>2014-11-23T09:47:11Z</time>
      </trkpt>
      <trkpt lat="50.51151" lon="4.36823">
        <ele>117</ele>
        <time>2014-11-23T09:47:12Z</time>
      </trkpt>
      <trkpt lat="50.51139" lon="4.36859">
        <ele>116</ele>
        <time>2014-11-23T09:47:17Z</time>
      </trkpt>
      <trkpt lat="50.51126" lon="4.36895">
        <ele>118</ele>
        <time>2014-11-23T09:47:22Z</time>
      </trkpt>
      <trkpt lat="50.5111" lon="4.36952">
        <ele>115</ele>
        <time>2014-11-23T09:47:30Z</time>
      </trkpt>
      <trkpt lat="50.51108" lon="4.36968">
        <ele>116</ele>
        <time>2014-11-23T09:47:32Z</time>
      </trkpt>
      <trkpt lat="50.51094" lon="4.37026">
        <ele>116</ele>
        <time>2014-11-23T09:47:39Z</time>
      </trkpt>
      <trkpt lat="50.5108" lon="4.37083">
        <ele>117</ele>
        <time>2014-11-23T09:47:46Z</time>
      </trkpt>
      <trkpt lat="50.51077" lon="4.37092">
        <ele>116</ele>
        <time>2014-11-23T09:47:47Z</time>
      </trkpt>
      <trkpt lat="50.5106" lon="4.37163">
        <ele>114</ele>
        <time>2014-11-23T09:47:56Z</time>
      </trkpt>
      <trkpt lat="50.51058" lon="4.37172">
        <ele>115</ele>
        <time>2014-11-23T09:47:57Z</time>
      </trkpt>
      <trkpt lat="50.5105" lon="4.37214">
        <ele>113</ele>
        <time>2014-11-23T09:48:02Z</time>
      </trkpt>
      <trkpt lat="50.51049" lon="4.3726">
        <ele>114</ele>
        <time>2014-11-23T09:48:08Z</time>
      </trkpt>
      <trkpt lat="50.51048" lon="4.37288">
        <ele>116</ele>
        <time>2014-11-23T09:48:12Z</time>
      </trkpt>
      <trkpt lat="50.51031" lon="4.37352">
        <ele>111</ele>
        <time>2014-11-23T09:48:21Z</time>
      </trkpt>
      <trkpt lat="50.51028" lon="4.37358">
        <ele>112</ele>
        <time>2014-11-23T09:48:22Z</time>
      </trkpt>
      <trkpt lat="50.51012" lon="4.37449">
        <ele>112</ele>
        <time>2014-11-23T09:48:31Z</time>
      </trkpt>
      <trkpt lat="50.51004" lon="4.37476">
        <ele>112</ele>
        <time>2014-11-23T09:48:35Z</time>
      </trkpt>
      <trkpt lat="50.50995" lon="4.37513">
        <ele>111</ele>
        <time>2014-11-23T09:48:40Z</time>
      </trkpt>
      <trkpt lat="50.50988" lon="4.3754">
        <ele>113</ele>
        <time>2014-11-23T09:48:44Z</time>
      </trkpt>
      <trkpt lat="50.50981" lon="4.37555">
        <ele>116</ele>
        <time>2014-11-23T09:48:47Z</time>
      </trkpt>
      <trkpt lat="50.50964" lon="4.37622">
        <ele>112</ele>
        <time>2014-11-23T09:48:55Z</time>
      </trkpt>
      <trkpt lat="50.5096" lon="4.37639">
        <ele>111</ele>
        <time>2014-11-23T09:48:57Z</time>
      </trkpt>
      <trkpt lat="50.50949" lon="4.37681">
        <ele>113</ele>
        <time>2014-11-23T09:49:02Z</time>
      </trkpt>
      <trkpt lat="50.50936" lon="4.37731">
        <ele>114</ele>
        <time>2014-11-23T09:49:08Z</time>
      </trkpt>
      <trkpt lat="50.50927" lon="4.37763">
        <ele>116</ele>
        <time>2014-11-23T09:49:12Z</time>
      </trkpt>
      <trkpt lat="50.50905" lon="4.37834">
        <ele>112</ele>
        <time>2014-11-23T09:49:21Z</time>
      </trkpt>
      <trkpt lat="50.50902" lon="4.37843">
        <ele>112</ele>
        <time>2014-11-23T09:49:22Z</time>
      </trkpt>
      <trkpt lat="50.50887" lon="4.37888">
        <ele>115</ele>
        <time>2014-11-23T09:49:28Z</time>
      </trkpt>
      <trkpt lat="50.50872" lon="4.37939">
        <ele>113</ele>
        <time>2014-11-23T09:49:34Z</time>
      </trkpt>
      <trkpt lat="50.50864" lon="4.37963">
        <ele>113</ele>
        <time>2014-11-23T09:49:37Z</time>
      </trkpt>
      <trkpt lat="50.50851" lon="4.38006">
        <ele>113</ele>
        <time>2014-11-23T09:49:42Z</time>
      </trkpt>
      <trkpt lat="50.50836" lon="4.38062">
        <ele>114</ele>
        <time>2014-11-23T09:49:49Z</time>
      </trkpt>
      <trkpt lat="50.50827" lon="4.38085">
        <ele>112</ele>
        <time>2014-11-23T09:49:52Z</time>
      </trkpt>
      <trkpt lat="50.50818" lon="4.38127">
        <ele>113</ele>
        <time>2014-11-23T09:49:57Z</time>
      </trkpt>
      <trkpt lat="50.50807" lon="4.38176">
        <ele>112</ele>
        <time>2014-11-23T09:50:02Z</time>
      </trkpt>
      <trkpt lat="50.5079" lon="4.38215">
        <ele>113</ele>
        <time>2014-11-23T09:50:08Z</time>
      </trkpt>
      <trkpt lat="50.5078" lon="4.38252">
        <ele>113</ele>
        <time>2014-11-23T09:50:12Z</time>
      </trkpt>
      <trkpt lat="50.50771" lon="4.38293">
        <ele>115</ele>
        <time>2014-11-23T09:50:17Z</time>
      </trkpt>
      <trkpt lat="50.5076" lon="4.38336">
        <ele>116</ele>
        <time>2014-11-23T09:50:22Z</time>
      </trkpt>
      <trkpt lat="50.50743" lon="4.38406">
        <ele>112</ele>
        <time>2014-11-23T09:50:30Z</time>
      </trkpt>
      <trkpt lat="50.50735" lon="4.38457">
        <ele>113</ele>
        <time>2014-11-23T09:50:36Z</time>
      </trkpt>
      <trkpt lat="50.50733" lon="4.38466">
        <ele>113</ele>
        <time>2014-11-23T09:50:37Z</time>
      </trkpt>
      <trkpt lat="50.50727" lon="4.3851">
        <ele>112</ele>
        <time>2014-11-23T09:50:42Z</time>
      </trkpt>
      <trkpt lat="50.50721" lon="4.38555">
        <ele>112</ele>
        <time>2014-11-23T09:50:47Z</time>
      </trkpt>
      <trkpt lat="50.50716" lon="4.38602">
        <ele>112</ele>
        <time>2014-11-23T09:50:52Z</time>
      </trkpt>
      <trkpt lat="50.50711" lon="4.38658">
        <ele>113</ele>
        <time>2014-11-23T09:50:58Z</time>
      </trkpt>
      <trkpt lat="50.50709" lon="4.38696">
        <ele>113</ele>
        <time>2014-11-23T09:51:02Z</time>
      </trkpt>
      <trkpt lat="50.50706" lon="4.3875">
        <ele>114</ele>
        <time>2014-11-23T09:51:08Z</time>
      </trkpt>
      <trkpt lat="50.50707" lon="4.3879">
        <ele>115</ele>
        <time>2014-11-23T09:51:12Z</time>
      </trkpt>
      <trkpt lat="50.50705" lon="4.38856">
        <ele>119</ele>
        <time>2014-11-23T09:51:20Z</time>
      </trkpt>
      <trkpt lat="50.50703" lon="4.38871">
        <ele>121</ele>
        <time>2014-11-23T09:51:22Z</time>
      </trkpt>
      <trkpt lat="50.50703" lon="4.38935">
        <ele>120</ele>
        <time>2014-11-23T09:51:31Z</time>
      </trkpt>
      <trkpt lat="50.50702" lon="4.38942">
        <ele>120</ele>
        <time>2014-11-23T09:51:32Z</time>
      </trkpt>
      <trkpt lat="50.50699" lon="4.38978">
        <ele>120</ele>
        <time>2014-11-23T09:51:37Z</time>
      </trkpt>
      <trkpt lat="50.50695" lon="4.3901">
        <ele>120</ele>
        <time>2014-11-23T09:51:43Z</time>
      </trkpt>
      <trkpt lat="50.50687" lon="4.3902">
        <ele>124</ele>
        <time>2014-11-23T09:51:49Z</time>
      </trkpt>
      <trkpt lat="50.50679" lon="4.39044">
        <ele>119</ele>
        <time>2014-11-23T09:51:53Z</time>
      </trkpt>
      <trkpt lat="50.5067" lon="4.39058">
        <ele>120</ele>
        <time>2014-11-23T09:51:57Z</time>
      </trkpt>
      <trkpt lat="50.50659" lon="4.39076">
        <ele>121</ele>
        <time>2014-11-23T09:52:02Z</time>
      </trkpt>
      <trkpt lat="50.50651" lon="4.39099">
        <ele>123</ele>
        <time>2014-11-23T09:52:08Z</time>
      </trkpt>
      <trkpt lat="50.50647" lon="4.39128">
        <ele>122</ele>
        <time>2014-11-23T09:52:14Z</time>
      </trkpt>
      <trkpt lat="50.50646" lon="4.39143">
        <ele>122</ele>
        <time>2014-11-23T09:52:17Z</time>
      </trkpt>
      <trkpt lat="50.50644" lon="4.39169">
        <ele>121</ele>
        <time>2014-11-23T09:52:22Z</time>
      </trkpt>
      <trkpt lat="50.50643" lon="4.39192">
        <ele>122</ele>
        <time>2014-11-23T09:52:27Z</time>
      </trkpt>
      <trkpt lat="50.50642" lon="4.39217">
        <ele>123</ele>
        <time>2014-11-23T09:52:32Z</time>
      </trkpt>
      <trkpt lat="50.5064" lon="4.39247">
        <ele>127</ele>
        <time>2014-11-23T09:52:38Z</time>
      </trkpt>
      <trkpt lat="50.50637" lon="4.39265">
        <ele>127</ele>
        <time>2014-11-23T09:52:42Z</time>
      </trkpt>
      <trkpt lat="50.50631" lon="4.39296">
        <ele>132</ele>
        <time>2014-11-23T09:52:51Z</time>
      </trkpt>
      <trkpt lat="50.50633" lon="4.393">
        <ele>132</ele>
        <time>2014-11-23T09:52:52Z</time>
      </trkpt>
      <trkpt lat="50.50646" lon="4.39314">
        <ele>129</ele>
        <time>2014-11-23T09:52:57Z</time>
      </trkpt>
      <trkpt lat="50.50666" lon="4.39327">
        <ele>131</ele>
        <time>2014-11-23T09:53:03Z</time>
      </trkpt>
      <trkpt lat="50.50688" lon="4.39338">
        <ele>128</ele>
        <time>2014-11-23T09:53:09Z</time>
      </trkpt>
      <trkpt lat="50.50697" lon="4.39345">
        <ele>127</ele>
        <time>2014-11-23T09:53:12Z</time>
      </trkpt>
      <trkpt lat="50.50714" lon="4.39354">
        <ele>128</ele>
        <time>2014-11-23T09:53:17Z</time>
      </trkpt>
      <trkpt lat="50.50732" lon="4.39362">
        <ele>128</ele>
        <time>2014-11-23T09:53:22Z</time>
      </trkpt>
      <trkpt lat="50.50761" lon="4.39381">
        <ele>127</ele>
        <time>2014-11-23T09:53:30Z</time>
      </trkpt>
      <trkpt lat="50.50768" lon="4.39383">
        <ele>126</ele>
        <time>2014-11-23T09:53:32Z</time>
      </trkpt>
      <trkpt lat="50.50782" lon="4.39392">
        <ele>127</ele>
        <time>2014-11-23T09:53:37Z</time>
      </trkpt>
      <trkpt lat="50.50773" lon="4.39404">
        <ele>126</ele>
        <time>2014-11-23T09:53:43Z</time>
      </trkpt>
      <trkpt lat="50.50752" lon="4.39399">
        <ele>124</ele>
        <time>2014-11-23T09:53:47Z</time>
      </trkpt>
      <trkpt lat="50.50726" lon="4.39377">
        <ele>122</ele>
        <time>2014-11-23T09:53:54Z</time>
      </trkpt>
      <trkpt lat="50.50725" lon="4.3937">
        <ele>122</ele>
        <time>2014-11-23T09:53:57Z</time>
      </trkpt>
      <trkpt lat="50.50727" lon="4.39329">
        <ele>122</ele>
        <time>2014-11-23T09:54:04Z</time>
      </trkpt>
      <trkpt lat="50.50737" lon="4.39276">
        <ele>120</ele>
        <time>2014-11-23T09:54:11Z</time>
      </trkpt>
      <trkpt lat="50.5074" lon="4.39251">
        <ele>118</ele>
        <time>2014-11-23T09:54:14Z</time>
      </trkpt>
      <trkpt lat="50.50744" lon="4.3921">
        <ele>115</ele>
        <time>2014-11-23T09:54:19Z</time>
      </trkpt>
      <trkpt lat="50.50747" lon="4.39167">
        <ele>117</ele>
        <time>2014-11-23T09:54:24Z</time>
      </trkpt>
      <trkpt lat="50.50748" lon="4.39119">
        <ele>114</ele>
        <time>2014-11-23T09:54:30Z</time>
      </trkpt>
      <trkpt lat="50.50752" lon="4.39055">
        <ele>113</ele>
        <time>2014-11-23T09:54:36Z</time>
      </trkpt>
      <trkpt lat="50.50753" lon="4.3902">
        <ele>113</ele>
        <time>2014-11-23T09:54:40Z</time>
      </trkpt>
      <trkpt lat="50.50754" lon="4.38995">
        <ele>114</ele>
        <time>2014-11-23T09:54:43Z</time>
      </trkpt>
      <trkpt lat="50.50762" lon="4.38936">
        <ele>114</ele>
        <time>2014-11-23T09:54:50Z</time>
      </trkpt>
      <trkpt lat="50.50759" lon="4.38921">
        <ele>113</ele>
        <time>2014-11-23T09:54:52Z</time>
      </trkpt>
      <trkpt lat="50.50759" lon="4.3887">
        <ele>111</ele>
        <time>2014-11-23T09:54:57Z</time>
      </trkpt>
      <trkpt lat="50.50764" lon="4.38804">
        <ele>113</ele>
        <time>2014-11-23T09:55:04Z</time>
      </trkpt>
      <trkpt lat="50.50765" lon="4.38778">
        <ele>113</ele>
        <time>2014-11-23T09:55:07Z</time>
      </trkpt>
      <trkpt lat="50.50766" lon="4.38723">
        <ele>112</ele>
        <time>2014-11-23T09:55:13Z</time>
      </trkpt>
      <trkpt lat="50.50772" lon="4.38652">
        <ele>111</ele>
        <time>2014-11-23T09:55:21Z</time>
      </trkpt>
      <trkpt lat="50.50773" lon="4.38643">
        <ele>111</ele>
        <time>2014-11-23T09:55:22Z</time>
      </trkpt>
      <trkpt lat="50.5078" lon="4.38601">
        <ele>111</ele>
        <time>2014-11-23T09:55:27Z</time>
      </trkpt>
      <trkpt lat="50.50789" lon="4.38527">
        <ele>109</ele>
        <time>2014-11-23T09:55:35Z</time>
      </trkpt>
      <trkpt lat="50.50791" lon="4.38498">
        <ele>111</ele>
        <time>2014-11-23T09:55:38Z</time>
      </trkpt>
      <trkpt lat="50.50796" lon="4.38463">
        <ele>112</ele>
        <time>2014-11-23T09:55:42Z</time>
      </trkpt>
      <trkpt lat="50.50805" lon="4.38408">
        <ele>114</ele>
        <time>2014-11-23T09:55:48Z</time>
      </trkpt>
      <trkpt lat="50.50812" lon="4.38374">
        <ele>115</ele>
        <time>2014-11-23T09:55:52Z</time>
      </trkpt>
      <trkpt lat="50.50823" lon="4.38328">
        <ele>114</ele>
        <time>2014-11-23T09:55:57Z</time>
      </trkpt>
      <trkpt lat="50.50832" lon="4.38288">
        <ele>112</ele>
        <time>2014-11-23T09:56:02Z</time>
      </trkpt>
      <trkpt lat="50.50842" lon="4.3825">
        <ele>113</ele>
        <time>2014-11-23T09:56:07Z</time>
      </trkpt>
      <trkpt lat="50.50854" lon="4.38204">
        <ele>118</ele>
        <time>2014-11-23T09:56:12Z</time>
      </trkpt>
      <trkpt lat="50.50868" lon="4.38153">
        <ele>118</ele>
        <time>2014-11-23T09:56:18Z</time>
      </trkpt>
      <trkpt lat="50.50882" lon="4.38103">
        <ele>118</ele>
        <time>2014-11-23T09:56:24Z</time>
      </trkpt>
      <trkpt lat="50.50889" lon="4.38074">
        <ele>117</ele>
        <time>2014-11-23T09:56:27Z</time>
      </trkpt>
      <trkpt lat="50.50904" lon="4.38032">
        <ele>115</ele>
        <time>2014-11-23T09:56:32Z</time>
      </trkpt>
      <trkpt lat="50.50916" lon="4.37991">
        <ele>116</ele>
        <time>2014-11-23T09:56:37Z</time>
      </trkpt>
      <trkpt lat="50.50932" lon="4.37948">
        <ele>116</ele>
        <time>2014-11-23T09:56:42Z</time>
      </trkpt>
      <trkpt lat="50.50945" lon="4.37904">
        <ele>115</ele>
        <time>2014-11-23T09:56:47Z</time>
      </trkpt>
      <trkpt lat="50.50957" lon="4.37859">
        <ele>116</ele>
        <time>2014-11-23T09:56:52Z</time>
      </trkpt>
      <trkpt lat="50.50969" lon="4.37817">
        <ele>115</ele>
        <time>2014-11-23T09:56:57Z</time>
      </trkpt>
      <trkpt lat="50.50992" lon="4.37738">
        <ele>112</ele>
        <time>2014-11-23T09:57:06Z</time>
      </trkpt>
      <trkpt lat="50.51002" lon="4.37704">
        <ele>112</ele>
        <time>2014-11-23T09:57:10Z</time>
      </trkpt>
      <trkpt lat="50.51012" lon="4.37675">
        <ele>112</ele>
        <time>2014-11-23T09:57:14Z</time>
      </trkpt>
      <trkpt lat="50.51021" lon="4.37649">
        <ele>114</ele>
        <time>2014-11-23T09:57:17Z</time>
      </trkpt>
      <trkpt lat="50.51029" lon="4.37606">
        <ele>115</ele>
        <time>2014-11-23T09:57:22Z</time>
      </trkpt>
      <trkpt lat="50.51039" lon="4.37564">
        <ele>115</ele>
        <time>2014-11-23T09:57:27Z</time>
      </trkpt>
      <trkpt lat="50.51055" lon="4.37501">
        <ele>113</ele>
        <time>2014-11-23T09:57:34Z</time>
      </trkpt>
      <trkpt lat="50.51065" lon="4.37468">
        <ele>111</ele>
        <time>2014-11-23T09:57:38Z</time>
      </trkpt>
      <trkpt lat="50.51073" lon="4.37429">
        <ele>110</ele>
        <time>2014-11-23T09:57:42Z</time>
      </trkpt>
      <trkpt lat="50.51082" lon="4.37384">
        <ele>113</ele>
        <time>2014-11-23T09:57:47Z</time>
      </trkpt>
      <trkpt lat="50.51092" lon="4.37311">
        <ele>111</ele>
        <time>2014-11-23T09:57:55Z</time>
      </trkpt>
      <trkpt lat="50.51094" lon="4.37293">
        <ele>110</ele>
        <time>2014-11-23T09:57:57Z</time>
      </trkpt>
      <trkpt lat="50.51099" lon="4.37248">
        <ele>108</ele>
        <time>2014-11-23T09:58:02Z</time>
      </trkpt>
      <trkpt lat="50.51103" lon="4.37221">
        <ele>108</ele>
        <time>2014-11-23T09:58:08Z</time>
      </trkpt>
      <trkpt lat="50.51123" lon="4.37186">
        <ele>117</ele>
        <time>2014-11-23T09:58:12Z</time>
      </trkpt>
      <trkpt lat="50.51137" lon="4.37098">
        <ele>122</ele>
        <time>2014-11-23T09:58:20Z</time>
      </trkpt>
      <trkpt lat="50.51142" lon="4.37063">
        <ele>122</ele>
        <time>2014-11-23T09:58:24Z</time>
      </trkpt>
      <trkpt lat="50.51147" lon="4.37036">
        <ele>121</ele>
        <time>2014-11-23T09:58:27Z</time>
      </trkpt>
      <trkpt lat="50.51157" lon="4.36992">
        <ele>118</ele>
        <time>2014-11-23T09:58:32Z</time>
      </trkpt>
      <trkpt lat="50.51165" lon="4.36947">
        <ele>119</ele>
        <time>2014-11-23T09:58:37Z</time>
      </trkpt>
      <trkpt lat="50.51176" lon="4.36905">
        <ele>118</ele>
        <time>2014-11-23T09:58:42Z</time>
      </trkpt>
      <trkpt lat="50.51189" lon="4.36865">
        <ele>116</ele>
        <time>2014-11-23T09:58:47Z</time>
      </trkpt>
      <trkpt lat="50.51202" lon="4.36823">
        <ele>116</ele>
        <time>2014-11-23T09:58:52Z</time>
      </trkpt>
      <trkpt lat="50.51214" lon="4.36781">
        <ele>115</ele>
        <time>2014-11-23T09:58:57Z</time>
      </trkpt>
      <trkpt lat="50.51226" lon="4.36739">
        <ele>116</ele>
        <time>2014-11-23T09:59:02Z</time>
      </trkpt>
      <trkpt lat="50.51238" lon="4.36698">
        <ele>118</ele>
        <time>2014-11-23T09:59:07Z</time>
      </trkpt>
      <trkpt lat="50.51251" lon="4.36651">
        <ele>118</ele>
        <time>2014-11-23T09:59:12Z</time>
      </trkpt>
      <trkpt lat="50.51272" lon="4.36583">
        <ele>118</ele>
        <time>2014-11-23T09:59:20Z</time>
      </trkpt>
      <trkpt lat="50.51277" lon="4.36566">
        <ele>118</ele>
        <time>2014-11-23T09:59:22Z</time>
      </trkpt>
      <trkpt lat="50.5129" lon="4.3652">
        <ele>119</ele>
        <time>2014-11-23T09:59:27Z</time>
      </trkpt>
      <trkpt lat="50.51302" lon="4.36477">
        <ele>120</ele>
        <time>2014-11-23T09:59:32Z</time>
      </trkpt>
      <trkpt lat="50.51318" lon="4.36433">
        <ele>116</ele>
        <time>2014-11-23T09:59:37Z</time>
      </trkpt>
      <trkpt lat="50.51331" lon="4.36386">
        <ele>112</ele>
        <time>2014-11-23T09:59:42Z</time>
      </trkpt>
      <trkpt lat="50.51341" lon="4.36346">
        <ele>111</ele>
        <time>2014-11-23T09:59:47Z</time>
      </trkpt>
      <trkpt lat="50.51353" lon="4.3631">
        <ele>113</ele>
        <time>2014-11-23T09:59:52Z</time>
      </trkpt>
      <trkpt lat="50.51367" lon="4.36268">
        <ele>113</ele>
        <time>2014-11-23T09:59:57Z</time>
      </trkpt>
      <trkpt lat="50.5138" lon="4.36222">
        <ele>114</ele>
        <time>2014-11-23T10:00:02Z</time>
      </trkpt>
      <trkpt lat="50.51392" lon="4.36175">
        <ele>116</ele>
        <time>2014-11-23T10:00:07Z</time>
      </trkpt>
      <trkpt lat="50.51406" lon="4.36138">
        <ele>117</ele>
        <time>2014-11-23T10:00:12Z</time>
      </trkpt>
      <trkpt lat="50.51425" lon="4.36067">
        <ele>115</ele>
        <time>2014-11-23T10:00:21Z</time>
      </trkpt>
      <trkpt lat="50.51437" lon="4.36022">
        <ele>120</ele>
        <time>2014-11-23T10:00:26Z</time>
      </trkpt>
      <trkpt lat="50.51439" lon="4.36012">
        <ele>121</ele>
        <time>2014-11-23T10:00:27Z</time>
      </trkpt>
      <trkpt lat="50.51457" lon="4.35946">
        <ele>126</ele>
        <time>2014-11-23T10:00:35Z</time>
      </trkpt>
      <trkpt lat="50.51461" lon="4.3593">
        <ele>125</ele>
        <time>2014-11-23T10:00:37Z</time>
      </trkpt>
      <trkpt lat="50.51472" lon="4.35892">
        <ele>127</ele>
        <time>2014-11-23T10:00:42Z</time>
      </trkpt>
      <trkpt lat="50.51489" lon="4.35844">
        <ele>123</ele>
        <time>2014-11-23T10:00:48Z</time>
      </trkpt>
      <trkpt lat="50.51506" lon="4.35791">
        <ele>122</ele>
        <time>2014-11-23T10:00:54Z</time>
      </trkpt>
      <trkpt lat="50.51525" lon="4.3577">
        <ele>122</ele>
        <time>2014-11-23T10:00:58Z</time>
      </trkpt>
      <trkpt lat="50.51533" lon="4.35737">
        <ele>121</ele>
        <time>2014-11-23T10:01:02Z</time>
      </trkpt>
      <trkpt lat="50.51537" lon="4.35693">
        <ele>122</ele>
        <time>2014-11-23T10:01:07Z</time>
      </trkpt>
      <trkpt lat="50.51539" lon="4.35652">
        <ele>123</ele>
        <time>2014-11-23T10:01:12Z</time>
      </trkpt>
      <trkpt lat="50.51537" lon="4.35609">
        <ele>124</ele>
        <time>2014-11-23T10:01:17Z</time>
      </trkpt>
      <trkpt lat="50.51529" lon="4.35571">
        <ele>119</ele>
        <time>2014-11-23T10:01:22Z</time>
      </trkpt>
      <trkpt lat="50.51512" lon="4.35538">
        <ele>119</ele>
        <time>2014-11-23T10:01:27Z</time>
      </trkpt>
      <trkpt lat="50.51511" lon="4.35485">
        <ele>119</ele>
        <time>2014-11-23T10:01:33Z</time>
      </trkpt>
      <trkpt lat="50.5151" lon="4.35448">
        <ele>119</ele>
        <time>2014-11-23T10:01:37Z</time>
      </trkpt>
      <trkpt lat="50.51509" lon="4.35398">
        <ele>120</ele>
        <time>2014-11-23T10:01:42Z</time>
      </trkpt>
      <trkpt lat="50.51505" lon="4.3535">
        <ele>120</ele>
        <time>2014-11-23T10:01:47Z</time>
      </trkpt>
      <trkpt lat="50.51497" lon="4.35308">
        <ele>118</ele>
        <time>2014-11-23T10:01:52Z</time>
      </trkpt>
      <trkpt lat="50.51486" lon="4.35266">
        <ele>118</ele>
        <time>2014-11-23T10:01:57Z</time>
      </trkpt>
      <trkpt lat="50.51449" lon="4.35216">
        <ele>118</ele>
        <time>2014-11-23T10:02:06Z</time>
      </trkpt>
      <trkpt lat="50.51441" lon="4.35183">
        <ele>116</ele>
        <time>2014-11-23T10:02:10Z</time>
      </trkpt>
      <trkpt lat="50.51431" lon="4.35143">
        <ele>114</ele>
        <time>2014-11-23T10:02:15Z</time>
      </trkpt>
      <trkpt lat="50.51427" lon="4.35127">
        <ele>114</ele>
        <time>2014-11-23T10:02:17Z</time>
      </trkpt>
      <trkpt lat="50.51416" lon="4.3509">
        <ele>117</ele>
        <time>2014-11-23T10:02:22Z</time>
      </trkpt>
      <trkpt lat="50.51407" lon="4.35048">
        <ele>118</ele>
        <time>2014-11-23T10:02:27Z</time>
      </trkpt>
      <trkpt lat="50.51393" lon="4.34999">
        <ele>119</ele>
        <time>2014-11-23T10:02:33Z</time>
      </trkpt>
      <trkpt lat="50.51384" lon="4.34966">
        <ele>120</ele>
        <time>2014-11-23T10:02:37Z</time>
      </trkpt>
      <trkpt lat="50.51372" lon="4.34906">
        <ele>118</ele>
        <time>2014-11-23T10:02:44Z</time>
      </trkpt>
      <trkpt lat="50.5136" lon="4.34856">
        <ele>117</ele>
        <time>2014-11-23T10:02:50Z</time>
      </trkpt>
      <trkpt lat="50.51353" lon="4.3483">
        <ele>117</ele>
        <time>2014-11-23T10:02:53Z</time>
      </trkpt>
      <trkpt lat="50.51344" lon="4.34796">
        <ele>117</ele>
        <time>2014-11-23T10:02:57Z</time>
      </trkpt>
      <trkpt lat="50.51332" lon="4.34744">
        <ele>119</ele>
        <time>2014-11-23T10:03:03Z</time>
      </trkpt>
      <trkpt lat="50.51324" lon="4.34699">
        <ele>120</ele>
        <time>2014-11-23T10:03:08Z</time>
      </trkpt>
      <trkpt lat="50.51316" lon="4.34659">
        <ele>118</ele>
        <time>2014-11-23T10:03:13Z</time>
      </trkpt>
      <trkpt lat="50.51309" lon="4.34627">
        <ele>120</ele>
        <time>2014-11-23T10:03:17Z</time>
      </trkpt>
      <trkpt lat="50.51304" lon="4.3457">
        <ele>117</ele>
        <time>2014-11-23T10:03:23Z</time>
      </trkpt>
      <trkpt lat="50.51299" lon="4.34513">
        <ele>114</ele>
        <time>2014-11-23T10:03:29Z</time>
      </trkpt>
      <trkpt lat="50.51294" lon="4.34485">
        <ele>114</ele>
        <time>2014-11-23T10:03:32Z</time>
      </trkpt>
      <trkpt lat="50.51276" lon="4.34409">
        <ele>113</ele>
        <time>2014-11-23T10:03:41Z</time>
      </trkpt>
      <trkpt lat="50.51268" lon="4.34393">
        <ele>113</ele>
        <time>2014-11-23T10:03:43Z</time>
      </trkpt>
      <trkpt lat="50.51248" lon="4.34359">
        <ele>114</ele>
        <time>2014-11-23T10:03:48Z</time>
      </trkpt>
      <trkpt lat="50.51237" lon="4.34317">
        <ele>114</ele>
        <time>2014-11-23T10:03:53Z</time>
      </trkpt>
      <trkpt lat="50.51229" lon="4.34285">
        <ele>115</ele>
        <time>2014-11-23T10:03:57Z</time>
      </trkpt>
      <trkpt lat="50.51218" lon="4.34245">
        <ele>115</ele>
        <time>2014-11-23T10:04:02Z</time>
      </trkpt>
      <trkpt lat="50.51202" lon="4.3418">
        <ele>115</ele>
        <time>2014-11-23T10:04:10Z</time>
      </trkpt>
      <trkpt lat="50.512" lon="4.34166">
        <ele>116</ele>
        <time>2014-11-23T10:04:12Z</time>
      </trkpt>
      <trkpt lat="50.51189" lon="4.34126">
        <ele>116</ele>
        <time>2014-11-23T10:04:17Z</time>
      </trkpt>
      <trkpt lat="50.51179" lon="4.34081">
        <ele>117</ele>
        <time>2014-11-23T10:04:22Z</time>
      </trkpt>
      <trkpt lat="50.51163" lon="4.34022">
        <ele>116</ele>
        <time>2014-11-23T10:04:30Z</time>
      </trkpt>
      <trkpt lat="50.51148" lon="4.33977">
        <ele>116</ele>
        <time>2014-11-23T10:04:36Z</time>
      </trkpt>
      <trkpt lat="50.51145" lon="4.33954">
        <ele>116</ele>
        <time>2014-11-23T10:04:39Z</time>
      </trkpt>
      <trkpt lat="50.51138" lon="4.33928">
        <ele>116</ele>
        <time>2014-11-23T10:04:42Z</time>
      </trkpt>
      <trkpt lat="50.51129" lon="4.33885">
        <ele>114</ele>
        <time>2014-11-23T10:04:47Z</time>
      </trkpt>
      <trkpt lat="50.51116" lon="4.33825">
        <ele>113</ele>
        <time>2014-11-23T10:04:54Z</time>
      </trkpt>
      <trkpt lat="50.51104" lon="4.33773">
        <ele>112</ele>
        <time>2014-11-23T10:05:00Z</time>
      </trkpt>
      <trkpt lat="50.51101" lon="4.33757">
        <ele>110</ele>
        <time>2014-11-23T10:05:02Z</time>
      </trkpt>
      <trkpt lat="50.51087" lon="4.33703">
        <ele>112</ele>
        <time>2014-11-23T10:05:09Z</time>
      </trkpt>
      <trkpt lat="50.51081" lon="4.33677">
        <ele>112</ele>
        <time>2014-11-23T10:05:12Z</time>
      </trkpt>
      <trkpt lat="50.51073" lon="4.33636">
        <ele>111</ele>
        <time>2014-11-23T10:05:17Z</time>
      </trkpt>
      <trkpt lat="50.5106" lon="4.33582">
        <ele>113</ele>
        <time>2014-11-23T10:05:23Z</time>
      </trkpt>
      <trkpt lat="50.51045" lon="4.33515">
        <ele>112</ele>
        <time>2014-11-23T10:05:31Z</time>
      </trkpt>
      <trkpt lat="50.51042" lon="4.33507">
        <ele>112</ele>
        <time>2014-11-23T10:05:32Z</time>
      </trkpt>
      <trkpt lat="50.51022" lon="4.33443">
        <ele>112</ele>
        <time>2014-11-23T10:05:40Z</time>
      </trkpt>
      <trkpt lat="50.51012" lon="4.33422">
        <ele>110</ele>
        <time>2014-11-23T10:05:43Z</time>
      </trkpt>
      <trkpt lat="50.50996" lon="4.33374">
        <ele>114</ele>
        <time>2014-11-23T10:05:49Z</time>
      </trkpt>
      <trkpt lat="50.50986" lon="4.33354">
        <ele>112</ele>
        <time>2014-11-23T10:05:52Z</time>
      </trkpt>
      <trkpt lat="50.50974" lon="4.33321">
        <ele>115</ele>
        <time>2014-11-23T10:05:57Z</time>
      </trkpt>
      <trkpt lat="50.50958" lon="4.33283">
        <ele>113</ele>
        <time>2014-11-23T10:06:02Z</time>
      </trkpt>
      <trkpt lat="50.50942" lon="4.33248">
        <ele>111</ele>
        <time>2014-11-23T10:06:07Z</time>
      </trkpt>
      <trkpt lat="50.5092" lon="4.33214">
        <ele>113</ele>
        <time>2014-11-23T10:06:13Z</time>
      </trkpt>
      <trkpt lat="50.50905" lon="4.33184">
        <ele>116</ele>
        <time>2014-11-23T10:06:17Z</time>
      </trkpt>
      <trkpt lat="50.50889" lon="4.33142">
        <ele>115</ele>
        <time>2014-11-23T10:06:22Z</time>
      </trkpt>
      <trkpt lat="50.50861" lon="4.33102">
        <ele>114</ele>
        <time>2014-11-23T10:06:29Z</time>
      </trkpt>
      <trkpt lat="50.50849" lon="4.33083">
        <ele>113</ele>
        <time>2014-11-23T10:06:32Z</time>
      </trkpt>
      <trkpt lat="50.5083" lon="4.33052">
        <ele>113</ele>
        <time>2014-11-23T10:06:37Z</time>
      </trkpt>
      <trkpt lat="50.5081" lon="4.33022">
        <ele>115</ele>
        <time>2014-11-23T10:06:42Z</time>
      </trkpt>
      <trkpt lat="50.50789" lon="4.32994">
        <ele>116</ele>
        <time>2014-11-23T10:06:47Z</time>
      </trkpt>
      <trkpt lat="50.50761" lon="4.32961">
        <ele>117</ele>
        <time>2014-11-23T10:06:53Z</time>
      </trkpt>
      <trkpt lat="50.50743" lon="4.32942">
        <ele>119</ele>
        <time>2014-11-23T10:06:57Z</time>
      </trkpt>
      <trkpt lat="50.5072" lon="4.32918">
        <ele>117</ele>
        <time>2014-11-23T10:07:02Z</time>
      </trkpt>
      <trkpt lat="50.50699" lon="4.3289">
        <ele>115</ele>
        <time>2014-11-23T10:07:07Z</time>
      </trkpt>
      <trkpt lat="50.50656" lon="4.32851">
        <ele>117</ele>
        <time>2014-11-23T10:07:16Z</time>
      </trkpt>
      <trkpt lat="50.50652" lon="4.32846">
        <ele>117</ele>
        <time>2014-11-23T10:07:17Z</time>
      </trkpt>
      <trkpt lat="50.50627" lon="4.32825">
        <ele>114</ele>
        <time>2014-11-23T10:07:22Z</time>
      </trkpt>
      <trkpt lat="50.50603" lon="4.3281">
        <ele>114</ele>
        <time>2014-11-23T10:07:27Z</time>
      </trkpt>
      <trkpt lat="50.50581" lon="4.32792">
        <ele>112</ele>
        <time>2014-11-23T10:07:32Z</time>
      </trkpt>
      <trkpt lat="50.50561" lon="4.32776">
        <ele>115</ele>
        <time>2014-11-23T10:07:37Z</time>
      </trkpt>
      <trkpt lat="50.50531" lon="4.32755">
        <ele>111</ele>
        <time>2014-11-23T10:07:43Z</time>
      </trkpt>
      <trkpt lat="50.50514" lon="4.32746">
        <ele>111</ele>
        <time>2014-11-23T10:07:47Z</time>
      </trkpt>
      <trkpt lat="50.50465" lon="4.32729">
        <ele>106</ele>
        <time>2014-11-23T10:07:56Z</time>
      </trkpt>
      <trkpt lat="50.5045" lon="4.32722">
        <ele>105</ele>
        <time>2014-11-23T10:07:59Z</time>
      </trkpt>
      <trkpt lat="50.50438" lon="4.32714">
        <ele>109</ele>
        <time>2014-11-23T10:08:02Z</time>
      </trkpt>
      <trkpt lat="50.5041" lon="4.327">
        <ele>108</ele>
        <time>2014-11-23T10:08:08Z</time>
      </trkpt>
      <trkpt lat="50.50384" lon="4.32693">
        <ele>111</ele>
        <time>2014-11-23T10:08:13Z</time>
      </trkpt>
      <trkpt lat="50.50364" lon="4.32683">
        <ele>110</ele>
        <time>2014-11-23T10:08:17Z</time>
      </trkpt>
      <trkpt lat="50.50343" lon="4.32674">
        <ele>110</ele>
        <time>2014-11-23T10:08:22Z</time>
      </trkpt>
      <trkpt lat="50.50301" lon="4.32657">
        <ele>111</ele>
        <time>2014-11-23T10:08:31Z</time>
      </trkpt>
      <trkpt lat="50.50296" lon="4.32655">
        <ele>112</ele>
        <time>2014-11-23T10:08:32Z</time>
      </trkpt>
      <trkpt lat="50.50275" lon="4.32643">
        <ele>112</ele>
        <time>2014-11-23T10:08:37Z</time>
      </trkpt>
      <trkpt lat="50.50252" lon="4.32632">
        <ele>115</ele>
        <time>2014-11-23T10:08:42Z</time>
      </trkpt>
      <trkpt lat="50.50227" lon="4.32623">
        <ele>115</ele>
        <time>2014-11-23T10:08:47Z</time>
      </trkpt>
      <trkpt lat="50.50203" lon="4.32614">
        <ele>113</ele>
        <time>2014-11-23T10:08:52Z</time>
      </trkpt>
      <trkpt lat="50.50165" lon="4.32598">
        <ele>117</ele>
        <time>2014-11-23T10:09:01Z</time>
      </trkpt>
      <trkpt lat="50.50163" lon="4.32595">
        <ele>117</ele>
        <time>2014-11-23T10:09:02Z</time>
      </trkpt>
      <trkpt lat="50.50135" lon="4.32579">
        <ele>116</ele>
        <time>2014-11-23T10:09:08Z</time>
      </trkpt>
      <trkpt lat="50.50115" lon="4.32574">
        <ele>118</ele>
        <time>2014-11-23T10:09:12Z</time>
      </trkpt>
      <trkpt lat="50.5008" lon="4.32562">
        <ele>117</ele>
        <time>2014-11-23T10:09:19Z</time>
      </trkpt>
      <trkpt lat="50.50066" lon="4.32556">
        <ele>116</ele>
        <time>2014-11-23T10:09:22Z</time>
      </trkpt>
      <trkpt lat="50.50036" lon="4.3254">
        <ele>116</ele>
        <time>2014-11-23T10:09:29Z</time>
      </trkpt>
      <trkpt lat="50.5002" lon="4.32531">
        <ele>117</ele>
        <time>2014-11-23T10:09:33Z</time>
      </trkpt>
      <trkpt lat="50.49985" lon="4.32519">
        <ele>118</ele>
        <time>2014-11-23T10:09:40Z</time>
      </trkpt>
      <trkpt lat="50.49975" lon="4.32515">
        <ele>119</ele>
        <time>2014-11-23T10:09:42Z</time>
      </trkpt>
      <trkpt lat="50.49937" lon="4.32499">
        <ele>119</ele>
        <time>2014-11-23T10:09:50Z</time>
      </trkpt>
      <trkpt lat="50.49928" lon="4.32495">
        <ele>120</ele>
        <time>2014-11-23T10:09:52Z</time>
      </trkpt>
      <trkpt lat="50.49903" lon="4.32484">
        <ele>119</ele>
        <time>2014-11-23T10:09:57Z</time>
      </trkpt>
      <trkpt lat="50.49878" lon="4.32474">
        <ele>119</ele>
        <time>2014-11-23T10:10:02Z</time>
      </trkpt>
      <trkpt lat="50.49852" lon="4.32467">
        <ele>118</ele>
        <time>2014-11-23T10:10:07Z</time>
      </trkpt>
      <trkpt lat="50.49826" lon="4.32459">
        <ele>114</ele>
        <time>2014-11-23T10:10:12Z</time>
      </trkpt>
      <trkpt lat="50.49801" lon="4.32448">
        <ele>108</ele>
        <time>2014-11-23T10:10:17Z</time>
      </trkpt>
      <trkpt lat="50.49779" lon="4.32439">
        <ele>112</ele>
        <time>2014-11-23T10:10:22Z</time>
      </trkpt>
      <trkpt lat="50.49755" lon="4.32423">
        <ele>113</ele>
        <time>2014-11-23T10:10:28Z</time>
      </trkpt>
      <trkpt lat="50.49738" lon="4.32415">
        <ele>113</ele>
        <time>2014-11-23T10:10:32Z</time>
      </trkpt>
      <trkpt lat="50.49712" lon="4.324">
        <ele>115</ele>
        <time>2014-11-23T10:10:38Z</time>
      </trkpt>
      <trkpt lat="50.49673" lon="4.32385">
        <ele>110</ele>
        <time>2014-11-23T10:10:45Z</time>
      </trkpt>
      <trkpt lat="50.49659" lon="4.3238">
        <ele>111</ele>
        <time>2014-11-23T10:10:48Z</time>
      </trkpt>
      <trkpt lat="50.49626" lon="4.32361">
        <ele>112</ele>
        <time>2014-11-23T10:10:55Z</time>
      </trkpt>
      <trkpt lat="50.49614" lon="4.32357">
        <ele>111</ele>
        <time>2014-11-23T10:10:57Z</time>
      </trkpt>
      <trkpt lat="50.49595" lon="4.32346">
        <ele>116</ele>
        <time>2014-11-23T10:11:02Z</time>
      </trkpt>
      <trkpt lat="50.49569" lon="4.32335">
        <ele>112</ele>
        <time>2014-11-23T10:11:07Z</time>
      </trkpt>
      <trkpt lat="50.49541" lon="4.3232">
        <ele>114</ele>
        <time>2014-11-23T10:11:13Z</time>
      </trkpt>
      <trkpt lat="50.49521" lon="4.32313">
        <ele>111</ele>
        <time>2014-11-23T10:11:17Z</time>
      </trkpt>
      <trkpt lat="50.49502" lon="4.32297">
        <ele>113</ele>
        <time>2014-11-23T10:11:22Z</time>
      </trkpt>
      <trkpt lat="50.49482" lon="4.32276">
        <ele>113</ele>
        <time>2014-11-23T10:11:27Z</time>
      </trkpt>
      <trkpt lat="50.49456" lon="4.32251">
        <ele>113</ele>
        <time>2014-11-23T10:11:33Z</time>
      </trkpt>
      <trkpt lat="50.49437" lon="4.32234">
        <ele>117</ele>
        <time>2014-11-23T10:11:38Z</time>
      </trkpt>
      <trkpt lat="50.49424" lon="4.32213">
        <ele>118</ele>
        <time>2014-11-23T10:11:42Z</time>
      </trkpt>
      <trkpt lat="50.49397" lon="4.32168">
        <ele>115</ele>
        <time>2014-11-23T10:11:50Z</time>
      </trkpt>
      <trkpt lat="50.4939" lon="4.32157">
        <ele>114</ele>
        <time>2014-11-23T10:11:52Z</time>
      </trkpt>
      <trkpt lat="50.49362" lon="4.32106">
        <ele>119</ele>
        <time>2014-11-23T10:12:01Z</time>
      </trkpt>
      <trkpt lat="50.49358" lon="4.32099">
        <ele>119</ele>
        <time>2014-11-23T10:12:02Z</time>
      </trkpt>
      <trkpt lat="50.4934" lon="4.32057">
        <ele>120</ele>
        <time>2014-11-23T10:12:09Z</time>
      </trkpt>
      <trkpt lat="50.49333" lon="4.32038">
        <ele>120</ele>
        <time>2014-11-23T10:12:12Z</time>
      </trkpt>
      <trkpt lat="50.49322" lon="4.32003">
        <ele>120</ele>
        <time>2014-11-23T10:12:17Z</time>
      </trkpt>
      <trkpt lat="50.49309" lon="4.31958">
        <ele>121</ele>
        <time>2014-11-23T10:12:23Z</time>
      </trkpt>
      <trkpt lat="50.49296" lon="4.31913">
        <ele>117</ele>
        <time>2014-11-23T10:12:29Z</time>
      </trkpt>
      <trkpt lat="50.49287" lon="4.31875">
        <ele>113</ele>
        <time>2014-11-23T10:12:34Z</time>
      </trkpt>
      <trkpt lat="50.49279" lon="4.31847">
        <ele>114</ele>
        <time>2014-11-23T10:12:38Z</time>
      </trkpt>
      <trkpt lat="50.49271" lon="4.31818">
        <ele>115</ele>
        <time>2014-11-23T10:12:42Z</time>
      </trkpt>
      <trkpt lat="50.49259" lon="4.31761">
        <ele>114</ele>
        <time>2014-11-23T10:12:49Z</time>
      </trkpt>
      <trkpt lat="50.49252" lon="4.31725">
        <ele>115</ele>
        <time>2014-11-23T10:12:54Z</time>
      </trkpt>
      <trkpt lat="50.49249" lon="4.31701">
        <ele>116</ele>
        <time>2014-11-23T10:12:57Z</time>
      </trkpt>
      <trkpt lat="50.49244" lon="4.31658">
        <ele>117</ele>
        <time>2014-11-23T10:13:03Z</time>
      </trkpt>
      <trkpt lat="50.49238" lon="4.31627">
        <ele>117</ele>
        <time>2014-11-23T10:13:07Z</time>
      </trkpt>
      <trkpt lat="50.49226" lon="4.31561">
        <ele>116</ele>
        <time>2014-11-23T10:13:16Z</time>
      </trkpt>
      <trkpt lat="50.4922" lon="4.31532">
        <ele>113</ele>
        <time>2014-11-23T10:13:20Z</time>
      </trkpt>
      <trkpt lat="50.49214" lon="4.3149">
        <ele>111</ele>
        <time>2014-11-23T10:13:26Z</time>
      </trkpt>
      <trkpt lat="50.49212" lon="4.31484">
        <ele>111</ele>
        <time>2014-11-23T10:13:27Z</time>
      </trkpt>
      <trkpt lat="50.49205" lon="4.31447">
        <ele>108</ele>
        <time>2014-11-23T10:13:32Z</time>
      </trkpt>
      <trkpt lat="50.49198" lon="4.31395">
        <ele>106</ele>
        <time>2014-11-23T10:13:39Z</time>
      </trkpt>
      <trkpt lat="50.49195" lon="4.31371">
        <ele>107</ele>
        <time>2014-11-23T10:13:42Z</time>
      </trkpt>
      <trkpt lat="50.49189" lon="4.31332">
        <ele>107</ele>
        <time>2014-11-23T10:13:47Z</time>
      </trkpt>
      <trkpt lat="50.49183" lon="4.31288">
        <ele>109</ele>
        <time>2014-11-23T10:13:53Z</time>
      </trkpt>
      <trkpt lat="50.49182" lon="4.31248">
        <ele>111</ele>
        <time>2014-11-23T10:13:58Z</time>
      </trkpt>
      <trkpt lat="50.49181" lon="4.31216">
        <ele>112</ele>
        <time>2014-11-23T10:14:02Z</time>
      </trkpt>
      <trkpt lat="50.4918" lon="4.31178">
        <ele>113</ele>
        <time>2014-11-23T10:14:07Z</time>
      </trkpt>
      <trkpt lat="50.49179" lon="4.31128">
        <ele>112</ele>
        <time>2014-11-23T10:14:13Z</time>
      </trkpt>
      <trkpt lat="50.49179" lon="4.31092">
        <ele>109</ele>
        <time>2014-11-23T10:14:17Z</time>
      </trkpt>
      <trkpt lat="50.49182" lon="4.31041">
        <ele>113</ele>
        <time>2014-11-23T10:14:23Z</time>
      </trkpt>
      <trkpt lat="50.49185" lon="4.31007">
        <ele>113</ele>
        <time>2014-11-23T10:14:27Z</time>
      </trkpt>
      <trkpt lat="50.49191" lon="4.30956">
        <ele>114</ele>
        <time>2014-11-23T10:14:33Z</time>
      </trkpt>
      <trkpt lat="50.49194" lon="4.30923">
        <ele>114</ele>
        <time>2014-11-23T10:14:37Z</time>
      </trkpt>
      <trkpt lat="50.492" lon="4.3087">
        <ele>114</ele>
        <time>2014-11-23T10:14:44Z</time>
      </trkpt>
      <trkpt lat="50.49203" lon="4.30847">
        <ele>113</ele>
        <time>2014-11-23T10:14:47Z</time>
      </trkpt>
      <trkpt lat="50.49212" lon="4.30806">
        <ele>112</ele>
        <time>2014-11-23T10:14:52Z</time>
      </trkpt>
      <trkpt lat="50.49224" lon="4.30767">
        <ele>113</ele>
        <time>2014-11-23T10:14:57Z</time>
      </trkpt>
      <trkpt lat="50.49244" lon="4.30706">
        <ele>114</ele>
        <time>2014-11-23T10:15:05Z</time>
      </trkpt>
      <trkpt lat="50.49252" lon="4.30685">
        <ele>114</ele>
        <time>2014-11-23T10:15:08Z</time>
      </trkpt>
      <trkpt lat="50.49269" lon="4.30654">
        <ele>115</ele>
        <time>2014-11-23T10:15:13Z</time>
      </trkpt>
      <trkpt lat="50.49282" lon="4.3063">
        <ele>115</ele>
        <time>2014-11-23T10:15:17Z</time>
      </trkpt>
      <trkpt lat="50.49301" lon="4.3059">
        <ele>114</ele>
        <time>2014-11-23T10:15:23Z</time>
      </trkpt>
      <trkpt lat="50.49312" lon="4.30559">
        <ele>113</ele>
        <time>2014-11-23T10:15:27Z</time>
      </trkpt>
      <trkpt lat="50.49324" lon="4.30526">
        <ele>112</ele>
        <time>2014-11-23T10:15:32Z</time>
      </trkpt>
      <trkpt lat="50.49339" lon="4.30491">
        <ele>110</ele>
        <time>2014-11-23T10:15:37Z</time>
      </trkpt>
      <trkpt lat="50.49352" lon="4.30459">
        <ele>111</ele>
        <time>2014-11-23T10:15:42Z</time>
      </trkpt>
      <trkpt lat="50.49367" lon="4.30423">
        <ele>115</ele>
        <time>2014-11-23T10:15:47Z</time>
      </trkpt>
      <trkpt lat="50.49381" lon="4.30388">
        <ele>116</ele>
        <time>2014-11-23T10:15:52Z</time>
      </trkpt>
      <trkpt lat="50.49393" lon="4.30353">
        <ele>118</ele>
        <time>2014-11-23T10:15:57Z</time>
      </trkpt>
      <trkpt lat="50.49417" lon="4.30284">
        <ele>116</ele>
        <time>2014-11-23T10:16:06Z</time>
      </trkpt>
      <trkpt lat="50.49419" lon="4.30273">
        <ele>118</ele>
        <time>2014-11-23T10:16:07Z</time>
      </trkpt>
      <trkpt lat="50.49428" lon="4.30211">
        <ele>118</ele>
        <time>2014-11-23T10:16:15Z</time>
      </trkpt>
      <trkpt lat="50.49434" lon="4.30193">
        <ele>118</ele>
        <time>2014-11-23T10:16:17Z</time>
      </trkpt>
      <trkpt lat="50.4945" lon="4.30149">
        <ele>117</ele>
        <time>2014-11-23T10:16:22Z</time>
      </trkpt>
      <trkpt lat="50.49475" lon="4.30101">
        <ele>117</ele>
        <time>2014-11-23T10:16:29Z</time>
      </trkpt>
      <trkpt lat="50.49493" lon="4.30072">
        <ele>114</ele>
        <time>2014-11-23T10:16:35Z</time>
      </trkpt>
      <trkpt lat="50.49504" lon="4.30055">
        <ele>115</ele>
        <time>2014-11-23T10:16:38Z</time>
      </trkpt>
      <trkpt lat="50.4952" lon="4.3003">
        <ele>116</ele>
        <time>2014-11-23T10:16:42Z</time>
      </trkpt>
      <trkpt lat="50.49538" lon="4.29999">
        <ele>115</ele>
        <time>2014-11-23T10:16:47Z</time>
      </trkpt>
      <trkpt lat="50.49578" lon="4.29967">
        <ele>112</ele>
        <time>2014-11-23T10:16:56Z</time>
      </trkpt>
      <trkpt lat="50.4958" lon="4.29965">
        <ele>117</ele>
        <time>2014-11-23T10:16:57Z</time>
      </trkpt>
      <trkpt lat="50.49604" lon="4.29944">
        <ele>117</ele>
        <time>2014-11-23T10:17:02Z</time>
      </trkpt>
      <trkpt lat="50.49644" lon="4.29914">
        <ele>116</ele>
        <time>2014-11-23T10:17:10Z</time>
      </trkpt>
      <trkpt lat="50.49664" lon="4.29897">
        <ele>122</ele>
        <time>2014-11-23T10:17:15Z</time>
      </trkpt>
      <trkpt lat="50.49686" lon="4.29877">
        <ele>127</ele>
        <time>2014-11-23T10:17:20Z</time>
      </trkpt>
      <trkpt lat="50.49713" lon="4.29857">
        <ele>129</ele>
        <time>2014-11-23T10:17:26Z</time>
      </trkpt>
      <trkpt lat="50.49722" lon="4.2985">
        <ele>130</ele>
        <time>2014-11-23T10:17:28Z</time>
      </trkpt>
      <trkpt lat="50.49747" lon="4.29833">
        <ele>129</ele>
        <time>2014-11-23T10:17:33Z</time>
      </trkpt>
      <trkpt lat="50.49773" lon="4.29818">
        <ele>128</ele>
        <time>2014-11-23T10:17:38Z</time>
      </trkpt>
      <trkpt lat="50.49798" lon="4.29806">
        <ele>125</ele>
        <time>2014-11-23T10:17:43Z</time>
      </trkpt>
      <trkpt lat="50.49818" lon="4.29796">
        <ele>124</ele>
        <time>2014-11-23T10:17:47Z</time>
      </trkpt>
      <trkpt lat="50.49847" lon="4.29777">
        <ele>120</ele>
        <time>2014-11-23T10:17:53Z</time>
      </trkpt>
      <trkpt lat="50.4988" lon="4.29755">
        <ele>124</ele>
        <time>2014-11-23T10:18:00Z</time>
      </trkpt>
      <trkpt lat="50.4989" lon="4.29749">
        <ele>124</ele>
        <time>2014-11-23T10:18:02Z</time>
      </trkpt>
      <trkpt lat="50.49932" lon="4.29719">
        <ele>124</ele>
        <time>2014-11-23T10:18:10Z</time>
      </trkpt>
      <trkpt lat="50.49935" lon="4.29717">
        <ele>125</ele>
        <time>2014-11-23T10:18:11Z</time>
      </trkpt>
      <trkpt lat="50.49958" lon="4.29699">
        <ele>128</ele>
        <time>2014-11-23T10:18:16Z</time>
      </trkpt>
      <trkpt lat="50.49983" lon="4.29682">
        <ele>129</ele>
        <time>2014-11-23T10:18:21Z</time>
      </trkpt>
      <trkpt lat="50.50021" lon="4.29655">
        <ele>128</ele>
        <time>2014-11-23T10:18:29Z</time>
      </trkpt>
      <trkpt lat="50.5003" lon="4.2965">
        <ele>129</ele>
        <time>2014-11-23T10:18:31Z</time>
      </trkpt>
      <trkpt lat="50.50067" lon="4.29628">
        <ele>127</ele>
        <time>2014-11-23T10:18:38Z</time>
      </trkpt>
      <trkpt lat="50.50084" lon="4.29618">
        <ele>130</ele>
        <time>2014-11-23T10:18:42Z</time>
      </trkpt>
      <trkpt lat="50.50106" lon="4.29604">
        <ele>125</ele>
        <time>2014-11-23T10:18:46Z</time>
      </trkpt>
      <trkpt lat="50.50128" lon="4.29587">
        <ele>132</ele>
        <time>2014-11-23T10:18:51Z</time>
      </trkpt>
      <trkpt lat="50.50174" lon="4.29553">
        <ele>134</ele>
        <time>2014-11-23T10:19:00Z</time>
      </trkpt>
      <trkpt lat="50.50189" lon="4.29542">
        <ele>134</ele>
        <time>2014-11-23T10:19:03Z</time>
      </trkpt>
      <trkpt lat="50.50212" lon="4.2953">
        <ele>131</ele>
        <time>2014-11-23T10:19:07Z</time>
      </trkpt>
      <trkpt lat="50.50237" lon="4.29513">
        <ele>133</ele>
        <time>2014-11-23T10:19:12Z</time>
      </trkpt>
      <trkpt lat="50.50262" lon="4.29507">
        <ele>126</ele>
        <time>2014-11-23T10:19:16Z</time>
      </trkpt>
      <trkpt lat="50.50291" lon="4.29489">
        <ele>123</ele>
        <time>2014-11-23T10:19:21Z</time>
      </trkpt>
      <trkpt lat="50.50318" lon="4.29472">
        <ele>122</ele>
        <time>2014-11-23T10:19:26Z</time>
      </trkpt>
      <trkpt lat="50.50345" lon="4.29454">
        <ele>120</ele>
        <time>2014-11-23T10:19:31Z</time>
      </trkpt>
      <trkpt lat="50.50389" lon="4.29419">
        <ele>122</ele>
        <time>2014-11-23T10:19:40Z</time>
      </trkpt>
      <trkpt lat="50.50396" lon="4.29412">
        <ele>117</ele>
        <time>2014-11-23T10:19:41Z</time>
      </trkpt>
      <trkpt lat="50.5042" lon="4.29389">
        <ele>117</ele>
        <time>2014-11-23T10:19:46Z</time>
      </trkpt>
      <trkpt lat="50.50448" lon="4.29357">
        <ele>117</ele>
        <time>2014-11-23T10:19:52Z</time>
      </trkpt>
      <trkpt lat="50.50466" lon="4.29337">
        <ele>116</ele>
        <time>2014-11-23T10:19:56Z</time>
      </trkpt>
      <trkpt lat="50.5049" lon="4.29308">
        <ele>116</ele>
        <time>2014-11-23T10:20:01Z</time>
      </trkpt>
      <trkpt lat="50.50513" lon="4.29278">
        <ele>113</ele>
        <time>2014-11-23T10:20:06Z</time>
      </trkpt>
      <trkpt lat="50.50533" lon="4.29247">
        <ele>115</ele>
        <time>2014-11-23T10:20:11Z</time>
      </trkpt>
      <trkpt lat="50.50554" lon="4.29218">
        <ele>115</ele>
        <time>2014-11-23T10:20:16Z</time>
      </trkpt>
      <trkpt lat="50.50572" lon="4.29187">
        <ele>118</ele>
        <time>2014-11-23T10:20:21Z</time>
      </trkpt>
      <trkpt lat="50.50591" lon="4.29153">
        <ele>116</ele>
        <time>2014-11-23T10:20:26Z</time>
      </trkpt>
      <trkpt lat="50.50613" lon="4.29112">
        <ele>113</ele>
        <time>2014-11-23T10:20:32Z</time>
      </trkpt>
      <trkpt lat="50.50631" lon="4.29073">
        <ele>110</ele>
        <time>2014-11-23T10:20:37Z</time>
      </trkpt>
      <trkpt lat="50.50656" lon="4.29011">
        <ele>110</ele>
        <time>2014-11-23T10:20:45Z</time>
      </trkpt>
      <trkpt lat="50.50658" lon="4.29002">
        <ele>109</ele>
        <time>2014-11-23T10:20:46Z</time>
      </trkpt>
      <trkpt lat="50.50674" lon="4.28961">
        <ele>112</ele>
        <time>2014-11-23T10:20:51Z</time>
      </trkpt>
      <trkpt lat="50.50688" lon="4.28919">
        <ele>111</ele>
        <time>2014-11-23T10:20:56Z</time>
      </trkpt>
      <trkpt lat="50.50697" lon="4.28878">
        <ele>107</ele>
        <time>2014-11-23T10:21:01Z</time>
      </trkpt>
      <trkpt lat="50.5071" lon="4.28817">
        <ele>110</ele>
        <time>2014-11-23T10:21:08Z</time>
      </trkpt>
      <trkpt lat="50.50716" lon="4.28784">
        <ele>109</ele>
        <time>2014-11-23T10:21:12Z</time>
      </trkpt>
      <trkpt lat="50.50725" lon="4.28749">
        <ele>109</ele>
        <time>2014-11-23T10:21:16Z</time>
      </trkpt>
      <trkpt lat="50.50732" lon="4.28697">
        <ele>111</ele>
        <time>2014-11-23T10:21:22Z</time>
      </trkpt>
      <trkpt lat="50.50736" lon="4.28645">
        <ele>115</ele>
        <time>2014-11-23T10:21:28Z</time>
      </trkpt>
      <trkpt lat="50.50739" lon="4.28608">
        <ele>114</ele>
        <time>2014-11-23T10:21:32Z</time>
      </trkpt>
      <trkpt lat="50.50743" lon="4.28561">
        <ele>114</ele>
        <time>2014-11-23T10:21:37Z</time>
      </trkpt>
      <trkpt lat="50.50746" lon="4.28491">
        <ele>119</ele>
        <time>2014-11-23T10:21:45Z</time>
      </trkpt>
      <trkpt lat="50.50746" lon="4.28464">
        <ele>119</ele>
        <time>2014-11-23T10:21:48Z</time>
      </trkpt>
      <trkpt lat="50.5075" lon="4.28428">
        <ele>120</ele>
        <time>2014-11-23T10:21:52Z</time>
      </trkpt>
      <trkpt lat="50.50752" lon="4.28371">
        <ele>114</ele>
        <time>2014-11-23T10:21:58Z</time>
      </trkpt>
      <trkpt lat="50.50754" lon="4.28333">
        <ele>112</ele>
        <time>2014-11-23T10:22:02Z</time>
      </trkpt>
      <trkpt lat="50.50756" lon="4.28296">
        <ele>110</ele>
        <time>2014-11-23T10:22:06Z</time>
      </trkpt>
      <trkpt lat="50.50759" lon="4.28245">
        <ele>113</ele>
        <time>2014-11-23T10:22:12Z</time>
      </trkpt>
      <trkpt lat="50.50764" lon="4.28192">
        <ele>115</ele>
        <time>2014-11-23T10:22:18Z</time>
      </trkpt>
      <trkpt lat="50.50765" lon="4.28159">
        <ele>113</ele>
        <time>2014-11-23T10:22:22Z</time>
      </trkpt>
      <trkpt lat="50.50769" lon="4.28126">
        <ele>114</ele>
        <time>2014-11-23T10:22:26Z</time>
      </trkpt>
      <trkpt lat="50.50776" lon="4.28081">
        <ele>113</ele>
        <time>2014-11-23T10:22:31Z</time>
      </trkpt>
      <trkpt lat="50.50781" lon="4.28038">
        <ele>112</ele>
        <time>2014-11-23T10:22:36Z</time>
      </trkpt>
      <trkpt lat="50.5079" lon="4.27993">
        <ele>110</ele>
        <time>2014-11-23T10:22:41Z</time>
      </trkpt>
      <trkpt lat="50.50802" lon="4.27931">
        <ele>110</ele>
        <time>2014-11-23T10:22:48Z</time>
      </trkpt>
      <trkpt lat="50.50809" lon="4.279">
        <ele>108</ele>
        <time>2014-11-23T10:22:51Z</time>
      </trkpt>
      <trkpt lat="50.50822" lon="4.2785">
        <ele>110</ele>
        <time>2014-11-23T10:22:57Z</time>
      </trkpt>
      <trkpt lat="50.50831" lon="4.27819">
        <ele>111</ele>
        <time>2014-11-23T10:23:01Z</time>
      </trkpt>
      <trkpt lat="50.50844" lon="4.27769">
        <ele>111</ele>
        <time>2014-11-23T10:23:07Z</time>
      </trkpt>
      <trkpt lat="50.50862" lon="4.27713">
        <ele>111</ele>
        <time>2014-11-23T10:23:14Z</time>
      </trkpt>
      <trkpt lat="50.50875" lon="4.27686">
        <ele>112</ele>
        <time>2014-11-23T10:23:18Z</time>
      </trkpt>
      <trkpt lat="50.50884" lon="4.27666">
        <ele>113</ele>
        <time>2014-11-23T10:23:21Z</time>
      </trkpt>
      <trkpt lat="50.50898" lon="4.27621">
        <ele>117</ele>
        <time>2014-11-23T10:23:27Z</time>
      </trkpt>
      <trkpt lat="50.50908" lon="4.27588">
        <ele>115</ele>
        <time>2014-11-23T10:23:31Z</time>
      </trkpt>
      <trkpt lat="50.50922" lon="4.27553">
        <ele>118</ele>
        <time>2014-11-23T10:23:36Z</time>
      </trkpt>
      <trkpt lat="50.50936" lon="4.27515">
        <ele>122</ele>
        <time>2014-11-23T10:23:41Z</time>
      </trkpt>
      <trkpt lat="50.50954" lon="4.27462">
        <ele>124</ele>
        <time>2014-11-23T10:23:47Z</time>
      </trkpt>
      <trkpt lat="50.50979" lon="4.27393">
        <ele>120</ele>
        <time>2014-11-23T10:23:55Z</time>
      </trkpt>
      <trkpt lat="50.50989" lon="4.27368">
        <ele>119</ele>
        <time>2014-11-23T10:23:58Z</time>
      </trkpt>
      <trkpt lat="50.51" lon="4.27337">
        <ele>122</ele>
        <time>2014-11-23T10:24:02Z</time>
      </trkpt>
      <trkpt lat="50.51019" lon="4.2729">
        <ele>121</ele>
        <time>2014-11-23T10:24:08Z</time>
      </trkpt>
      <trkpt lat="50.51029" lon="4.27263">
        <ele>120</ele>
        <time>2014-11-23T10:24:11Z</time>
      </trkpt>
      <trkpt lat="50.51047" lon="4.27205">
        <ele>121</ele>
        <time>2014-11-23T10:24:18Z</time>
      </trkpt>
      <trkpt lat="50.51066" lon="4.27146">
        <ele>122</ele>
        <time>2014-11-23T10:24:25Z</time>
      </trkpt>
      <trkpt lat="50.51083" lon="4.27109">
        <ele>125</ele>
        <time>2014-11-23T10:24:30Z</time>
      </trkpt>
      <trkpt lat="50.51086" lon="4.27102">
        <ele>126</ele>
        <time>2014-11-23T10:24:31Z</time>
      </trkpt>
      <trkpt lat="50.51102" lon="4.27056">
        <ele>129</ele>
        <time>2014-11-23T10:24:36Z</time>
      </trkpt>
      <trkpt lat="50.51119" lon="4.27011">
        <ele>126</ele>
        <time>2014-11-23T10:24:41Z</time>
      </trkpt>
      <trkpt lat="50.51136" lon="4.26958">
        <ele>130</ele>
        <time>2014-11-23T10:24:47Z</time>
      </trkpt>
      <trkpt lat="50.51181" lon="4.26921">
        <ele>124</ele>
        <time>2014-11-23T10:24:55Z</time>
      </trkpt>
      <trkpt lat="50.51187" lon="4.26918">
        <ele>125</ele>
        <time>2014-11-23T10:24:56Z</time>
      </trkpt>
      <trkpt lat="50.51234" lon="4.26916">
        <ele>114</ele>
        <time>2014-11-23T10:25:03Z</time>
      </trkpt>
      <trkpt lat="50.5125" lon="4.26934">
        <ele>116</ele>
        <time>2014-11-23T10:25:06Z</time>
      </trkpt>
      <trkpt lat="50.51271" lon="4.26968">
        <ele>117</ele>
        <time>2014-11-23T10:25:11Z</time>
      </trkpt>
      <trkpt lat="50.51286" lon="4.27031">
        <ele>115</ele>
        <time>2014-11-23T10:25:20Z</time>
      </trkpt>
      <trkpt lat="50.51291" lon="4.2704">
        <ele>117</ele>
        <time>2014-11-23T10:25:22Z</time>
      </trkpt>
      <trkpt lat="50.51307" lon="4.27045">
        <ele>114</ele>
        <time>2014-11-23T10:25:27Z</time>
      </trkpt>
      <trkpt lat="50.51313" lon="4.27025">
        <ele>110</ele>
        <time>2014-11-23T10:25:31Z</time>
      </trkpt>
      <trkpt lat="50.51304" lon="4.26976">
        <ele>108</ele>
        <time>2014-11-23T10:25:40Z</time>
      </trkpt>
      <trkpt lat="50.51302" lon="4.26968">
        <ele>110</ele>
        <time>2014-11-23T10:25:41Z</time>
      </trkpt>
      <trkpt lat="50.51296" lon="4.26941">
        <ele>114</ele>
        <time>2014-11-23T10:25:46Z</time>
      </trkpt>
      <trkpt lat="50.51288" lon="4.26906">
        <ele>112</ele>
        <time>2014-11-23T10:25:52Z</time>
      </trkpt>
      <trkpt lat="50.51284" lon="4.26888">
        <ele>111</ele>
        <time>2014-11-23T10:25:56Z</time>
      </trkpt>
      <trkpt lat="50.51274" lon="4.26842">
        <ele>108</ele>
        <time>2014-11-23T10:26:01Z</time>
      </trkpt>
      <trkpt lat="50.51247" lon="4.26788">
        <ele>110</ele>
        <time>2014-11-23T10:26:09Z</time>
      </trkpt>
      <trkpt lat="50.51232" lon="4.26754">
        <ele>111</ele>
        <time>2014-11-23T10:26:14Z</time>
      </trkpt>
      <trkpt lat="50.51231" lon="4.26706">
        <ele>111</ele>
        <time>2014-11-23T10:26:20Z</time>
      </trkpt>
      <trkpt lat="50.51233" lon="4.267">
        <ele>111</ele>
        <time>2014-11-23T10:26:21Z</time>
      </trkpt>
      <trkpt lat="50.51252" lon="4.26654">
        <ele>111</ele>
        <time>2014-11-23T10:26:28Z</time>
      </trkpt>
      <trkpt lat="50.51261" lon="4.26634">
        <ele>113</ele>
        <time>2014-11-23T10:26:31Z</time>
      </trkpt>
      <trkpt lat="50.51275" lon="4.26605">
        <ele>115</ele>
        <time>2014-11-23T10:26:36Z</time>
      </trkpt>
      <trkpt lat="50.51289" lon="4.26574">
        <ele>117</ele>
        <time>2014-11-23T10:26:41Z</time>
      </trkpt>
      <trkpt lat="50.51303" lon="4.26541">
        <ele>115</ele>
        <time>2014-11-23T10:26:46Z</time>
      </trkpt>
      <trkpt lat="50.51325" lon="4.265">
        <ele>119</ele>
        <time>2014-11-23T10:26:53Z</time>
      </trkpt>
      <trkpt lat="50.51344" lon="4.26452">
        <ele>123</ele>
        <time>2014-11-23T10:27:00Z</time>
      </trkpt>
      <trkpt lat="50.5135" lon="4.26437">
        <ele>122</ele>
        <time>2014-11-23T10:27:02Z</time>
      </trkpt>
      <trkpt lat="50.51362" lon="4.26411">
        <ele>124</ele>
        <time>2014-11-23T10:27:06Z</time>
      </trkpt>
      <trkpt lat="50.51385" lon="4.2636">
        <ele>122</ele>
        <time>2014-11-23T10:27:14Z</time>
      </trkpt>
      <trkpt lat="50.5139" lon="4.26348">
        <ele>122</ele>
        <time>2014-11-23T10:27:16Z</time>
      </trkpt>
      <trkpt lat="50.51403" lon="4.26317">
        <ele>120</ele>
        <time>2014-11-23T10:27:21Z</time>
      </trkpt>
      <trkpt lat="50.5142" lon="4.26281">
        <ele>124</ele>
        <time>2014-11-23T10:27:27Z</time>
      </trkpt>
      <trkpt lat="50.51428" lon="4.26255">
        <ele>126</ele>
        <time>2014-11-23T10:27:31Z</time>
      </trkpt>
      <trkpt lat="50.51441" lon="4.26227">
        <ele>128</ele>
        <time>2014-11-23T10:27:36Z</time>
      </trkpt>
      <trkpt lat="50.51469" lon="4.26163">
        <ele>120</ele>
        <time>2014-11-23T10:27:45Z</time>
      </trkpt>
      <trkpt lat="50.51472" lon="4.26157">
        <ele>120</ele>
        <time>2014-11-23T10:27:46Z</time>
      </trkpt>
      <trkpt lat="50.51497" lon="4.26136">
        <ele>119</ele>
        <time>2014-11-23T10:27:54Z</time>
      </trkpt>
      <trkpt lat="50.51505" lon="4.26137">
        <ele>116</ele>
        <time>2014-11-23T10:27:56Z</time>
      </trkpt>
      <trkpt lat="50.51521" lon="4.26127">
        <ele>114</ele>
        <time>2014-11-23T10:28:01Z</time>
      </trkpt>
      <trkpt lat="50.51526" lon="4.2609">
        <ele>115</ele>
        <time>2014-11-23T10:28:09Z</time>
      </trkpt>
      <trkpt lat="50.51524" lon="4.26085">
        <ele>121</ele>
        <time>2014-11-23T10:28:13Z</time>
      </trkpt>
      <trkpt lat="50.51516" lon="4.26067">
        <ele>121</ele>
        <time>2014-11-23T10:28:17Z</time>
      </trkpt>
      <trkpt lat="50.51499" lon="4.26046">
        <ele>122</ele>
        <time>2014-11-23T10:28:22Z</time>
      </trkpt>
      <trkpt lat="50.51486" lon="4.26028">
        <ele>122</ele>
        <time>2014-11-23T10:28:26Z</time>
      </trkpt>
      <trkpt lat="50.5147" lon="4.26009">
        <ele>120</ele>
        <time>2014-11-23T10:28:31Z</time>
      </trkpt>
      <trkpt lat="50.51454" lon="4.26015">
        <ele>119</ele>
        <time>2014-11-23T10:28:36Z</time>
      </trkpt>
      <trkpt lat="50.51435" lon="4.26045">
        <ele>119</ele>
        <time>2014-11-23T10:28:42Z</time>
      </trkpt>
      <trkpt lat="50.5142" lon="4.26083">
        <ele>115</ele>
        <time>2014-11-23T10:28:48Z</time>
      </trkpt>
      <trkpt lat="50.51405" lon="4.26113">
        <ele>116</ele>
        <time>2014-11-23T10:28:53Z</time>
      </trkpt>
      <trkpt lat="50.51396" lon="4.26134">
        <ele>117</ele>
        <time>2014-11-23T10:28:56Z</time>
      </trkpt>
      <trkpt lat="50.51381" lon="4.26168">
        <ele>115</ele>
        <time>2014-11-23T10:29:01Z</time>
      </trkpt>
      <trkpt lat="50.51365" lon="4.26212">
        <ele>115</ele>
        <time>2014-11-23T10:29:07Z</time>
      </trkpt>
      <trkpt lat="50.51349" lon="4.26254">
        <ele>116</ele>
        <time>2014-11-23T10:29:13Z</time>
      </trkpt>
      <trkpt lat="50.51335" lon="4.26294">
        <ele>116</ele>
        <time>2014-11-23T10:29:17Z</time>
      </trkpt>
      <trkpt lat="50.5132" lon="4.26335">
        <ele>115</ele>
        <time>2014-11-23T10:29:22Z</time>
      </trkpt>
      <trkpt lat="50.51308" lon="4.26365">
        <ele>113</ele>
        <time>2014-11-23T10:29:26Z</time>
      </trkpt>
      <trkpt lat="50.51286" lon="4.26411">
        <ele>109</ele>
        <time>2014-11-23T10:29:33Z</time>
      </trkpt>
      <trkpt lat="50.51274" lon="4.26446">
        <ele>110</ele>
        <time>2014-11-23T10:29:38Z</time>
      </trkpt>
      <trkpt lat="50.51267" lon="4.26464">
        <ele>111</ele>
        <time>2014-11-23T10:29:41Z</time>
      </trkpt>
      <trkpt lat="50.51242" lon="4.26517">
        <ele>111</ele>
        <time>2014-11-23T10:29:49Z</time>
      </trkpt>
      <trkpt lat="50.51237" lon="4.2653">
        <ele>110</ele>
        <time>2014-11-23T10:29:51Z</time>
      </trkpt>
      <trkpt lat="50.51215" lon="4.26583">
        <ele>111</ele>
        <time>2014-11-23T10:30:00Z</time>
      </trkpt>
      <trkpt lat="50.51212" lon="4.26589">
        <ele>112</ele>
        <time>2014-11-23T10:30:01Z</time>
      </trkpt>
      <trkpt lat="50.51184" lon="4.26637">
        <ele>115</ele>
        <time>2014-11-23T10:30:10Z</time>
      </trkpt>
      <trkpt lat="50.51159" lon="4.26634">
        <ele>113</ele>
        <time>2014-11-23T10:30:15Z</time>
      </trkpt>
      <trkpt lat="50.51136" lon="4.26637">
        <ele>112</ele>
        <time>2014-11-23T10:30:19Z</time>
      </trkpt>
      <trkpt lat="50.51124" lon="4.26636">
        <ele>112</ele>
        <time>2014-11-23T10:30:21Z</time>
      </trkpt>
      <trkpt lat="50.5109" lon="4.26623">
        <ele>113</ele>
        <time>2014-11-23T10:30:28Z</time>
      </trkpt>
      <trkpt lat="50.51063" lon="4.26628">
        <ele>115</ele>
        <time>2014-11-23T10:30:34Z</time>
      </trkpt>
      <trkpt lat="50.51041" lon="4.2665">
        <ele>112</ele>
        <time>2014-11-23T10:30:40Z</time>
      </trkpt>
      <trkpt lat="50.51037" lon="4.26655">
        <ele>111</ele>
        <time>2014-11-23T10:30:41Z</time>
      </trkpt>
      <trkpt lat="50.51018" lon="4.2667">
        <ele>114</ele>
        <time>2014-11-23T10:30:46Z</time>
      </trkpt>
      <trkpt lat="50.51" lon="4.26688">
        <ele>114</ele>
        <time>2014-11-23T10:30:51Z</time>
      </trkpt>
      <trkpt lat="50.50982" lon="4.26703">
        <ele>111</ele>
        <time>2014-11-23T10:30:56Z</time>
      </trkpt>
      <trkpt lat="50.50953" lon="4.26732">
        <ele>110</ele>
        <time>2014-11-23T10:31:04Z</time>
      </trkpt>
      <trkpt lat="50.50939" lon="4.26745">
        <ele>110</ele>
        <time>2014-11-23T10:31:08Z</time>
      </trkpt>
      <trkpt lat="50.50924" lon="4.2676">
        <ele>114</ele>
        <time>2014-11-23T10:31:12Z</time>
      </trkpt>
      <trkpt lat="50.50891" lon="4.26789">
        <ele>113</ele>
        <time>2014-11-23T10:31:19Z</time>
      </trkpt>
      <trkpt lat="50.50883" lon="4.26796">
        <ele>114</ele>
        <time>2014-11-23T10:31:21Z</time>
      </trkpt>
      <trkpt lat="50.50856" lon="4.26827">
        <ele>111</ele>
        <time>2014-11-23T10:31:28Z</time>
      </trkpt>
      <trkpt lat="50.50842" lon="4.26846">
        <ele>112</ele>
        <time>2014-11-23T10:31:32Z</time>
      </trkpt>
      <trkpt lat="50.50825" lon="4.26867">
        <ele>111</ele>
        <time>2014-11-23T10:31:36Z</time>
      </trkpt>
      <trkpt lat="50.50802" lon="4.26901">
        <ele>108</ele>
        <time>2014-11-23T10:31:41Z</time>
      </trkpt>
      <trkpt lat="50.50782" lon="4.26938">
        <ele>109</ele>
        <time>2014-11-23T10:31:46Z</time>
      </trkpt>
      <trkpt lat="50.50751" lon="4.26999">
        <ele>112</ele>
        <time>2014-11-23T10:31:55Z</time>
      </trkpt>
      <trkpt lat="50.50738" lon="4.27027">
        <ele>109</ele>
        <time>2014-11-23T10:31:59Z</time>
      </trkpt>
      <trkpt lat="50.50732" lon="4.27042">
        <ele>109</ele>
        <time>2014-11-23T10:32:01Z</time>
      </trkpt>
      <trkpt lat="50.5071" lon="4.27084">
        <ele>110</ele>
        <time>2014-11-23T10:32:07Z</time>
      </trkpt>
      <trkpt lat="50.50685" lon="4.27112">
        <ele>111</ele>
        <time>2014-11-23T10:32:13Z</time>
      </trkpt>
      <trkpt lat="50.5067" lon="4.27124">
        <ele>111</ele>
        <time>2014-11-23T10:32:16Z</time>
      </trkpt>
      <trkpt lat="50.50645" lon="4.27107">
        <ele>111</ele>
        <time>2014-11-23T10:32:21Z</time>
      </trkpt>
      <trkpt lat="50.5062" lon="4.27077">
        <ele>110</ele>
        <time>2014-11-23T10:32:26Z</time>
      </trkpt>
      <trkpt lat="50.5058" lon="4.27031">
        <ele>113</ele>
        <time>2014-11-23T10:32:34Z</time>
      </trkpt>
      <trkpt lat="50.50567" lon="4.27015">
        <ele>116</ele>
        <time>2014-11-23T10:32:37Z</time>
      </trkpt>
      <trkpt lat="50.50547" lon="4.26991">
        <ele>118</ele>
        <time>2014-11-23T10:32:42Z</time>
      </trkpt>
      <trkpt lat="50.50533" lon="4.2697">
        <ele>114</ele>
        <time>2014-11-23T10:32:46Z</time>
      </trkpt>
      <trkpt lat="50.50497" lon="4.26946">
        <ele>112</ele>
        <time>2014-11-23T10:32:53Z</time>
      </trkpt>
      <trkpt lat="50.50484" lon="4.26931">
        <ele>112</ele>
        <time>2014-11-23T10:32:56Z</time>
      </trkpt>
      <trkpt lat="50.5043" lon="4.26898">
        <ele>116</ele>
        <time>2014-11-23T10:33:05Z</time>
      </trkpt>
      <trkpt lat="50.50409" lon="4.26882">
        <ele>115</ele>
        <time>2014-11-23T10:33:08Z</time>
      </trkpt>
      <trkpt lat="50.50372" lon="4.26854">
        <ele>116</ele>
        <time>2014-11-23T10:33:14Z</time>
      </trkpt>
      <trkpt lat="50.50342" lon="4.26829">
        <ele>112</ele>
        <time>2014-11-23T10:33:19Z</time>
      </trkpt>
      <trkpt lat="50.50329" lon="4.26819">
        <ele>111</ele>
        <time>2014-11-23T10:33:21Z</time>
      </trkpt>
      <trkpt lat="50.50296" lon="4.26787">
        <ele>112</ele>
        <time>2014-11-23T10:33:27Z</time>
      </trkpt>
      <trkpt lat="50.50278" lon="4.26749">
        <ele>116</ele>
        <time>2014-11-23T10:33:32Z</time>
      </trkpt>
      <trkpt lat="50.50258" lon="4.26719">
        <ele>112</ele>
        <time>2014-11-23T10:33:36Z</time>
      </trkpt>
      <trkpt lat="50.50222" lon="4.26659">
        <ele>113</ele>
        <time>2014-11-23T10:33:44Z</time>
      </trkpt>
      <trkpt lat="50.50211" lon="4.26644">
        <ele>114</ele>
        <time>2014-11-23T10:33:46Z</time>
      </trkpt>
      <trkpt lat="50.50187" lon="4.26608">
        <ele>115</ele>
        <time>2014-11-23T10:33:51Z</time>
      </trkpt>
      <trkpt lat="50.50163" lon="4.26572">
        <ele>120</ele>
        <time>2014-11-23T10:33:56Z</time>
      </trkpt>
      <trkpt lat="50.50138" lon="4.26539">
        <ele>118</ele>
        <time>2014-11-23T10:34:01Z</time>
      </trkpt>
      <trkpt lat="50.50115" lon="4.26499">
        <ele>118</ele>
        <time>2014-11-23T10:34:06Z</time>
      </trkpt>
      <trkpt lat="50.50091" lon="4.26465">
        <ele>119</ele>
        <time>2014-11-23T10:34:11Z</time>
      </trkpt>
      <trkpt lat="50.5006" lon="4.26449">
        <ele>116</ele>
        <time>2014-11-23T10:34:17Z</time>
      </trkpt>
      <trkpt lat="50.50044" lon="4.26472">
        <ele>116</ele>
        <time>2014-11-23T10:34:21Z</time>
      </trkpt>
      <trkpt lat="50.50018" lon="4.26519">
        <ele>116</ele>
        <time>2014-11-23T10:34:28Z</time>
      </trkpt>
      <trkpt lat="50.49994" lon="4.26563">
        <ele>120</ele>
        <time>2014-11-23T10:34:35Z</time>
      </trkpt>
      <trkpt lat="50.49967" lon="4.26573">
        <ele>123</ele>
        <time>2014-11-23T10:34:40Z</time>
      </trkpt>
      <trkpt lat="50.49955" lon="4.26568">
        <ele>121</ele>
        <time>2014-11-23T10:34:42Z</time>
      </trkpt>
      <trkpt lat="50.49921" lon="4.2655">
        <ele>114</ele>
        <time>2014-11-23T10:34:50Z</time>
      </trkpt>
      <trkpt lat="50.4989" lon="4.26532">
        <ele>116</ele>
        <time>2014-11-23T10:34:54Z</time>
      </trkpt>
      <trkpt lat="50.49869" lon="4.26513">
        <ele>114</ele>
        <time>2014-11-23T10:34:58Z</time>
      </trkpt>
      <trkpt lat="50.49849" lon="4.26493">
        <ele>113</ele>
        <time>2014-11-23T10:35:02Z</time>
      </trkpt>
      <trkpt lat="50.49829" lon="4.26477">
        <ele>114</ele>
        <time>2014-11-23T10:35:06Z</time>
      </trkpt>
      <trkpt lat="50.49801" lon="4.26456">
        <ele>117</ele>
        <time>2014-11-23T10:35:11Z</time>
      </trkpt>
      <trkpt lat="50.49777" lon="4.26434">
        <ele>118</ele>
        <time>2014-11-23T10:35:16Z</time>
      </trkpt>
      <trkpt lat="50.49752" lon="4.26411">
        <ele>114</ele>
        <time>2014-11-23T10:35:21Z</time>
      </trkpt>
      <trkpt lat="50.49727" lon="4.26391">
        <ele>119</ele>
        <time>2014-11-23T10:35:26Z</time>
      </trkpt>
      <trkpt lat="50.497" lon="4.26349">
        <ele>118</ele>
        <time>2014-11-23T10:35:34Z</time>
      </trkpt>
      <trkpt lat="50.49703" lon="4.26333">
        <ele>119</ele>
        <time>2014-11-23T10:35:36Z</time>
      </trkpt>
      <trkpt lat="50.49712" lon="4.26288">
        <ele>121</ele>
        <time>2014-11-23T10:35:41Z</time>
      </trkpt>
      <trkpt lat="50.49719" lon="4.26242">
        <ele>124</ele>
        <time>2014-11-23T10:35:46Z</time>
      </trkpt>
      <trkpt lat="50.49725" lon="4.262">
        <ele>123</ele>
        <time>2014-11-23T10:35:51Z</time>
      </trkpt>
      <trkpt lat="50.49734" lon="4.26143">
        <ele>120</ele>
        <time>2014-11-23T10:35:57Z</time>
      </trkpt>
      <trkpt lat="50.49739" lon="4.26102">
        <ele>118</ele>
        <time>2014-11-23T10:36:01Z</time>
      </trkpt>
      <trkpt lat="50.49727" lon="4.26049">
        <ele>117</ele>
        <time>2014-11-23T10:36:07Z</time>
      </trkpt>
      <trkpt lat="50.49706" lon="4.25986">
        <ele>118</ele>
        <time>2014-11-23T10:36:15Z</time>
      </trkpt>
      <trkpt lat="50.49703" lon="4.25978">
        <ele>118</ele>
        <time>2014-11-23T10:36:16Z</time>
      </trkpt>
      <trkpt lat="50.49687" lon="4.25931">
        <ele>119</ele>
        <time>2014-11-23T10:36:22Z</time>
      </trkpt>
      <trkpt lat="50.49674" lon="4.25894">
        <ele>123</ele>
        <time>2014-11-23T10:36:27Z</time>
      </trkpt>
      <trkpt lat="50.49667" lon="4.25867">
        <ele>122</ele>
        <time>2014-11-23T10:36:31Z</time>
      </trkpt>
      <trkpt lat="50.49643" lon="4.25792">
        <ele>116</ele>
        <time>2014-11-23T10:36:40Z</time>
      </trkpt>
      <trkpt lat="50.49641" lon="4.25785">
        <ele>118</ele>
        <time>2014-11-23T10:36:41Z</time>
      </trkpt>
      <trkpt lat="50.49633" lon="4.25744">
        <ele>115</ele>
        <time>2014-11-23T10:36:47Z</time>
      </trkpt>
      <trkpt lat="50.49636" lon="4.25717">
        <ele>115</ele>
        <time>2014-11-23T10:36:51Z</time>
      </trkpt>
      <trkpt lat="50.49628" lon="4.25682">
        <ele>110</ele>
        <time>2014-11-23T10:36:59Z</time>
      </trkpt>
      <trkpt lat="50.49606" lon="4.25677">
        <ele>114</ele>
        <time>2014-11-23T10:37:04Z</time>
      </trkpt>
      <trkpt lat="50.49593" lon="4.25671">
        <ele>115</ele>
        <time>2014-11-23T10:37:07Z</time>
      </trkpt>
      <trkpt lat="50.49575" lon="4.25666">
        <ele>117</ele>
        <time>2014-11-23T10:37:11Z</time>
      </trkpt>
      <trkpt lat="50.49556" lon="4.25658">
        <ele>119</ele>
        <time>2014-11-23T10:37:16Z</time>
      </trkpt>
      <trkpt lat="50.49537" lon="4.25648">
        <ele>121</ele>
        <time>2014-11-23T10:37:21Z</time>
      </trkpt>
      <trkpt lat="50.49506" lon="4.25641">
        <ele>122</ele>
        <time>2014-11-23T10:37:29Z</time>
      </trkpt>
      <trkpt lat="50.49501" lon="4.25663">
        <ele>120</ele>
        <time>2014-11-23T10:37:33Z</time>
      </trkpt>
      <trkpt lat="50.49488" lon="4.25694">
        <ele>121</ele>
        <time>2014-11-23T10:37:39Z</time>
      </trkpt>
      <trkpt lat="50.49484" lon="4.2571">
        <ele>121</ele>
        <time>2014-11-23T10:37:42Z</time>
      </trkpt>
      <trkpt lat="50.49474" lon="4.25726">
        <ele>119</ele>
        <time>2014-11-23T10:37:46Z</time>
      </trkpt>
      <trkpt lat="50.4946" lon="4.25744">
        <ele>117</ele>
        <time>2014-11-23T10:37:51Z</time>
      </trkpt>
      <trkpt lat="50.49444" lon="4.25765">
        <ele>117</ele>
        <time>2014-11-23T10:37:56Z</time>
      </trkpt>
      <trkpt lat="50.49431" lon="4.25796">
        <ele>112</ele>
        <time>2014-11-23T10:38:01Z</time>
      </trkpt>
      <trkpt lat="50.49418" lon="4.2582">
        <ele>112</ele>
        <time>2014-11-23T10:38:06Z</time>
      </trkpt>
      <trkpt lat="50.49398" lon="4.25872">
        <ele>110</ele>
        <time>2014-11-23T10:38:15Z</time>
      </trkpt>
      <trkpt lat="50.49393" lon="4.25887">
        <ele>110</ele>
        <time>2014-11-23T10:38:17Z</time>
      </trkpt>
      <trkpt lat="50.49382" lon="4.25946">
        <ele>115</ele>
        <time>2014-11-23T10:38:24Z</time>
      </trkpt>
      <trkpt lat="50.49371" lon="4.25992">
        <ele>116</ele>
        <time>2014-11-23T10:38:30Z</time>
      </trkpt>
      <trkpt lat="50.49368" lon="4.26007">
        <ele>117</ele>
        <time>2014-11-23T10:38:32Z</time>
      </trkpt>
      <trkpt lat="50.49352" lon="4.2606">
        <ele>116</ele>
        <time>2014-11-23T10:38:40Z</time>
      </trkpt>
      <trkpt lat="50.4935" lon="4.26066">
        <ele>117</ele>
        <time>2014-11-23T10:38:41Z</time>
      </trkpt>
      <trkpt lat="50.49341" lon="4.26102">
        <ele>115</ele>
        <time>2014-11-23T10:38:46Z</time>
      </trkpt>
      <trkpt lat="50.49325" lon="4.26127">
        <ele>118</ele>
        <time>2014-11-23T10:38:52Z</time>
      </trkpt>
      <trkpt lat="50.49308" lon="4.26118">
        <ele>119</ele>
        <time>2014-11-23T10:38:56Z</time>
      </trkpt>
      <trkpt lat="50.49292" lon="4.26105">
        <ele>118</ele>
        <time>2014-11-23T10:39:01Z</time>
      </trkpt>
      <trkpt lat="50.49277" lon="4.26092">
        <ele>121</ele>
        <time>2014-11-23T10:39:07Z</time>
      </trkpt>
      <trkpt lat="50.49251" lon="4.26081">
        <ele>121</ele>
        <time>2014-11-23T10:39:14Z</time>
      </trkpt>
      <trkpt lat="50.49246" lon="4.26075">
        <ele>120</ele>
        <time>2014-11-23T10:39:16Z</time>
      </trkpt>
      <trkpt lat="50.49223" lon="4.26048">
        <ele>118</ele>
        <time>2014-11-23T10:39:23Z</time>
      </trkpt>
      <trkpt lat="50.49213" lon="4.26042">
        <ele>120</ele>
        <time>2014-11-23T10:39:26Z</time>
      </trkpt>
      <trkpt lat="50.49197" lon="4.26033">
        <ele>127</ele>
        <time>2014-11-23T10:39:33Z</time>
      </trkpt>
      <trkpt lat="50.49192" lon="4.26016">
        <ele>124</ele>
        <time>2014-11-23T10:39:39Z</time>
      </trkpt>
      <trkpt lat="50.49179" lon="4.25999">
        <ele>121</ele>
        <time>2014-11-23T10:39:42Z</time>
      </trkpt>
      <trkpt lat="50.49143" lon="4.25986">
        <ele>120</ele>
        <time>2014-11-23T10:39:50Z</time>
      </trkpt>
      <trkpt lat="50.49139" lon="4.25987">
        <ele>119</ele>
        <time>2014-11-23T10:39:51Z</time>
      </trkpt>
      <trkpt lat="50.49123" lon="4.25995">
        <ele>119</ele>
        <time>2014-11-23T10:39:56Z</time>
      </trkpt>
      <trkpt lat="50.4911" lon="4.26009">
        <ele>120</ele>
        <time>2014-11-23T10:40:01Z</time>
      </trkpt>
      <trkpt lat="50.49094" lon="4.26041">
        <ele>120</ele>
        <time>2014-11-23T10:40:07Z</time>
      </trkpt>
      <trkpt lat="50.49082" lon="4.26065">
        <ele>119</ele>
        <time>2014-11-23T10:40:12Z</time>
      </trkpt>
      <trkpt lat="50.49072" lon="4.26087">
        <ele>123</ele>
        <time>2014-11-23T10:40:17Z</time>
      </trkpt>
      <trkpt lat="50.49064" lon="4.26105">
        <ele>121</ele>
        <time>2014-11-23T10:40:21Z</time>
      </trkpt>
      <trkpt lat="50.4905" lon="4.26128">
        <ele>121</ele>
        <time>2014-11-23T10:40:26Z</time>
      </trkpt>
      <trkpt lat="50.49032" lon="4.26162">
        <ele>123</ele>
        <time>2014-11-23T10:40:34Z</time>
      </trkpt>
      <trkpt lat="50.49026" lon="4.26169">
        <ele>127</ele>
        <time>2014-11-23T10:40:37Z</time>
      </trkpt>
      <trkpt lat="50.49019" lon="4.26192">
        <ele>127</ele>
        <time>2014-11-23T10:40:41Z</time>
      </trkpt>
      <trkpt lat="50.49001" lon="4.26236">
        <ele>124</ele>
        <time>2014-11-23T10:40:50Z</time>
      </trkpt>
      <trkpt lat="50.48996" lon="4.26247">
        <ele>121</ele>
        <time>2014-11-23T10:40:52Z</time>
      </trkpt>
      <trkpt lat="50.48982" lon="4.26264">
        <ele>124</ele>
        <time>2014-11-23T10:40:57Z</time>
      </trkpt>
      <trkpt lat="50.48964" lon="4.26297">
        <ele>120</ele>
        <time>2014-11-23T10:41:04Z</time>
      </trkpt>
      <trkpt lat="50.4896" lon="4.26305">
        <ele>124</ele>
        <time>2014-11-23T10:41:06Z</time>
      </trkpt>
      <trkpt lat="50.48951" lon="4.26322">
        <ele>125</ele>
        <time>2014-11-23T10:41:11Z</time>
      </trkpt>
      <trkpt lat="50.48938" lon="4.26338">
        <ele>125</ele>
        <time>2014-11-23T10:41:17Z</time>
      </trkpt>
      <trkpt lat="50.48929" lon="4.26349">
        <ele>124</ele>
        <time>2014-11-23T10:41:22Z</time>
      </trkpt>
      <trkpt lat="50.48916" lon="4.26343">
        <ele>120</ele>
        <time>2014-11-23T10:41:26Z</time>
      </trkpt>
      <trkpt lat="50.48892" lon="4.26314">
        <ele>123</ele>
        <time>2014-11-23T10:41:33Z</time>
      </trkpt>
      <trkpt lat="50.48878" lon="4.26295">
        <ele>120</ele>
        <time>2014-11-23T10:41:38Z</time>
      </trkpt>
      <trkpt lat="50.48869" lon="4.2628">
        <ele>120</ele>
        <time>2014-11-23T10:41:41Z</time>
      </trkpt>
      <trkpt lat="50.48853" lon="4.26261">
        <ele>123</ele>
        <time>2014-11-23T10:41:46Z</time>
      </trkpt>
      <trkpt lat="50.48843" lon="4.26245">
        <ele>125</ele>
        <time>2014-11-23T10:41:51Z</time>
      </trkpt>
      <trkpt lat="50.48828" lon="4.26227">
        <ele>129</ele>
        <time>2014-11-23T10:41:57Z</time>
      </trkpt>
      <trkpt lat="50.48819" lon="4.26214">
        <ele>126</ele>
        <time>2014-11-23T10:42:01Z</time>
      </trkpt>
      <trkpt lat="50.48806" lon="4.26195">
        <ele>127</ele>
        <time>2014-11-23T10:42:07Z</time>
      </trkpt>
      <trkpt lat="50.48798" lon="4.26184">
        <ele>126</ele>
        <time>2014-11-23T10:42:11Z</time>
      </trkpt>
      <trkpt lat="50.4878" lon="4.26159">
        <ele>123</ele>
        <time>2014-11-23T10:42:19Z</time>
      </trkpt>
      <trkpt lat="50.48775" lon="4.26153">
        <ele>125</ele>
        <time>2014-11-23T10:42:21Z</time>
      </trkpt>
      <trkpt lat="50.48759" lon="4.26129">
        <ele>126</ele>
        <time>2014-11-23T10:42:28Z</time>
      </trkpt>
      <trkpt lat="50.48752" lon="4.26118">
        <ele>127</ele>
        <time>2014-11-23T10:42:31Z</time>
      </trkpt>
      <trkpt lat="50.48741" lon="4.26103">
        <ele>130</ele>
        <time>2014-11-23T10:42:36Z</time>
      </trkpt>
      <trkpt lat="50.4873" lon="4.26086">
        <ele>131</ele>
        <time>2014-11-23T10:42:41Z</time>
      </trkpt>
      <trkpt lat="50.48719" lon="4.2607">
        <ele>130</ele>
        <time>2014-11-23T10:42:46Z</time>
      </trkpt>
      <trkpt lat="50.4871" lon="4.26053">
        <ele>130</ele>
        <time>2014-11-23T10:42:51Z</time>
      </trkpt>
      <trkpt lat="50.48699" lon="4.26036">
        <ele>131</ele>
        <time>2014-11-23T10:42:56Z</time>
      </trkpt>
      <trkpt lat="50.48689" lon="4.2602">
        <ele>135</ele>
        <time>2014-11-23T10:43:01Z</time>
      </trkpt>
      <trkpt lat="50.48676" lon="4.26003">
        <ele>135</ele>
        <time>2014-11-23T10:43:06Z</time>
      </trkpt>
      <trkpt lat="50.4866" lon="4.25983">
        <ele>135</ele>
        <time>2014-11-23T10:43:12Z</time>
      </trkpt>
      <trkpt lat="50.48653" lon="4.25972">
        <ele>136</ele>
        <time>2014-11-23T10:43:16Z</time>
      </trkpt>
      <trkpt lat="50.48644" lon="4.25955">
        <ele>138</ele>
        <time>2014-11-23T10:43:21Z</time>
      </trkpt>
      <trkpt lat="50.48635" lon="4.2594">
        <ele>139</ele>
        <time>2014-11-23T10:43:26Z</time>
      </trkpt>
      <trkpt lat="50.48628" lon="4.25924">
        <ele>138</ele>
        <time>2014-11-23T10:43:31Z</time>
      </trkpt>
      <trkpt lat="50.48617" lon="4.25898">
        <ele>141</ele>
        <time>2014-11-23T10:43:40Z</time>
      </trkpt>
      <trkpt lat="50.48615" lon="4.25895">
        <ele>142</ele>
        <time>2014-11-23T10:43:41Z</time>
      </trkpt>
      <trkpt lat="50.48601" lon="4.25872">
        <ele>140</ele>
        <time>2014-11-23T10:43:46Z</time>
      </trkpt>
      <trkpt lat="50.4859" lon="4.25848">
        <ele>138</ele>
        <time>2014-11-23T10:43:53Z</time>
      </trkpt>
      <trkpt lat="50.48583" lon="4.25835">
        <ele>137</ele>
        <time>2014-11-23T10:43:57Z</time>
      </trkpt>
      <trkpt lat="50.48584" lon="4.25814">
        <ele>138</ele>
        <time>2014-11-23T10:44:02Z</time>
      </trkpt>
      <trkpt lat="50.48591" lon="4.25793">
        <ele>137</ele>
        <time>2014-11-23T10:44:07Z</time>
      </trkpt>
      <trkpt lat="50.486" lon="4.25776">
        <ele>137</ele>
        <time>2014-11-23T10:44:11Z</time>
      </trkpt>
      <trkpt lat="50.48612" lon="4.25752">
        <ele>136</ele>
        <time>2014-11-23T10:44:17Z</time>
      </trkpt>
      <trkpt lat="50.48619" lon="4.25739">
        <ele>136</ele>
        <time>2014-11-23T10:44:21Z</time>
      </trkpt>
      <trkpt lat="50.4863" lon="4.2571">
        <ele>149</ele>
        <time>2014-11-23T10:44:29Z</time>
      </trkpt>
      <trkpt lat="50.48633" lon="4.25704">
        <ele>152</ele>
        <time>2014-11-23T10:44:31Z</time>
      </trkpt>
      <trkpt lat="50.48631" lon="4.25674">
        <ele>148</ele>
        <time>2014-11-23T10:44:37Z</time>
      </trkpt>
      <trkpt lat="50.48623" lon="4.25661">
        <ele>150</ele>
        <time>2014-11-23T10:44:41Z</time>
      </trkpt>
      <trkpt lat="50.48614" lon="4.2564">
        <ele>151</ele>
        <time>2014-11-23T10:44:46Z</time>
      </trkpt>
      <trkpt lat="50.48596" lon="4.25614">
        <ele>149</ele>
        <time>2014-11-23T10:44:53Z</time>
      </trkpt>
      <trkpt lat="50.48589" lon="4.25605">
        <ele>147</ele>
        <time>2014-11-23T10:44:56Z</time>
      </trkpt>
      <trkpt lat="50.48578" lon="4.25591">
        <ele>147</ele>
        <time>2014-11-23T10:45:01Z</time>
      </trkpt>
      <trkpt lat="50.48565" lon="4.25575">
        <ele>144</ele>
        <time>2014-11-23T10:45:06Z</time>
      </trkpt>
      <trkpt lat="50.48554" lon="4.25563">
        <ele>145</ele>
        <time>2014-11-23T10:45:11Z</time>
      </trkpt>
      <trkpt lat="50.48541" lon="4.25549">
        <ele>145</ele>
        <time>2014-11-23T10:45:16Z</time>
      </trkpt>
      <trkpt lat="50.4853" lon="4.25536">
        <ele>148</ele>
        <time>2014-11-23T10:45:21Z</time>
      </trkpt>
      <trkpt lat="50.48519" lon="4.25521">
        <ele>149</ele>
        <time>2014-11-23T10:45:26Z</time>
      </trkpt>
      <trkpt lat="50.48508" lon="4.25505">
        <ele>149</ele>
        <time>2014-11-23T10:45:31Z</time>
      </trkpt>
      <trkpt lat="50.48495" lon="4.25491">
        <ele>153</ele>
        <time>2014-11-23T10:45:36Z</time>
      </trkpt>
      <trkpt lat="50.48485" lon="4.25475">
        <ele>152</ele>
        <time>2014-11-23T10:45:41Z</time>
      </trkpt>
      <trkpt lat="50.48469" lon="4.25451">
        <ele>150</ele>
        <time>2014-11-23T10:45:48Z</time>
      </trkpt>
      <trkpt lat="50.48465" lon="4.25441">
        <ele>153</ele>
        <time>2014-11-23T10:45:51Z</time>
      </trkpt>
      <trkpt lat="50.48451" lon="4.25404">
        <ele>153</ele>
        <time>2014-11-23T10:46:00Z</time>
      </trkpt>
      <trkpt lat="50.48443" lon="4.25385">
        <ele>151</ele>
        <time>2014-11-23T10:46:05Z</time>
      </trkpt>
      <trkpt lat="50.48441" lon="4.25381">
        <ele>151</ele>
        <time>2014-11-23T10:46:06Z</time>
      </trkpt>
      <trkpt lat="50.48434" lon="4.25365">
        <ele>169</ele>
        <time>2014-11-23T10:46:12Z</time>
      </trkpt>
      <trkpt lat="50.48425" lon="4.25355">
        <ele>168</ele>
        <time>2014-11-23T10:46:16Z</time>
      </trkpt>
      <trkpt lat="50.48406" lon="4.25333">
        <ele>167</ele>
        <time>2014-11-23T10:46:23Z</time>
      </trkpt>
      <trkpt lat="50.48405" lon="4.25313">
        <ele>165</ele>
        <time>2014-11-23T10:46:27Z</time>
      </trkpt>
      <trkpt lat="50.48409" lon="4.25277">
        <ele>160</ele>
        <time>2014-11-23T10:46:32Z</time>
      </trkpt>
      <trkpt lat="50.48419" lon="4.25215">
        <ele>163</ele>
        <time>2014-11-23T10:46:40Z</time>
      </trkpt>
      <trkpt lat="50.48419" lon="4.252">
        <ele>163</ele>
        <time>2014-11-23T10:46:42Z</time>
      </trkpt>
      <trkpt lat="50.48426" lon="4.25162">
        <ele>159</ele>
        <time>2014-11-23T10:46:46Z</time>
      </trkpt>
      <trkpt lat="50.48433" lon="4.25118">
        <ele>154</ele>
        <time>2014-11-23T10:46:51Z</time>
      </trkpt>
      <trkpt lat="50.48447" lon="4.25057">
        <ele>155</ele>
        <time>2014-11-23T10:46:58Z</time>
      </trkpt>
      <trkpt lat="50.48468" lon="4.25011">
        <ele>156</ele>
        <time>2014-11-23T10:47:05Z</time>
      </trkpt>
      <trkpt lat="50.48473" lon="4.25003">
        <ele>155</ele>
        <time>2014-11-23T10:47:06Z</time>
      </trkpt>
      <trkpt lat="50.4849" lon="4.24972">
        <ele>158</ele>
        <time>2014-11-23T10:47:11Z</time>
      </trkpt>
      <trkpt lat="50.48515" lon="4.24937">
        <ele>158</ele>
        <time>2014-11-23T10:47:18Z</time>
      </trkpt>
      <trkpt lat="50.48525" lon="4.24919">
        <ele>158</ele>
        <time>2014-11-23T10:47:21Z</time>
      </trkpt>
      <trkpt lat="50.48518" lon="4.24883">
        <ele>155</ele>
        <time>2014-11-23T10:47:28Z</time>
      </trkpt>
      <trkpt lat="50.48484" lon="4.24859">
        <ele>157</ele>
        <time>2014-11-23T10:47:35Z</time>
      </trkpt>
      <trkpt lat="50.4847" lon="4.24849">
        <ele>157</ele>
        <time>2014-11-23T10:47:38Z</time>
      </trkpt>
      <trkpt lat="50.48435" lon="4.24825">
        <ele>153</ele>
        <time>2014-11-23T10:47:45Z</time>
      </trkpt>
      <trkpt lat="50.4843" lon="4.24822">
        <ele>153</ele>
        <time>2014-11-23T10:47:46Z</time>
      </trkpt>
      <trkpt lat="50.48403" lon="4.24806">
        <ele>150</ele>
        <time>2014-11-23T10:47:51Z</time>
      </trkpt>
      <trkpt lat="50.48375" lon="4.24782">
        <ele>152</ele>
        <time>2014-11-23T10:47:57Z</time>
      </trkpt>
      <trkpt lat="50.48357" lon="4.24768">
        <ele>155</ele>
        <time>2014-11-23T10:48:01Z</time>
      </trkpt>
      <trkpt lat="50.48334" lon="4.24752">
        <ele>157</ele>
        <time>2014-11-23T10:48:06Z</time>
      </trkpt>
      <trkpt lat="50.48286" lon="4.24721">
        <ele>151</ele>
        <time>2014-11-23T10:48:15Z</time>
      </trkpt>
      <trkpt lat="50.48266" lon="4.24709">
        <ele>148</ele>
        <time>2014-11-23T10:48:18Z</time>
      </trkpt>
      <trkpt lat="50.4825" lon="4.247">
        <ele>148</ele>
        <time>2014-11-23T10:48:21Z</time>
      </trkpt>
      <trkpt lat="50.48224" lon="4.24681">
        <ele>148</ele>
        <time>2014-11-23T10:48:26Z</time>
      </trkpt>
      <trkpt lat="50.48195" lon="4.24658">
        <ele>151</ele>
        <time>2014-11-23T10:48:32Z</time>
      </trkpt>
      <trkpt lat="50.48152" lon="4.24624">
        <ele>150</ele>
        <time>2014-11-23T10:48:40Z</time>
      </trkpt>
      <trkpt lat="50.48146" lon="4.24621">
        <ele>150</ele>
        <time>2014-11-23T10:48:41Z</time>
      </trkpt>
      <trkpt lat="50.4812" lon="4.24603">
        <ele>149</ele>
        <time>2014-11-23T10:48:46Z</time>
      </trkpt>
      <trkpt lat="50.48095" lon="4.24586">
        <ele>144</ele>
        <time>2014-11-23T10:48:51Z</time>
      </trkpt>
      <trkpt lat="50.48067" lon="4.24569">
        <ele>147</ele>
        <time>2014-11-23T10:48:57Z</time>
      </trkpt>
      <trkpt lat="50.48047" lon="4.24554">
        <ele>145</ele>
        <time>2014-11-23T10:49:01Z</time>
      </trkpt>
      <trkpt lat="50.48028" lon="4.24537">
        <ele>149</ele>
        <time>2014-11-23T10:49:06Z</time>
      </trkpt>
      <trkpt lat="50.47996" lon="4.2452">
        <ele>157</ele>
        <time>2014-11-23T10:49:14Z</time>
      </trkpt>
      <trkpt lat="50.47973" lon="4.24505">
        <ele>157</ele>
        <time>2014-11-23T10:49:20Z</time>
      </trkpt>
      <trkpt lat="50.47969" lon="4.24502">
        <ele>157</ele>
        <time>2014-11-23T10:49:21Z</time>
      </trkpt>
      <trkpt lat="50.47949" lon="4.24491">
        <ele>156</ele>
        <time>2014-11-23T10:49:26Z</time>
      </trkpt>
      <trkpt lat="50.47917" lon="4.24467">
        <ele>159</ele>
        <time>2014-11-23T10:49:35Z</time>
      </trkpt>
      <trkpt lat="50.47913" lon="4.24463">
        <ele>158</ele>
        <time>2014-11-23T10:49:36Z</time>
      </trkpt>
      <trkpt lat="50.47891" lon="4.24434">
        <ele>166</ele>
        <time>2014-11-23T10:49:43Z</time>
      </trkpt>
      <trkpt lat="50.47895" lon="4.24416">
        <ele>168</ele>
        <time>2014-11-23T10:49:46Z</time>
      </trkpt>
      <trkpt lat="50.47904" lon="4.24388">
        <ele>167</ele>
        <time>2014-11-23T10:49:51Z</time>
      </trkpt>
      <trkpt lat="50.47914" lon="4.24356">
        <ele>168</ele>
        <time>2014-11-23T10:49:57Z</time>
      </trkpt>
      <trkpt lat="50.47921" lon="4.24319">
        <ele>167</ele>
        <time>2014-11-23T10:50:05Z</time>
      </trkpt>
      <trkpt lat="50.47928" lon="4.24299">
        <ele>165</ele>
        <time>2014-11-23T10:50:10Z</time>
      </trkpt>
      <trkpt lat="50.4793" lon="4.24295">
        <ele>165</ele>
        <time>2014-11-23T10:50:11Z</time>
      </trkpt>
      <trkpt lat="50.47937" lon="4.24276">
        <ele>169</ele>
        <time>2014-11-23T10:50:17Z</time>
      </trkpt>
      <trkpt lat="50.47944" lon="4.24255">
        <ele>171</ele>
        <time>2014-11-23T10:50:22Z</time>
      </trkpt>
      <trkpt lat="50.47952" lon="4.24233">
        <ele>171</ele>
        <time>2014-11-23T10:50:27Z</time>
      </trkpt>
      <trkpt lat="50.47964" lon="4.242">
        <ele>168</ele>
        <time>2014-11-23T10:50:34Z</time>
      </trkpt>
      <trkpt lat="50.47968" lon="4.2419">
        <ele>172</ele>
        <time>2014-11-23T10:50:37Z</time>
      </trkpt>
      <trkpt lat="50.47974" lon="4.24171">
        <ele>169</ele>
        <time>2014-11-23T10:50:41Z</time>
      </trkpt>
      <trkpt lat="50.47982" lon="4.24145">
        <ele>171</ele>
        <time>2014-11-23T10:50:46Z</time>
      </trkpt>
      <trkpt lat="50.47993" lon="4.24104">
        <ele>162</ele>
        <time>2014-11-23T10:50:51Z</time>
      </trkpt>
      <trkpt lat="50.48016" lon="4.24034">
        <ele>161</ele>
        <time>2014-11-23T10:50:58Z</time>
      </trkpt>
      <trkpt lat="50.48033" lon="4.23978">
        <ele>159</ele>
        <time>2014-11-23T10:51:03Z</time>
      </trkpt>
      <trkpt lat="50.48051" lon="4.2394">
        <ele>155</ele>
        <time>2014-11-23T10:51:07Z</time>
      </trkpt>
      <trkpt lat="50.48063" lon="4.23915">
        <ele>156</ele>
        <time>2014-11-23T10:51:12Z</time>
      </trkpt>
      <trkpt lat="50.48064" lon="4.23914">
        <ele>156</ele>
        <time>2014-11-23T10:51:16Z</time>
      </trkpt>
      <trkpt lat="50.48064" lon="4.23913">
        <ele>155</ele>
        <time>2014-11-23T10:51:21Z</time>
      </trkpt>
      <trkpt lat="50.48066" lon="4.23913">
        <ele>155</ele>
        <time>2014-11-23T10:51:26Z</time>
      </trkpt>
      <trkpt lat="50.48065" lon="4.23913">
        <ele>154</ele>
        <time>2014-11-23T10:51:31Z</time>
      </trkpt>
      <trkpt lat="50.48065" lon="4.23913">
        <ele>154</ele>
        <time>2014-11-23T10:51:39Z</time>
      </trkpt>
      <trkpt lat="50.48065" lon="4.23913">
        <ele>153</ele>
        <time>2014-11-23T10:51:44Z</time>
      </trkpt>
      <trkpt lat="50.48063" lon="4.23914">
        <ele>152</ele>
        <time>2014-11-23T10:51:48Z</time>
      </trkpt>
      <trkpt lat="50.48064" lon="4.23916">
        <ele>150</ele>
        <time>2014-11-23T10:51:51Z</time>
      </trkpt>
      <trkpt lat="50.48065" lon="4.23916">
        <ele>149</ele>
        <time>2014-11-23T10:51:56Z</time>
      </trkpt>
      <trkpt lat="50.48065" lon="4.23916">
        <ele>149</ele>
        <time>2014-11-23T10:52:02Z</time>
      </trkpt>
      <trkpt lat="50.48065" lon="4.23916">
        <ele>149</ele>
        <time>2014-11-23T10:52:06Z</time>
      </trkpt>
      <trkpt lat="50.48061" lon="4.2391">
        <ele>151</ele>
        <time>2014-11-23T10:52:15Z</time>
      </trkpt>
      <trkpt lat="50.48061" lon="4.23909">
        <ele>151</ele>
        <time>2014-11-23T10:52:16Z</time>
      </trkpt>
      <trkpt lat="50.48059" lon="4.23906">
        <ele>150</ele>
        <time>2014-11-23T10:52:21Z</time>
      </trkpt>
      <trkpt lat="50.48061" lon="4.23907">
        <ele>150</ele>
        <time>2014-11-23T10:52:26Z</time>
      </trkpt>
      <trkpt lat="50.48061" lon="4.23909">
        <ele>148</ele>
        <time>2014-11-23T10:52:31Z</time>
      </trkpt>
      <trkpt lat="50.48062" lon="4.23909">
        <ele>148</ele>
        <time>2014-11-23T10:52:36Z</time>
      </trkpt>
    </trkseg>
  </trk>
</gpx>